<?xml version="1.0" encoding="UTF-8" standalone="no" ?>
<gpx xmlns="http://www.topografix.com/GPX/1/1" xmlns:xsi="http://www.w3.org/2001/XMLSchema-instance" xsi:schemaLocation="http://www.topografix.com/GPX/1/1 http://www.topografix.com/GPX/1/1/gpx.xsd" version="1.1" creator="VisuGPX - https://www.visugpx.com">
  <metadata>
    <name>VTT Turriers/30 pas/Les Dorats</name>
    <desc><![CDATA[De Turriers aller à Bayons par la route , puis prendre à gauche la piste de la Combe .A env. 4 km prendre à Gauche la piste de 30 pas qui conduit après une longue montée à un embranchement (à 1500 m) prendre la piste à droite en admirant le paysage sur le massif des Monges , au bout de la piste (barriere ) prendre la piste de gauche puis dès la première balise jaune descendre aux Dorats par un amusant sentier en sous bois . Des Dorats rejoindre Turriers par la route]]></desc>
  </metadata>
  <trk>
    <name><![CDATA[N°20 Turriers/Piste 30 pas/Les Dorats]]></name>
    <trkseg>
      <trkpt lat="44.39811" lon="6.17149">
        <ele>955.687744</ele>
        <time>2011-09-02T07:08:29Z</time>
      </trkpt>
      <trkpt lat="44.39813" lon="6.17151">
        <ele>956.168457</ele>
        <time>2011-09-02T07:09:03Z</time>
      </trkpt>
      <trkpt lat="44.39806" lon="6.17135">
        <ele>955.687744</ele>
        <time>2011-09-02T07:09:17Z</time>
      </trkpt>
      <trkpt lat="44.39804" lon="6.17134">
        <ele>957.610596</ele>
        <time>2011-09-02T07:09:56Z</time>
      </trkpt>
      <trkpt lat="44.39802" lon="6.17132">
        <ele>956.64917</ele>
        <time>2011-09-02T07:10:12Z</time>
      </trkpt>
      <trkpt lat="44.39796" lon="6.17129">
        <ele>956.168457</ele>
        <time>2011-09-02T07:10:16Z</time>
      </trkpt>
      <trkpt lat="44.39792" lon="6.17127">
        <ele>956.64917</ele>
        <time>2011-09-02T07:10:23Z</time>
      </trkpt>
      <trkpt lat="44.39793" lon="6.17124">
        <ele>956.64917</ele>
        <time>2011-09-02T07:10:37Z</time>
      </trkpt>
      <trkpt lat="44.3979" lon="6.17123">
        <ele>956.64917</ele>
        <time>2011-09-02T07:10:49Z</time>
      </trkpt>
      <trkpt lat="44.39792" lon="6.1711">
        <ele>957.610596</ele>
        <time>2011-09-02T07:10:54Z</time>
      </trkpt>
      <trkpt lat="44.39795" lon="6.17105">
        <ele>958.571777</ele>
        <time>2011-09-02T07:10:56Z</time>
      </trkpt>
      <trkpt lat="44.39813" lon="6.17065">
        <ele>961.455811</ele>
        <time>2011-09-02T07:11:12Z</time>
      </trkpt>
      <trkpt lat="44.39814" lon="6.17063">
        <ele>960.975098</ele>
        <time>2011-09-02T07:11:13Z</time>
      </trkpt>
      <trkpt lat="44.39814" lon="6.17054">
        <ele>962.897705</ele>
        <time>2011-09-02T07:11:16Z</time>
      </trkpt>
      <trkpt lat="44.39815" lon="6.17043">
        <ele>962.897705</ele>
        <time>2011-09-02T07:11:20Z</time>
      </trkpt>
      <trkpt lat="44.39809" lon="6.17035">
        <ele>961.455811</ele>
        <time>2011-09-02T07:11:24Z</time>
      </trkpt>
      <trkpt lat="44.39799" lon="6.17032">
        <ele>961.455811</ele>
        <time>2011-09-02T07:11:27Z</time>
      </trkpt>
      <trkpt lat="44.39746" lon="6.17019">
        <ele>959.533203</ele>
        <time>2011-09-02T07:11:37Z</time>
      </trkpt>
      <trkpt lat="44.39715" lon="6.16999">
        <ele>957.610596</ele>
        <time>2011-09-02T07:11:42Z</time>
      </trkpt>
      <trkpt lat="44.39699" lon="6.16989">
        <ele>956.168457</ele>
        <time>2011-09-02T07:11:45Z</time>
      </trkpt>
      <trkpt lat="44.3969" lon="6.16985">
        <ele>954.726318</ele>
        <time>2011-09-02T07:11:47Z</time>
      </trkpt>
      <trkpt lat="44.39658" lon="6.16994">
        <ele>953.765137</ele>
        <time>2011-09-02T07:11:53Z</time>
      </trkpt>
      <trkpt lat="44.39618" lon="6.16988">
        <ele>951.361816</ele>
        <time>2011-09-02T07:12:01Z</time>
      </trkpt>
      <trkpt lat="44.39586" lon="6.16996">
        <ele>950.881104</ele>
        <time>2011-09-02T07:12:14Z</time>
      </trkpt>
      <trkpt lat="44.39527" lon="6.1702">
        <ele>951.842529</ele>
        <time>2011-09-02T07:12:29Z</time>
      </trkpt>
      <trkpt lat="44.39485" lon="6.17044">
        <ele>954.24585</ele>
        <time>2011-09-02T07:12:49Z</time>
      </trkpt>
      <trkpt lat="44.39445" lon="6.17073">
        <ele>957.129883</ele>
        <time>2011-09-02T07:13:08Z</time>
      </trkpt>
      <trkpt lat="44.39415" lon="6.17099">
        <ele>960.494385</ele>
        <time>2011-09-02T07:13:27Z</time>
      </trkpt>
      <trkpt lat="44.39389" lon="6.17121">
        <ele>963.378418</ele>
        <time>2011-09-02T07:13:44Z</time>
      </trkpt>
      <trkpt lat="44.39377" lon="6.17118">
        <ele>965.301025</ele>
        <time>2011-09-02T07:13:52Z</time>
      </trkpt>
      <trkpt lat="44.39371" lon="6.17107">
        <ele>966.262207</ele>
        <time>2011-09-02T07:13:58Z</time>
      </trkpt>
      <trkpt lat="44.39364" lon="6.17063">
        <ele>969.626953</ele>
        <time>2011-09-02T07:14:18Z</time>
      </trkpt>
      <trkpt lat="44.39348" lon="6.17032">
        <ele>972.991699</ele>
        <time>2011-09-02T07:14:37Z</time>
      </trkpt>
      <trkpt lat="44.39326" lon="6.16999">
        <ele>976.356201</ele>
        <time>2011-09-02T07:15:00Z</time>
      </trkpt>
      <trkpt lat="44.39329" lon="6.16973">
        <ele>979.23999</ele>
        <time>2011-09-02T07:15:13Z</time>
      </trkpt>
      <trkpt lat="44.39346" lon="6.16912">
        <ele>982.124023</ele>
        <time>2011-09-02T07:15:41Z</time>
      </trkpt>
      <trkpt lat="44.3935" lon="6.16855">
        <ele>984.046631</ele>
        <time>2011-09-02T07:16:06Z</time>
      </trkpt>
      <trkpt lat="44.3935" lon="6.16813">
        <ele>986.449951</ele>
        <time>2011-09-02T07:16:25Z</time>
      </trkpt>
      <trkpt lat="44.39352" lon="6.16784">
        <ele>989.814697</ele>
        <time>2011-09-02T07:16:40Z</time>
      </trkpt>
      <trkpt lat="44.3934" lon="6.16751">
        <ele>993.179199</ele>
        <time>2011-09-02T07:17:00Z</time>
      </trkpt>
      <trkpt lat="44.39321" lon="6.16718">
        <ele>996.063232</ele>
        <time>2011-09-02T07:17:22Z</time>
      </trkpt>
      <trkpt lat="44.393" lon="6.16696">
        <ele>998.947021</ele>
        <time>2011-09-02T07:17:42Z</time>
      </trkpt>
      <trkpt lat="44.39271" lon="6.16691">
        <ele>1002.311523</ele>
        <time>2011-09-02T07:18:03Z</time>
      </trkpt>
      <trkpt lat="44.39258" lon="6.16661">
        <ele>1005.195801</ele>
        <time>2011-09-02T07:18:21Z</time>
      </trkpt>
      <trkpt lat="44.39258" lon="6.16648">
        <ele>1006.156982</ele>
        <time>2011-09-02T07:18:28Z</time>
      </trkpt>
      <trkpt lat="44.39259" lon="6.16597">
        <ele>1009.521729</ele>
        <time>2011-09-02T07:18:53Z</time>
      </trkpt>
      <trkpt lat="44.39264" lon="6.16557">
        <ele>1012.405518</ele>
        <time>2011-09-02T07:19:13Z</time>
      </trkpt>
      <trkpt lat="44.39278" lon="6.16514">
        <ele>1015.289551</ele>
        <time>2011-09-02T07:19:36Z</time>
      </trkpt>
      <trkpt lat="44.39282" lon="6.16484">
        <ele>1017.692627</ele>
        <time>2011-09-02T07:19:55Z</time>
      </trkpt>
      <trkpt lat="44.39264" lon="6.16498">
        <ele>1019.134766</ele>
        <time>2011-09-02T07:20:08Z</time>
      </trkpt>
      <trkpt lat="44.39225" lon="6.16535">
        <ele>1022.018799</ele>
        <time>2011-09-02T07:20:35Z</time>
      </trkpt>
      <trkpt lat="44.39196" lon="6.16562">
        <ele>1024.902832</ele>
        <time>2011-09-02T07:20:57Z</time>
      </trkpt>
      <trkpt lat="44.39178" lon="6.16544">
        <ele>1027.786621</ele>
        <time>2011-09-02T07:21:13Z</time>
      </trkpt>
      <trkpt lat="44.39173" lon="6.165">
        <ele>1031.631836</ele>
        <time>2011-09-02T07:21:36Z</time>
      </trkpt>
      <trkpt lat="44.39168" lon="6.1646">
        <ele>1033.07373</ele>
        <time>2011-09-02T07:21:55Z</time>
      </trkpt>
      <trkpt lat="44.39148" lon="6.1645">
        <ele>1035.477051</ele>
        <time>2011-09-02T07:22:12Z</time>
      </trkpt>
      <trkpt lat="44.39124" lon="6.1645">
        <ele>1038.361328</ele>
        <time>2011-09-02T07:22:29Z</time>
      </trkpt>
      <trkpt lat="44.39109" lon="6.16445">
        <ele>1039.803223</ele>
        <time>2011-09-02T07:22:46Z</time>
      </trkpt>
      <trkpt lat="44.39109" lon="6.16445">
        <ele>1043.167725</ele>
        <time>2011-09-02T07:25:00Z</time>
      </trkpt>
      <trkpt lat="44.39109" lon="6.16445">
        <ele>1043.167725</ele>
        <time>2011-09-02T07:25:21Z</time>
      </trkpt>
      <trkpt lat="44.39109" lon="6.16445">
        <ele>1046.532471</ele>
        <time>2011-09-02T07:28:23Z</time>
      </trkpt>
      <trkpt lat="44.39109" lon="6.16445">
        <ele>1049.41626</ele>
        <time>2011-09-02T07:31:50Z</time>
      </trkpt>
      <trkpt lat="44.39109" lon="6.16445">
        <ele>1052.781006</ele>
        <time>2011-09-02T07:34:50Z</time>
      </trkpt>
      <trkpt lat="44.39109" lon="6.16445">
        <ele>1055.665039</ele>
        <time>2011-09-02T07:38:05Z</time>
      </trkpt>
      <trkpt lat="44.39109" lon="6.16445">
        <ele>1059.029541</ele>
        <time>2011-09-02T07:41:26Z</time>
      </trkpt>
      <trkpt lat="44.39109" lon="6.16445">
        <ele>1059.990723</ele>
        <time>2011-09-02T07:43:01Z</time>
      </trkpt>
      <trkpt lat="44.39108" lon="6.16445">
        <ele>1059.990723</ele>
        <time>2011-09-02T07:43:03Z</time>
      </trkpt>
      <trkpt lat="44.39069" lon="6.1642">
        <ele>1061.432861</ele>
        <time>2011-09-02T07:43:22Z</time>
      </trkpt>
      <trkpt lat="44.39028" lon="6.1639">
        <ele>1062.394043</ele>
        <time>2011-09-02T07:43:41Z</time>
      </trkpt>
      <trkpt lat="44.38978" lon="6.16374">
        <ele>1064.31665</ele>
        <time>2011-09-02T07:44:02Z</time>
      </trkpt>
      <trkpt lat="44.38931" lon="6.16354">
        <ele>1066.719971</ele>
        <time>2011-09-02T07:44:25Z</time>
      </trkpt>
      <trkpt lat="44.38884" lon="6.16343">
        <ele>1069.604248</ele>
        <time>2011-09-02T07:44:49Z</time>
      </trkpt>
      <trkpt lat="44.38841" lon="6.16315">
        <ele>1072.488037</ele>
        <time>2011-09-02T07:45:13Z</time>
      </trkpt>
      <trkpt lat="44.38799" lon="6.16278">
        <ele>1075.852539</ele>
        <time>2011-09-02T07:45:38Z</time>
      </trkpt>
      <trkpt lat="44.38761" lon="6.16255">
        <ele>1079.217041</ele>
        <time>2011-09-02T07:46:00Z</time>
      </trkpt>
      <trkpt lat="44.3873" lon="6.16254">
        <ele>1082.581787</ele>
        <time>2011-09-02T07:46:18Z</time>
      </trkpt>
      <trkpt lat="44.38691" lon="6.16255">
        <ele>1085.946533</ele>
        <time>2011-09-02T07:46:41Z</time>
      </trkpt>
      <trkpt lat="44.38655" lon="6.16236">
        <ele>1088.349854</ele>
        <time>2011-09-02T07:47:03Z</time>
      </trkpt>
      <trkpt lat="44.38618" lon="6.16213">
        <ele>1091.233643</ele>
        <time>2011-09-02T07:47:26Z</time>
      </trkpt>
      <trkpt lat="44.38577" lon="6.1622">
        <ele>1092.195068</ele>
        <time>2011-09-02T07:47:45Z</time>
      </trkpt>
      <trkpt lat="44.3851" lon="6.16231">
        <ele>1092.195068</ele>
        <time>2011-09-02T07:48:04Z</time>
      </trkpt>
      <trkpt lat="44.38442" lon="6.1623">
        <ele>1093.15625</ele>
        <time>2011-09-02T07:48:24Z</time>
      </trkpt>
      <trkpt lat="44.38407" lon="6.16243">
        <ele>1094.598145</ele>
        <time>2011-09-02T07:48:39Z</time>
      </trkpt>
      <trkpt lat="44.38366" lon="6.16251">
        <ele>1097.482178</ele>
        <time>2011-09-02T07:48:59Z</time>
      </trkpt>
      <trkpt lat="44.38334" lon="6.1628">
        <ele>1101.327637</ele>
        <time>2011-09-02T07:49:18Z</time>
      </trkpt>
      <trkpt lat="44.38309" lon="6.16307">
        <ele>1104.21167</ele>
        <time>2011-09-02T07:49:35Z</time>
      </trkpt>
      <trkpt lat="44.38285" lon="6.16345">
        <ele>1107.576172</ele>
        <time>2011-09-02T07:49:55Z</time>
      </trkpt>
      <trkpt lat="44.38257" lon="6.16378">
        <ele>1110.459961</ele>
        <time>2011-09-02T07:50:14Z</time>
      </trkpt>
      <trkpt lat="44.38218" lon="6.16405">
        <ele>1113.824463</ele>
        <time>2011-09-02T07:50:37Z</time>
      </trkpt>
      <trkpt lat="44.38184" lon="6.1642">
        <ele>1116.70874</ele>
        <time>2011-09-02T07:50:56Z</time>
      </trkpt>
      <trkpt lat="44.38147" lon="6.16456">
        <ele>1119.112061</ele>
        <time>2011-09-02T07:51:20Z</time>
      </trkpt>
      <trkpt lat="44.38115" lon="6.16448">
        <ele>1121.034668</ele>
        <time>2011-09-02T07:51:36Z</time>
      </trkpt>
      <trkpt lat="44.38061" lon="6.16427">
        <ele>1122.957275</ele>
        <time>2011-09-02T07:52:00Z</time>
      </trkpt>
      <trkpt lat="44.38028" lon="6.16402">
        <ele>1123.918457</ele>
        <time>2011-09-02T07:52:17Z</time>
      </trkpt>
      <trkpt lat="44.37996" lon="6.16369">
        <ele>1125.841064</ele>
        <time>2011-09-02T07:52:35Z</time>
      </trkpt>
      <trkpt lat="44.37985" lon="6.16328">
        <ele>1128.244385</ele>
        <time>2011-09-02T07:52:53Z</time>
      </trkpt>
      <trkpt lat="44.37989" lon="6.16312">
        <ele>1129.686279</ele>
        <time>2011-09-02T07:53:00Z</time>
      </trkpt>
      <trkpt lat="44.38" lon="6.16285">
        <ele>1131.608887</ele>
        <time>2011-09-02T07:53:15Z</time>
      </trkpt>
      <trkpt lat="44.37995" lon="6.16276">
        <ele>1132.089844</ele>
        <time>2011-09-02T07:53:20Z</time>
      </trkpt>
      <trkpt lat="44.37962" lon="6.16282">
        <ele>1135.935059</ele>
        <time>2011-09-02T07:53:42Z</time>
      </trkpt>
      <trkpt lat="44.37937" lon="6.16304">
        <ele>1138.819092</ele>
        <time>2011-09-02T07:54:01Z</time>
      </trkpt>
      <trkpt lat="44.37908" lon="6.16307">
        <ele>1141.702881</ele>
        <time>2011-09-02T07:54:20Z</time>
      </trkpt>
      <trkpt lat="44.37875" lon="6.16306">
        <ele>1143.625488</ele>
        <time>2011-09-02T07:54:39Z</time>
      </trkpt>
      <trkpt lat="44.3784" lon="6.16309">
        <ele>1146.98999</ele>
        <time>2011-09-02T07:54:59Z</time>
      </trkpt>
      <trkpt lat="44.37797" lon="6.16312">
        <ele>1149.874268</ele>
        <time>2011-09-02T07:55:22Z</time>
      </trkpt>
      <trkpt lat="44.37764" lon="6.16315">
        <ele>1152.277344</ele>
        <time>2011-09-02T07:55:41Z</time>
      </trkpt>
      <trkpt lat="44.37714" lon="6.16312">
        <ele>1155.161377</ele>
        <time>2011-09-02T07:56:07Z</time>
      </trkpt>
      <trkpt lat="44.37672" lon="6.16313">
        <ele>1158.525879</ele>
        <time>2011-09-02T07:56:31Z</time>
      </trkpt>
      <trkpt lat="44.37642" lon="6.16325">
        <ele>1160.929199</ele>
        <time>2011-09-02T07:56:49Z</time>
      </trkpt>
      <trkpt lat="44.37606" lon="6.16338">
        <ele>1163.33252</ele>
        <time>2011-09-02T07:57:10Z</time>
      </trkpt>
      <trkpt lat="44.37573" lon="6.1636">
        <ele>1165.736084</ele>
        <time>2011-09-02T07:57:30Z</time>
      </trkpt>
      <trkpt lat="44.37548" lon="6.16376">
        <ele>1167.177979</ele>
        <time>2011-09-02T07:57:45Z</time>
      </trkpt>
      <trkpt lat="44.37538" lon="6.16381">
        <ele>1167.658447</ele>
        <time>2011-09-02T07:57:51Z</time>
      </trkpt>
      <trkpt lat="44.37507" lon="6.16398">
        <ele>1169.581299</ele>
        <time>2011-09-02T07:58:10Z</time>
      </trkpt>
      <trkpt lat="44.37469" lon="6.16417">
        <ele>1171.023193</ele>
        <time>2011-09-02T07:58:32Z</time>
      </trkpt>
      <trkpt lat="44.37424" lon="6.16433">
        <ele>1170.54248</ele>
        <time>2011-09-02T07:58:51Z</time>
      </trkpt>
      <trkpt lat="44.37394" lon="6.16447">
        <ele>1169.581299</ele>
        <time>2011-09-02T07:58:58Z</time>
      </trkpt>
      <trkpt lat="44.37312" lon="6.16482">
        <ele>1169.100586</ele>
        <time>2011-09-02T07:59:14Z</time>
      </trkpt>
      <trkpt lat="44.3725" lon="6.16512">
        <ele>1166.697266</ele>
        <time>2011-09-02T07:59:27Z</time>
      </trkpt>
      <trkpt lat="44.37203" lon="6.16562">
        <ele>1165.255371</ele>
        <time>2011-09-02T07:59:37Z</time>
      </trkpt>
      <trkpt lat="44.37128" lon="6.16614">
        <ele>1163.33252</ele>
        <time>2011-09-02T07:59:49Z</time>
      </trkpt>
      <trkpt lat="44.37115" lon="6.16667">
        <ele>1161.409912</ele>
        <time>2011-09-02T07:59:56Z</time>
      </trkpt>
      <trkpt lat="44.3712" lon="6.16709">
        <ele>1159.006592</ele>
        <time>2011-09-02T08:00:01Z</time>
      </trkpt>
      <trkpt lat="44.37108" lon="6.16742">
        <ele>1157.083984</ele>
        <time>2011-09-02T08:00:06Z</time>
      </trkpt>
      <trkpt lat="44.3709" lon="6.16737">
        <ele>1156.603271</ele>
        <time>2011-09-02T08:00:09Z</time>
      </trkpt>
      <trkpt lat="44.37074" lon="6.16735">
        <ele>1155.64209</ele>
        <time>2011-09-02T08:00:11Z</time>
      </trkpt>
      <trkpt lat="44.37058" lon="6.16743">
        <ele>1155.161377</ele>
        <time>2011-09-02T08:00:13Z</time>
      </trkpt>
      <trkpt lat="44.37011" lon="6.16767">
        <ele>1150.835449</ele>
        <time>2011-09-02T08:00:18Z</time>
      </trkpt>
      <trkpt lat="44.36995" lon="6.16775">
        <ele>1149.393555</ele>
        <time>2011-09-02T08:00:20Z</time>
      </trkpt>
      <trkpt lat="44.36964" lon="6.16792">
        <ele>1147.470703</ele>
        <time>2011-09-02T08:00:24Z</time>
      </trkpt>
      <trkpt lat="44.36931" lon="6.16827">
        <ele>1145.548096</ele>
        <time>2011-09-02T08:00:29Z</time>
      </trkpt>
      <trkpt lat="44.36913" lon="6.16851">
        <ele>1144.106201</ele>
        <time>2011-09-02T08:00:32Z</time>
      </trkpt>
      <trkpt lat="44.36838" lon="6.16904">
        <ele>1140.741455</ele>
        <time>2011-09-02T08:00:42Z</time>
      </trkpt>
      <trkpt lat="44.36788" lon="6.16928">
        <ele>1138.338379</ele>
        <time>2011-09-02T08:00:47Z</time>
      </trkpt>
      <trkpt lat="44.3677" lon="6.16936">
        <ele>1134.973877</ele>
        <time>2011-09-02T08:00:49Z</time>
      </trkpt>
      <trkpt lat="44.36762" lon="6.1694">
        <ele>1134.973877</ele>
        <time>2011-09-02T08:00:50Z</time>
      </trkpt>
      <trkpt lat="44.36728" lon="6.16953">
        <ele>1133.531738</ele>
        <time>2011-09-02T08:00:54Z</time>
      </trkpt>
      <trkpt lat="44.36719" lon="6.16955">
        <ele>1132.570557</ele>
        <time>2011-09-02T08:00:55Z</time>
      </trkpt>
      <trkpt lat="44.36702" lon="6.16959">
        <ele>1131.128418</ele>
        <time>2011-09-02T08:00:57Z</time>
      </trkpt>
      <trkpt lat="44.36665" lon="6.16996">
        <ele>1129.205566</ele>
        <time>2011-09-02T08:01:02Z</time>
      </trkpt>
      <trkpt lat="44.36651" lon="6.17015">
        <ele>1128.244385</ele>
        <time>2011-09-02T08:01:04Z</time>
      </trkpt>
      <trkpt lat="44.36614" lon="6.17041">
        <ele>1126.321777</ele>
        <time>2011-09-02T08:01:08Z</time>
      </trkpt>
      <trkpt lat="44.36604" lon="6.17045">
        <ele>1124.879883</ele>
        <time>2011-09-02T08:01:09Z</time>
      </trkpt>
      <trkpt lat="44.36586" lon="6.17053">
        <ele>1123.918457</ele>
        <time>2011-09-02T08:01:11Z</time>
      </trkpt>
      <trkpt lat="44.36572" lon="6.17062">
        <ele>1121.99585</ele>
        <time>2011-09-02T08:01:13Z</time>
      </trkpt>
      <trkpt lat="44.36523" lon="6.17088">
        <ele>1118.150635</ele>
        <time>2011-09-02T08:01:19Z</time>
      </trkpt>
      <trkpt lat="44.36513" lon="6.17091">
        <ele>1118.150635</ele>
        <time>2011-09-02T08:01:20Z</time>
      </trkpt>
      <trkpt lat="44.36495" lon="6.17097">
        <ele>1116.228027</ele>
        <time>2011-09-02T08:01:22Z</time>
      </trkpt>
      <trkpt lat="44.36478" lon="6.17103">
        <ele>1115.266602</ele>
        <time>2011-09-02T08:01:24Z</time>
      </trkpt>
      <trkpt lat="44.36459" lon="6.17105">
        <ele>1113.343994</ele>
        <time>2011-09-02T08:01:26Z</time>
      </trkpt>
      <trkpt lat="44.36394" lon="6.17092">
        <ele>1109.979248</ele>
        <time>2011-09-02T08:01:33Z</time>
      </trkpt>
      <trkpt lat="44.36384" lon="6.17091">
        <ele>1109.979248</ele>
        <time>2011-09-02T08:01:34Z</time>
      </trkpt>
      <trkpt lat="44.36338" lon="6.17082">
        <ele>1106.614746</ele>
        <time>2011-09-02T08:01:39Z</time>
      </trkpt>
      <trkpt lat="44.3632" lon="6.17079">
        <ele>1105.653564</ele>
        <time>2011-09-02T08:01:41Z</time>
      </trkpt>
      <trkpt lat="44.36311" lon="6.17078">
        <ele>1104.692139</ele>
        <time>2011-09-02T08:01:42Z</time>
      </trkpt>
      <trkpt lat="44.36291" lon="6.17061">
        <ele>1103.250244</ele>
        <time>2011-09-02T08:01:45Z</time>
      </trkpt>
      <trkpt lat="44.36284" lon="6.17054">
        <ele>1102.288818</ele>
        <time>2011-09-02T08:01:46Z</time>
      </trkpt>
      <trkpt lat="44.3627" lon="6.1704">
        <ele>1101.80835</ele>
        <time>2011-09-02T08:01:48Z</time>
      </trkpt>
      <trkpt lat="44.36256" lon="6.17026">
        <ele>1099.885498</ele>
        <time>2011-09-02T08:01:50Z</time>
      </trkpt>
      <trkpt lat="44.36231" lon="6.16993">
        <ele>1097.482178</ele>
        <time>2011-09-02T08:01:54Z</time>
      </trkpt>
      <trkpt lat="44.3621" lon="6.16982">
        <ele>1095.078857</ele>
        <time>2011-09-02T08:01:57Z</time>
      </trkpt>
      <trkpt lat="44.36195" lon="6.16975">
        <ele>1094.117676</ele>
        <time>2011-09-02T08:01:59Z</time>
      </trkpt>
      <trkpt lat="44.36179" lon="6.16979">
        <ele>1092.675781</ele>
        <time>2011-09-02T08:02:01Z</time>
      </trkpt>
      <trkpt lat="44.36163" lon="6.16974">
        <ele>1090.272461</ele>
        <time>2011-09-02T08:02:03Z</time>
      </trkpt>
      <trkpt lat="44.3613" lon="6.16956">
        <ele>1088.349854</ele>
        <time>2011-09-02T08:02:07Z</time>
      </trkpt>
      <trkpt lat="44.36093" lon="6.16949">
        <ele>1085.946533</ele>
        <time>2011-09-02T08:02:11Z</time>
      </trkpt>
      <trkpt lat="44.36077" lon="6.16937">
        <ele>1084.504639</ele>
        <time>2011-09-02T08:02:13Z</time>
      </trkpt>
      <trkpt lat="44.36061" lon="6.16927">
        <ele>1083.062256</ele>
        <time>2011-09-02T08:02:15Z</time>
      </trkpt>
      <trkpt lat="44.36037" lon="6.16924">
        <ele>1080.65918</ele>
        <time>2011-09-02T08:02:18Z</time>
      </trkpt>
      <trkpt lat="44.3603" lon="6.16918">
        <ele>1079.697754</ele>
        <time>2011-09-02T08:02:19Z</time>
      </trkpt>
      <trkpt lat="44.36005" lon="6.16899">
        <ele>1078.255859</ele>
        <time>2011-09-02T08:02:22Z</time>
      </trkpt>
      <trkpt lat="44.35996" lon="6.16895">
        <ele>1077.294678</ele>
        <time>2011-09-02T08:02:23Z</time>
      </trkpt>
      <trkpt lat="44.35978" lon="6.16888">
        <ele>1076.333252</ele>
        <time>2011-09-02T08:02:25Z</time>
      </trkpt>
      <trkpt lat="44.35962" lon="6.16878">
        <ele>1074.891357</ele>
        <time>2011-09-02T08:02:27Z</time>
      </trkpt>
      <trkpt lat="44.35948" lon="6.16869">
        <ele>1073.449463</ele>
        <time>2011-09-02T08:02:29Z</time>
      </trkpt>
      <trkpt lat="44.35927" lon="6.16865">
        <ele>1070.56543</ele>
        <time>2011-09-02T08:02:32Z</time>
      </trkpt>
      <trkpt lat="44.35915" lon="6.16869">
        <ele>1069.123535</ele>
        <time>2011-09-02T08:02:34Z</time>
      </trkpt>
      <trkpt lat="44.35896" lon="6.16884">
        <ele>1067.200684</ele>
        <time>2011-09-02T08:02:37Z</time>
      </trkpt>
      <trkpt lat="44.35879" lon="6.16892">
        <ele>1064.31665</ele>
        <time>2011-09-02T08:02:40Z</time>
      </trkpt>
      <trkpt lat="44.35874" lon="6.16878">
        <ele>1061.913574</ele>
        <time>2011-09-02T08:02:46Z</time>
      </trkpt>
      <trkpt lat="44.35877" lon="6.1685">
        <ele>1060.471436</ele>
        <time>2011-09-02T08:02:50Z</time>
      </trkpt>
      <trkpt lat="44.3585" lon="6.16796">
        <ele>1057.587646</ele>
        <time>2011-09-02T08:02:58Z</time>
      </trkpt>
      <trkpt lat="44.35844" lon="6.16762">
        <ele>1055.665039</ele>
        <time>2011-09-02T08:03:02Z</time>
      </trkpt>
      <trkpt lat="44.35845" lon="6.16752">
        <ele>1054.703613</ele>
        <time>2011-09-02T08:03:03Z</time>
      </trkpt>
      <trkpt lat="44.35848" lon="6.16731">
        <ele>1053.261719</ele>
        <time>2011-09-02T08:03:05Z</time>
      </trkpt>
      <trkpt lat="44.35843" lon="6.16693">
        <ele>1050.377686</ele>
        <time>2011-09-02T08:03:09Z</time>
      </trkpt>
      <trkpt lat="44.35824" lon="6.1667">
        <ele>1048.454834</ele>
        <time>2011-09-02T08:03:13Z</time>
      </trkpt>
      <trkpt lat="44.3581" lon="6.16663">
        <ele>1046.051758</ele>
        <time>2011-09-02T08:03:15Z</time>
      </trkpt>
      <trkpt lat="44.35798" lon="6.16658">
        <ele>1045.090332</ele>
        <time>2011-09-02T08:03:17Z</time>
      </trkpt>
      <trkpt lat="44.35789" lon="6.16654">
        <ele>1043.648438</ele>
        <time>2011-09-02T08:03:19Z</time>
      </trkpt>
      <trkpt lat="44.3579" lon="6.16668">
        <ele>1041.72583</ele>
        <time>2011-09-02T08:03:24Z</time>
      </trkpt>
      <trkpt lat="44.358" lon="6.16672">
        <ele>1041.245117</ele>
        <time>2011-09-02T08:03:26Z</time>
      </trkpt>
      <trkpt lat="44.35828" lon="6.16719">
        <ele>1038.842041</ele>
        <time>2011-09-02T08:03:32Z</time>
      </trkpt>
      <trkpt lat="44.35829" lon="6.16742">
        <ele>1038.361328</ele>
        <time>2011-09-02T08:03:34Z</time>
      </trkpt>
      <trkpt lat="44.35831" lon="6.16769">
        <ele>1034.996582</ele>
        <time>2011-09-02T08:03:38Z</time>
      </trkpt>
      <trkpt lat="44.35823" lon="6.16767">
        <ele>1033.07373</ele>
        <time>2011-09-02T08:03:44Z</time>
      </trkpt>
      <trkpt lat="44.35822" lon="6.1676">
        <ele>1032.593262</ele>
        <time>2011-09-02T08:03:45Z</time>
      </trkpt>
      <trkpt lat="44.35817" lon="6.16736">
        <ele>1032.112549</ele>
        <time>2011-09-02T08:03:48Z</time>
      </trkpt>
      <trkpt lat="44.35799" lon="6.16694">
        <ele>1029.709229</ele>
        <time>2011-09-02T08:03:53Z</time>
      </trkpt>
      <trkpt lat="44.35794" lon="6.1669">
        <ele>1028.267334</ele>
        <time>2011-09-02T08:03:54Z</time>
      </trkpt>
      <trkpt lat="44.35782" lon="6.16681">
        <ele>1027.306152</ele>
        <time>2011-09-02T08:03:57Z</time>
      </trkpt>
      <trkpt lat="44.35786" lon="6.16696">
        <ele>1025.383301</ele>
        <time>2011-09-02T08:04:03Z</time>
      </trkpt>
      <trkpt lat="44.35796" lon="6.16709">
        <ele>1024.422119</ele>
        <time>2011-09-02T08:04:05Z</time>
      </trkpt>
      <trkpt lat="44.35804" lon="6.16744">
        <ele>1022.499512</ele>
        <time>2011-09-02T08:04:09Z</time>
      </trkpt>
      <trkpt lat="44.35805" lon="6.16751">
        <ele>1021.538086</ele>
        <time>2011-09-02T08:04:10Z</time>
      </trkpt>
      <trkpt lat="44.35794" lon="6.16751">
        <ele>1019.134766</ele>
        <time>2011-09-02T08:04:16Z</time>
      </trkpt>
      <trkpt lat="44.35791" lon="6.16738">
        <ele>1018.17334</ele>
        <time>2011-09-02T08:04:18Z</time>
      </trkpt>
      <trkpt lat="44.3577" lon="6.16706">
        <ele>1016.731445</ele>
        <time>2011-09-02T08:04:23Z</time>
      </trkpt>
      <trkpt lat="44.35753" lon="6.16698">
        <ele>1015.289551</ele>
        <time>2011-09-02T08:04:26Z</time>
      </trkpt>
      <trkpt lat="44.35727" lon="6.16696">
        <ele>1012.88623</ele>
        <time>2011-09-02T08:04:30Z</time>
      </trkpt>
      <trkpt lat="44.35707" lon="6.16681">
        <ele>1010.963623</ele>
        <time>2011-09-02T08:04:33Z</time>
      </trkpt>
      <trkpt lat="44.35678" lon="6.16695">
        <ele>1009.041016</ele>
        <time>2011-09-02T08:04:37Z</time>
      </trkpt>
      <trkpt lat="44.35649" lon="6.16723">
        <ele>1006.637695</ele>
        <time>2011-09-02T08:04:41Z</time>
      </trkpt>
      <trkpt lat="44.35637" lon="6.16735">
        <ele>1003.753662</ele>
        <time>2011-09-02T08:04:43Z</time>
      </trkpt>
      <trkpt lat="44.3563" lon="6.16741">
        <ele>1003.753662</ele>
        <time>2011-09-02T08:04:44Z</time>
      </trkpt>
      <trkpt lat="44.35617" lon="6.16747">
        <ele>1002.311523</ele>
        <time>2011-09-02T08:04:46Z</time>
      </trkpt>
      <trkpt lat="44.35602" lon="6.16748">
        <ele>1000.869629</ele>
        <time>2011-09-02T08:04:48Z</time>
      </trkpt>
      <trkpt lat="44.35595" lon="6.16746">
        <ele>1000.38916</ele>
        <time>2011-09-02T08:04:49Z</time>
      </trkpt>
      <trkpt lat="44.35579" lon="6.16747">
        <ele>999.908447</ele>
        <time>2011-09-02T08:04:51Z</time>
      </trkpt>
      <trkpt lat="44.35565" lon="6.16757">
        <ele>998.466309</ele>
        <time>2011-09-02T08:04:53Z</time>
      </trkpt>
      <trkpt lat="44.35519" lon="6.16769">
        <ele>995.58252</ele>
        <time>2011-09-02T08:04:58Z</time>
      </trkpt>
      <trkpt lat="44.35503" lon="6.16773">
        <ele>994.140625</ele>
        <time>2011-09-02T08:05:00Z</time>
      </trkpt>
      <trkpt lat="44.35487" lon="6.16775">
        <ele>992.218018</ele>
        <time>2011-09-02T08:05:02Z</time>
      </trkpt>
      <trkpt lat="44.35449" lon="6.16771">
        <ele>988.853516</ele>
        <time>2011-09-02T08:05:07Z</time>
      </trkpt>
      <trkpt lat="44.35441" lon="6.16777">
        <ele>987.411133</ele>
        <time>2011-09-02T08:05:09Z</time>
      </trkpt>
      <trkpt lat="44.35446" lon="6.16792">
        <ele>984.527344</ele>
        <time>2011-09-02T08:05:13Z</time>
      </trkpt>
      <trkpt lat="44.35451" lon="6.16792">
        <ele>984.527344</ele>
        <time>2011-09-02T08:05:14Z</time>
      </trkpt>
      <trkpt lat="44.35476" lon="6.16805">
        <ele>983.085205</ele>
        <time>2011-09-02T08:05:18Z</time>
      </trkpt>
      <trkpt lat="44.35471" lon="6.16836">
        <ele>981.643311</ele>
        <time>2011-09-02T08:05:21Z</time>
      </trkpt>
      <trkpt lat="44.35457" lon="6.16848">
        <ele>981.162842</ele>
        <time>2011-09-02T08:05:23Z</time>
      </trkpt>
      <trkpt lat="44.35442" lon="6.16859">
        <ele>979.720703</ele>
        <time>2011-09-02T08:05:25Z</time>
      </trkpt>
      <trkpt lat="44.3541" lon="6.16883">
        <ele>976.836914</ele>
        <time>2011-09-02T08:05:29Z</time>
      </trkpt>
      <trkpt lat="44.35401" lon="6.16889">
        <ele>976.836914</ele>
        <time>2011-09-02T08:05:30Z</time>
      </trkpt>
      <trkpt lat="44.35383" lon="6.16898">
        <ele>974.914307</ele>
        <time>2011-09-02T08:05:32Z</time>
      </trkpt>
      <trkpt lat="44.35343" lon="6.16917">
        <ele>971.549316</ele>
        <time>2011-09-02T08:05:36Z</time>
      </trkpt>
      <trkpt lat="44.35332" lon="6.16921">
        <ele>971.549316</ele>
        <time>2011-09-02T08:05:37Z</time>
      </trkpt>
      <trkpt lat="44.35309" lon="6.16928">
        <ele>970.107422</ele>
        <time>2011-09-02T08:05:39Z</time>
      </trkpt>
      <trkpt lat="44.35286" lon="6.16934">
        <ele>968.184814</ele>
        <time>2011-09-02T08:05:41Z</time>
      </trkpt>
      <trkpt lat="44.35263" lon="6.1694">
        <ele>964.3396</ele>
        <time>2011-09-02T08:05:43Z</time>
      </trkpt>
      <trkpt lat="44.35253" lon="6.16944">
        <ele>964.3396</ele>
        <time>2011-09-02T08:05:44Z</time>
      </trkpt>
      <trkpt lat="44.35234" lon="6.16956">
        <ele>962.416992</ele>
        <time>2011-09-02T08:05:46Z</time>
      </trkpt>
      <trkpt lat="44.35218" lon="6.16974">
        <ele>960.975098</ele>
        <time>2011-09-02T08:05:48Z</time>
      </trkpt>
      <trkpt lat="44.35194" lon="6.16999">
        <ele>958.571777</ele>
        <time>2011-09-02T08:05:51Z</time>
      </trkpt>
      <trkpt lat="44.35149" lon="6.17035">
        <ele>955.207031</ele>
        <time>2011-09-02T08:05:56Z</time>
      </trkpt>
      <trkpt lat="44.35131" lon="6.1705">
        <ele>953.765137</ele>
        <time>2011-09-02T08:05:58Z</time>
      </trkpt>
      <trkpt lat="44.35093" lon="6.17077">
        <ele>951.842529</ele>
        <time>2011-09-02T08:06:02Z</time>
      </trkpt>
      <trkpt lat="44.35064" lon="6.17097">
        <ele>948.958496</ele>
        <time>2011-09-02T08:06:05Z</time>
      </trkpt>
      <trkpt lat="44.35024" lon="6.17123">
        <ele>946.55542</ele>
        <time>2011-09-02T08:06:09Z</time>
      </trkpt>
      <trkpt lat="44.34985" lon="6.17152">
        <ele>942.710205</ele>
        <time>2011-09-02T08:06:13Z</time>
      </trkpt>
      <trkpt lat="44.34974" lon="6.17159">
        <ele>942.710205</ele>
        <time>2011-09-02T08:06:14Z</time>
      </trkpt>
      <trkpt lat="44.34933" lon="6.17182">
        <ele>940.306885</ele>
        <time>2011-09-02T08:06:18Z</time>
      </trkpt>
      <trkpt lat="44.34901" lon="6.17197">
        <ele>937.90332</ele>
        <time>2011-09-02T08:06:21Z</time>
      </trkpt>
      <trkpt lat="44.34878" lon="6.17202">
        <ele>936.461426</ele>
        <time>2011-09-02T08:06:23Z</time>
      </trkpt>
      <trkpt lat="44.34833" lon="6.17206">
        <ele>932.616211</ele>
        <time>2011-09-02T08:06:27Z</time>
      </trkpt>
      <trkpt lat="44.34822" lon="6.17206">
        <ele>932.616211</ele>
        <time>2011-09-02T08:06:28Z</time>
      </trkpt>
      <trkpt lat="44.34777" lon="6.17218">
        <ele>930.212891</ele>
        <time>2011-09-02T08:06:32Z</time>
      </trkpt>
      <trkpt lat="44.34745" lon="6.17228">
        <ele>927.80957</ele>
        <time>2011-09-02T08:06:35Z</time>
      </trkpt>
      <trkpt lat="44.34723" lon="6.17235">
        <ele>926.367676</ele>
        <time>2011-09-02T08:06:37Z</time>
      </trkpt>
      <trkpt lat="44.34701" lon="6.17242">
        <ele>924.925781</ele>
        <time>2011-09-02T08:06:39Z</time>
      </trkpt>
      <trkpt lat="44.3467" lon="6.17257">
        <ele>922.522217</ele>
        <time>2011-09-02T08:06:42Z</time>
      </trkpt>
      <trkpt lat="44.34619" lon="6.17292">
        <ele>919.157715</ele>
        <time>2011-09-02T08:06:47Z</time>
      </trkpt>
      <trkpt lat="44.346" lon="6.17307">
        <ele>918.196289</ele>
        <time>2011-09-02T08:06:49Z</time>
      </trkpt>
      <trkpt lat="44.34561" lon="6.17335">
        <ele>915.793213</ele>
        <time>2011-09-02T08:06:53Z</time>
      </trkpt>
      <trkpt lat="44.34545" lon="6.17347">
        <ele>913.870361</ele>
        <time>2011-09-02T08:06:55Z</time>
      </trkpt>
      <trkpt lat="44.34537" lon="6.17352">
        <ele>912.90918</ele>
        <time>2011-09-02T08:06:56Z</time>
      </trkpt>
      <trkpt lat="44.34523" lon="6.17356">
        <ele>911.947998</ele>
        <time>2011-09-02T08:06:58Z</time>
      </trkpt>
      <trkpt lat="44.34501" lon="6.17348">
        <ele>910.505859</ele>
        <time>2011-09-02T08:07:01Z</time>
      </trkpt>
      <trkpt lat="44.34487" lon="6.17341">
        <ele>910.025146</ele>
        <time>2011-09-02T08:07:03Z</time>
      </trkpt>
      <trkpt lat="44.34456" lon="6.17346">
        <ele>909.063965</ele>
        <time>2011-09-02T08:07:07Z</time>
      </trkpt>
      <trkpt lat="44.3444" lon="6.17352">
        <ele>907.621826</ele>
        <time>2011-09-02T08:07:09Z</time>
      </trkpt>
      <trkpt lat="44.34414" lon="6.17361">
        <ele>906.6604</ele>
        <time>2011-09-02T08:07:12Z</time>
      </trkpt>
      <trkpt lat="44.34357" lon="6.17361">
        <ele>902.815186</ele>
        <time>2011-09-02T08:07:18Z</time>
      </trkpt>
      <trkpt lat="44.34347" lon="6.1736">
        <ele>902.815186</ele>
        <time>2011-09-02T08:07:19Z</time>
      </trkpt>
      <trkpt lat="44.3431" lon="6.17356">
        <ele>899.931396</ele>
        <time>2011-09-02T08:07:23Z</time>
      </trkpt>
      <trkpt lat="44.34293" lon="6.17353">
        <ele>897.528076</ele>
        <time>2011-09-02T08:07:25Z</time>
      </trkpt>
      <trkpt lat="44.34262" lon="6.17363">
        <ele>896.086182</ele>
        <time>2011-09-02T08:07:29Z</time>
      </trkpt>
      <trkpt lat="44.34227" lon="6.17376">
        <ele>894.163574</ele>
        <time>2011-09-02T08:07:33Z</time>
      </trkpt>
      <trkpt lat="44.34203" lon="6.17385">
        <ele>891.76001</ele>
        <time>2011-09-02T08:07:36Z</time>
      </trkpt>
      <trkpt lat="44.34183" lon="6.17389">
        <ele>890.318115</ele>
        <time>2011-09-02T08:07:39Z</time>
      </trkpt>
      <trkpt lat="44.34178" lon="6.17389">
        <ele>889.356689</ele>
        <time>2011-09-02T08:07:40Z</time>
      </trkpt>
      <trkpt lat="44.34171" lon="6.17389">
        <ele>888.395508</ele>
        <time>2011-09-02T08:07:42Z</time>
      </trkpt>
      <trkpt lat="44.34168" lon="6.17422">
        <ele>887.914795</ele>
        <time>2011-09-02T08:07:47Z</time>
      </trkpt>
      <trkpt lat="44.34164" lon="6.1749">
        <ele>887.434082</ele>
        <time>2011-09-02T08:07:59Z</time>
      </trkpt>
      <trkpt lat="44.34152" lon="6.17521">
        <ele>886.953369</ele>
        <time>2011-09-02T08:08:04Z</time>
      </trkpt>
      <trkpt lat="44.34135" lon="6.17546">
        <ele>885.992188</ele>
        <time>2011-09-02T08:08:09Z</time>
      </trkpt>
      <trkpt lat="44.34128" lon="6.17601">
        <ele>884.550293</ele>
        <time>2011-09-02T08:08:16Z</time>
      </trkpt>
      <trkpt lat="44.34131" lon="6.17609">
        <ele>884.550293</ele>
        <time>2011-09-02T08:08:17Z</time>
      </trkpt>
      <trkpt lat="44.34153" lon="6.17678">
        <ele>885.031006</ele>
        <time>2011-09-02T08:08:30Z</time>
      </trkpt>
      <trkpt lat="44.34177" lon="6.17728">
        <ele>885.511475</ele>
        <time>2011-09-02T08:08:45Z</time>
      </trkpt>
      <trkpt lat="44.3421" lon="6.17784">
        <ele>886.953369</ele>
        <time>2011-09-02T08:09:06Z</time>
      </trkpt>
      <trkpt lat="44.34236" lon="6.17852">
        <ele>889.356689</ele>
        <time>2011-09-02T08:09:29Z</time>
      </trkpt>
      <trkpt lat="44.34258" lon="6.17918">
        <ele>889.837402</ele>
        <time>2011-09-02T08:09:51Z</time>
      </trkpt>
      <trkpt lat="44.34276" lon="6.17963">
        <ele>890.798584</ele>
        <time>2011-09-02T08:10:06Z</time>
      </trkpt>
      <trkpt lat="44.34296" lon="6.18024">
        <ele>892.240967</ele>
        <time>2011-09-02T08:10:26Z</time>
      </trkpt>
      <trkpt lat="44.34325" lon="6.181">
        <ele>894.163574</ele>
        <time>2011-09-02T08:10:51Z</time>
      </trkpt>
      <trkpt lat="44.34344" lon="6.18153">
        <ele>895.605469</ele>
        <time>2011-09-02T08:11:08Z</time>
      </trkpt>
      <trkpt lat="44.34367" lon="6.1822">
        <ele>896.566895</ele>
        <time>2011-09-02T08:11:29Z</time>
      </trkpt>
      <trkpt lat="44.34393" lon="6.18277">
        <ele>898.008789</ele>
        <time>2011-09-02T08:11:48Z</time>
      </trkpt>
      <trkpt lat="44.34427" lon="6.18334">
        <ele>899.450684</ele>
        <time>2011-09-02T08:12:09Z</time>
      </trkpt>
      <trkpt lat="44.34461" lon="6.18395">
        <ele>900.892578</ele>
        <time>2011-09-02T08:12:30Z</time>
      </trkpt>
      <trkpt lat="44.34501" lon="6.18456">
        <ele>902.815186</ele>
        <time>2011-09-02T08:12:55Z</time>
      </trkpt>
      <trkpt lat="44.34531" lon="6.18492">
        <ele>904.257324</ele>
        <time>2011-09-02T08:13:15Z</time>
      </trkpt>
      <trkpt lat="44.34565" lon="6.18529">
        <ele>907.141113</ele>
        <time>2011-09-02T08:13:38Z</time>
      </trkpt>
      <trkpt lat="44.34589" lon="6.18551">
        <ele>910.025146</ele>
        <time>2011-09-02T08:13:54Z</time>
      </trkpt>
      <trkpt lat="44.34627" lon="6.18536">
        <ele>910.025146</ele>
        <time>2011-09-02T08:14:11Z</time>
      </trkpt>
      <trkpt lat="44.34646" lon="6.18527">
        <ele>909.063965</ele>
        <time>2011-09-02T08:14:16Z</time>
      </trkpt>
      <trkpt lat="44.34685" lon="6.18547">
        <ele>909.544678</ele>
        <time>2011-09-02T08:14:29Z</time>
      </trkpt>
      <trkpt lat="44.34721" lon="6.18584">
        <ele>910.986572</ele>
        <time>2011-09-02T08:14:49Z</time>
      </trkpt>
      <trkpt lat="44.3476" lon="6.18624">
        <ele>910.986572</ele>
        <time>2011-09-02T08:15:08Z</time>
      </trkpt>
      <trkpt lat="44.34799" lon="6.18634">
        <ele>911.467285</ele>
        <time>2011-09-02T08:15:24Z</time>
      </trkpt>
      <trkpt lat="44.34845" lon="6.18652">
        <ele>913.389893</ele>
        <time>2011-09-02T08:15:46Z</time>
      </trkpt>
      <trkpt lat="44.34862" lon="6.18693">
        <ele>914.351074</ele>
        <time>2011-09-02T08:16:01Z</time>
      </trkpt>
      <trkpt lat="44.34863" lon="6.18754">
        <ele>917.235107</ele>
        <time>2011-09-02T08:16:21Z</time>
      </trkpt>
      <trkpt lat="44.34856" lon="6.18806">
        <ele>918.196289</ele>
        <time>2011-09-02T08:16:39Z</time>
      </trkpt>
      <trkpt lat="44.34846" lon="6.18854">
        <ele>919.638428</ele>
        <time>2011-09-02T08:16:55Z</time>
      </trkpt>
      <trkpt lat="44.34855" lon="6.18871">
        <ele>921.080322</ele>
        <time>2011-09-02T08:17:04Z</time>
      </trkpt>
      <trkpt lat="44.34887" lon="6.18871">
        <ele>922.522217</ele>
        <time>2011-09-02T08:17:20Z</time>
      </trkpt>
      <trkpt lat="44.34908" lon="6.18916">
        <ele>923.964111</ele>
        <time>2011-09-02T08:17:37Z</time>
      </trkpt>
      <trkpt lat="44.34914" lon="6.18982">
        <ele>925.886963</ele>
        <time>2011-09-02T08:17:58Z</time>
      </trkpt>
      <trkpt lat="44.34915" lon="6.19047">
        <ele>927.80957</ele>
        <time>2011-09-02T08:18:18Z</time>
      </trkpt>
      <trkpt lat="44.3491" lon="6.19088">
        <ele>928.770996</ele>
        <time>2011-09-02T08:18:33Z</time>
      </trkpt>
      <trkpt lat="44.34923" lon="6.19127">
        <ele>930.693604</ele>
        <time>2011-09-02T08:18:51Z</time>
      </trkpt>
      <trkpt lat="44.34927" lon="6.19133">
        <ele>931.654785</ele>
        <time>2011-09-02T08:18:55Z</time>
      </trkpt>
      <trkpt lat="44.34933" lon="6.19138">
        <ele>932.135498</ele>
        <time>2011-09-02T08:18:59Z</time>
      </trkpt>
      <trkpt lat="44.34974" lon="6.19177">
        <ele>933.577393</ele>
        <time>2011-09-02T08:19:25Z</time>
      </trkpt>
      <trkpt lat="44.34997" lon="6.19221">
        <ele>935.019531</ele>
        <time>2011-09-02T08:19:44Z</time>
      </trkpt>
      <trkpt lat="44.35004" lon="6.19243">
        <ele>935.019531</ele>
        <time>2011-09-02T08:19:51Z</time>
      </trkpt>
      <trkpt lat="44.3499" lon="6.19294">
        <ele>935.5</ele>
        <time>2011-09-02T08:20:06Z</time>
      </trkpt>
      <trkpt lat="44.34947" lon="6.19345">
        <ele>936.941895</ele>
        <time>2011-09-02T08:20:28Z</time>
      </trkpt>
      <trkpt lat="44.34942" lon="6.19394">
        <ele>937.90332</ele>
        <time>2011-09-02T08:20:45Z</time>
      </trkpt>
      <trkpt lat="44.34979" lon="6.19433">
        <ele>937.90332</ele>
        <time>2011-09-02T08:21:03Z</time>
      </trkpt>
      <trkpt lat="44.35007" lon="6.19482">
        <ele>938.384033</ele>
        <time>2011-09-02T08:21:21Z</time>
      </trkpt>
      <trkpt lat="44.34999" lon="6.19524">
        <ele>939.825928</ele>
        <time>2011-09-02T08:21:35Z</time>
      </trkpt>
      <trkpt lat="44.34977" lon="6.1957">
        <ele>941.748779</ele>
        <time>2011-09-02T08:21:53Z</time>
      </trkpt>
      <trkpt lat="44.34972" lon="6.19606">
        <ele>942.229492</ele>
        <time>2011-09-02T08:22:07Z</time>
      </trkpt>
      <trkpt lat="44.34996" lon="6.19651">
        <ele>943.190674</ele>
        <time>2011-09-02T08:22:23Z</time>
      </trkpt>
      <trkpt lat="44.35007" lon="6.19694">
        <ele>943.671387</ele>
        <time>2011-09-02T08:22:36Z</time>
      </trkpt>
      <trkpt lat="44.35018" lon="6.19757">
        <ele>945.593994</ele>
        <time>2011-09-02T08:22:55Z</time>
      </trkpt>
      <trkpt lat="44.35028" lon="6.19802">
        <ele>946.55542</ele>
        <time>2011-09-02T08:23:11Z</time>
      </trkpt>
      <trkpt lat="44.35049" lon="6.19865">
        <ele>948.477783</ele>
        <time>2011-09-02T08:23:35Z</time>
      </trkpt>
      <trkpt lat="44.35063" lon="6.19924">
        <ele>949.919922</ele>
        <time>2011-09-02T08:23:56Z</time>
      </trkpt>
      <trkpt lat="44.35076" lon="6.20001">
        <ele>950.881104</ele>
        <time>2011-09-02T08:24:19Z</time>
      </trkpt>
      <trkpt lat="44.35065" lon="6.20066">
        <ele>951.361816</ele>
        <time>2011-09-02T08:24:37Z</time>
      </trkpt>
      <trkpt lat="44.35034" lon="6.20122">
        <ele>952.803711</ele>
        <time>2011-09-02T08:24:58Z</time>
      </trkpt>
      <trkpt lat="44.35018" lon="6.2016">
        <ele>954.24585</ele>
        <time>2011-09-02T08:25:14Z</time>
      </trkpt>
      <trkpt lat="44.35012" lon="6.20211">
        <ele>955.687744</ele>
        <time>2011-09-02T08:25:30Z</time>
      </trkpt>
      <trkpt lat="44.35009" lon="6.20241">
        <ele>956.168457</ele>
        <time>2011-09-02T08:25:40Z</time>
      </trkpt>
      <trkpt lat="44.35006" lon="6.20259">
        <ele>957.129883</ele>
        <time>2011-09-02T08:25:50Z</time>
      </trkpt>
      <trkpt lat="44.34996" lon="6.20319">
        <ele>959.05249</ele>
        <time>2011-09-02T08:26:10Z</time>
      </trkpt>
      <trkpt lat="44.34996" lon="6.20378">
        <ele>959.05249</ele>
        <time>2011-09-02T08:26:28Z</time>
      </trkpt>
      <trkpt lat="44.34991" lon="6.20411">
        <ele>960.013672</ele>
        <time>2011-09-02T08:26:40Z</time>
      </trkpt>
      <trkpt lat="44.34977" lon="6.20434">
        <ele>961.455811</ele>
        <time>2011-09-02T08:26:57Z</time>
      </trkpt>
      <trkpt lat="44.34977" lon="6.20434">
        <ele>961.455811</ele>
        <time>2011-09-02T08:27:31Z</time>
      </trkpt>
      <trkpt lat="44.34977" lon="6.20434">
        <ele>960.975098</ele>
        <time>2011-09-02T08:28:02Z</time>
      </trkpt>
      <trkpt lat="44.34977" lon="6.20434">
        <ele>960.494385</ele>
        <time>2011-09-02T08:28:32Z</time>
      </trkpt>
      <trkpt lat="44.34977" lon="6.20434">
        <ele>960.494385</ele>
        <time>2011-09-02T08:28:41Z</time>
      </trkpt>
      <trkpt lat="44.34977" lon="6.20434">
        <ele>960.975098</ele>
        <time>2011-09-02T08:28:53Z</time>
      </trkpt>
      <trkpt lat="44.34977" lon="6.20434">
        <ele>960.013672</ele>
        <time>2011-09-02T08:28:55Z</time>
      </trkpt>
      <trkpt lat="44.34977" lon="6.20434">
        <ele>958.571777</ele>
        <time>2011-09-02T08:29:02Z</time>
      </trkpt>
      <trkpt lat="44.34977" lon="6.20434">
        <ele>961.455811</ele>
        <time>2011-09-02T08:30:06Z</time>
      </trkpt>
      <trkpt lat="44.34977" lon="6.20434">
        <ele>958.091309</ele>
        <time>2011-09-02T08:30:54Z</time>
      </trkpt>
      <trkpt lat="44.34977" lon="6.20434">
        <ele>958.571777</ele>
        <time>2011-09-02T08:31:44Z</time>
      </trkpt>
      <trkpt lat="44.34977" lon="6.20434">
        <ele>959.533203</ele>
        <time>2011-09-02T08:31:47Z</time>
      </trkpt>
      <trkpt lat="44.34977" lon="6.20434">
        <ele>960.013672</ele>
        <time>2011-09-02T08:32:05Z</time>
      </trkpt>
      <trkpt lat="44.34977" lon="6.20434">
        <ele>960.494385</ele>
        <time>2011-09-02T08:32:10Z</time>
      </trkpt>
      <trkpt lat="44.34977" lon="6.20434">
        <ele>960.013672</ele>
        <time>2011-09-02T08:32:19Z</time>
      </trkpt>
      <trkpt lat="44.34977" lon="6.20434">
        <ele>960.975098</ele>
        <time>2011-09-02T08:33:01Z</time>
      </trkpt>
      <trkpt lat="44.34977" lon="6.20434">
        <ele>959.533203</ele>
        <time>2011-09-02T08:33:35Z</time>
      </trkpt>
      <trkpt lat="44.34977" lon="6.20434">
        <ele>957.129883</ele>
        <time>2011-09-02T08:33:47Z</time>
      </trkpt>
      <trkpt lat="44.34977" lon="6.20434">
        <ele>961.936523</ele>
        <time>2011-09-02T08:33:48Z</time>
      </trkpt>
      <trkpt lat="44.34977" lon="6.20434">
        <ele>961.936523</ele>
        <time>2011-09-02T08:33:49Z</time>
      </trkpt>
      <trkpt lat="44.34977" lon="6.20434">
        <ele>959.533203</ele>
        <time>2011-09-02T08:33:55Z</time>
      </trkpt>
      <trkpt lat="44.34999" lon="6.20471">
        <ele>961.936523</ele>
        <time>2011-09-02T08:34:10Z</time>
      </trkpt>
      <trkpt lat="44.35013" lon="6.20487">
        <ele>961.455811</ele>
        <time>2011-09-02T08:34:21Z</time>
      </trkpt>
      <trkpt lat="44.35024" lon="6.20497">
        <ele>961.936523</ele>
        <time>2011-09-02T08:34:29Z</time>
      </trkpt>
      <trkpt lat="44.3504" lon="6.20512">
        <ele>962.897705</ele>
        <time>2011-09-02T08:34:40Z</time>
      </trkpt>
      <trkpt lat="44.3507" lon="6.20519">
        <ele>964.3396</ele>
        <time>2011-09-02T08:34:56Z</time>
      </trkpt>
      <trkpt lat="44.35078" lon="6.20519">
        <ele>964.820313</ele>
        <time>2011-09-02T08:35:01Z</time>
      </trkpt>
      <trkpt lat="44.35095" lon="6.20542">
        <ele>966.262207</ele>
        <time>2011-09-02T08:35:15Z</time>
      </trkpt>
      <trkpt lat="44.351" lon="6.20555">
        <ele>966.74292</ele>
        <time>2011-09-02T08:35:21Z</time>
      </trkpt>
      <trkpt lat="44.35101" lon="6.20559">
        <ele>967.704102</ele>
        <time>2011-09-02T08:35:33Z</time>
      </trkpt>
      <trkpt lat="44.35101" lon="6.20559">
        <ele>967.704102</ele>
        <time>2011-09-02T08:35:54Z</time>
      </trkpt>
      <trkpt lat="44.35104" lon="6.20573">
        <ele>968.184814</ele>
        <time>2011-09-02T08:36:06Z</time>
      </trkpt>
      <trkpt lat="44.35107" lon="6.20616">
        <ele>970.107422</ele>
        <time>2011-09-02T08:36:24Z</time>
      </trkpt>
      <trkpt lat="44.35108" lon="6.20627">
        <ele>970.588135</ele>
        <time>2011-09-02T08:36:29Z</time>
      </trkpt>
      <trkpt lat="44.35133" lon="6.20649">
        <ele>972.510986</ele>
        <time>2011-09-02T08:36:48Z</time>
      </trkpt>
      <trkpt lat="44.3515" lon="6.20652">
        <ele>973.952881</ele>
        <time>2011-09-02T08:36:58Z</time>
      </trkpt>
      <trkpt lat="44.35157" lon="6.20661">
        <ele>974.433594</ele>
        <time>2011-09-02T08:37:04Z</time>
      </trkpt>
      <trkpt lat="44.35167" lon="6.20686">
        <ele>975.875488</ele>
        <time>2011-09-02T08:37:17Z</time>
      </trkpt>
      <trkpt lat="44.35171" lon="6.20689">
        <ele>976.356201</ele>
        <time>2011-09-02T08:37:20Z</time>
      </trkpt>
      <trkpt lat="44.35184" lon="6.20697">
        <ele>976.836914</ele>
        <time>2011-09-02T08:37:28Z</time>
      </trkpt>
      <trkpt lat="44.35189" lon="6.207">
        <ele>977.317627</ele>
        <time>2011-09-02T08:37:30Z</time>
      </trkpt>
      <trkpt lat="44.35194" lon="6.20704">
        <ele>977.317627</ele>
        <time>2011-09-02T08:37:34Z</time>
      </trkpt>
      <trkpt lat="44.3522" lon="6.20729">
        <ele>979.23999</ele>
        <time>2011-09-02T08:37:53Z</time>
      </trkpt>
      <trkpt lat="44.35241" lon="6.20774">
        <ele>981.162842</ele>
        <time>2011-09-02T08:38:13Z</time>
      </trkpt>
      <trkpt lat="44.35259" lon="6.20808">
        <ele>983.085205</ele>
        <time>2011-09-02T08:38:30Z</time>
      </trkpt>
      <trkpt lat="44.35266" lon="6.20813">
        <ele>983.565918</ele>
        <time>2011-09-02T08:38:36Z</time>
      </trkpt>
      <trkpt lat="44.35301" lon="6.20815">
        <ele>986.93042</ele>
        <time>2011-09-02T08:38:59Z</time>
      </trkpt>
      <trkpt lat="44.35332" lon="6.20827">
        <ele>988.853516</ele>
        <time>2011-09-02T08:39:18Z</time>
      </trkpt>
      <trkpt lat="44.35346" lon="6.20861">
        <ele>989.814697</ele>
        <time>2011-09-02T08:39:34Z</time>
      </trkpt>
      <trkpt lat="44.35365" lon="6.20869">
        <ele>992.218018</ele>
        <time>2011-09-02T08:39:48Z</time>
      </trkpt>
      <trkpt lat="44.35394" lon="6.20864">
        <ele>994.621094</ele>
        <time>2011-09-02T08:40:05Z</time>
      </trkpt>
      <trkpt lat="44.35418" lon="6.20854">
        <ele>996.543945</ele>
        <time>2011-09-02T08:40:20Z</time>
      </trkpt>
      <trkpt lat="44.35442" lon="6.20867">
        <ele>998.466309</ele>
        <time>2011-09-02T08:40:36Z</time>
      </trkpt>
      <trkpt lat="44.35472" lon="6.20893">
        <ele>999.427734</ele>
        <time>2011-09-02T08:40:56Z</time>
      </trkpt>
      <trkpt lat="44.35508" lon="6.20898">
        <ele>1001.350342</ele>
        <time>2011-09-02T08:41:17Z</time>
      </trkpt>
      <trkpt lat="44.35514" lon="6.20899">
        <ele>1001.831055</ele>
        <time>2011-09-02T08:41:21Z</time>
      </trkpt>
      <trkpt lat="44.3552" lon="6.20899">
        <ele>1002.311523</ele>
        <time>2011-09-02T08:41:25Z</time>
      </trkpt>
      <trkpt lat="44.35535" lon="6.20922">
        <ele>1004.715088</ele>
        <time>2011-09-02T08:41:43Z</time>
      </trkpt>
      <trkpt lat="44.35532" lon="6.20937">
        <ele>1006.156982</ele>
        <time>2011-09-02T08:41:52Z</time>
      </trkpt>
      <trkpt lat="44.35548" lon="6.20963">
        <ele>1008.079834</ele>
        <time>2011-09-02T08:42:10Z</time>
      </trkpt>
      <trkpt lat="44.35564" lon="6.20991">
        <ele>1010.48291</ele>
        <time>2011-09-02T08:42:25Z</time>
      </trkpt>
      <trkpt lat="44.35569" lon="6.20995">
        <ele>1011.444336</ele>
        <time>2011-09-02T08:42:30Z</time>
      </trkpt>
      <trkpt lat="44.35591" lon="6.20977">
        <ele>1013.847412</ele>
        <time>2011-09-02T08:42:49Z</time>
      </trkpt>
      <trkpt lat="44.35609" lon="6.20959">
        <ele>1017.212158</ele>
        <time>2011-09-02T08:43:08Z</time>
      </trkpt>
      <trkpt lat="44.35618" lon="6.20952">
        <ele>1018.17334</ele>
        <time>2011-09-02T08:43:16Z</time>
      </trkpt>
      <trkpt lat="44.35642" lon="6.20938">
        <ele>1021.538086</ele>
        <time>2011-09-02T08:43:38Z</time>
      </trkpt>
      <trkpt lat="44.35644" lon="6.20937">
        <ele>1022.018799</ele>
        <time>2011-09-02T08:43:40Z</time>
      </trkpt>
      <trkpt lat="44.35648" lon="6.20932">
        <ele>1022.018799</ele>
        <time>2011-09-02T08:43:44Z</time>
      </trkpt>
      <trkpt lat="44.35682" lon="6.20943">
        <ele>1025.383301</ele>
        <time>2011-09-02T08:44:07Z</time>
      </trkpt>
      <trkpt lat="44.35691" lon="6.20961">
        <ele>1026.344727</ele>
        <time>2011-09-02T08:44:16Z</time>
      </trkpt>
      <trkpt lat="44.35699" lon="6.20998">
        <ele>1026.825439</ele>
        <time>2011-09-02T08:44:31Z</time>
      </trkpt>
      <trkpt lat="44.35708" lon="6.21033">
        <ele>1027.786621</ele>
        <time>2011-09-02T08:44:46Z</time>
      </trkpt>
      <trkpt lat="44.35711" lon="6.21038">
        <ele>1027.786621</ele>
        <time>2011-09-02T08:44:50Z</time>
      </trkpt>
      <trkpt lat="44.35721" lon="6.21044">
        <ele>1029.228516</ele>
        <time>2011-09-02T08:44:58Z</time>
      </trkpt>
      <trkpt lat="44.35748" lon="6.21042">
        <ele>1032.593262</ele>
        <time>2011-09-02T08:45:14Z</time>
      </trkpt>
      <trkpt lat="44.35755" lon="6.21059">
        <ele>1034.035156</ele>
        <time>2011-09-02T08:45:26Z</time>
      </trkpt>
      <trkpt lat="44.35757" lon="6.21067">
        <ele>1034.996582</ele>
        <time>2011-09-02T08:45:31Z</time>
      </trkpt>
      <trkpt lat="44.35758" lon="6.21071">
        <ele>1035.477051</ele>
        <time>2011-09-02T08:45:34Z</time>
      </trkpt>
      <trkpt lat="44.3576" lon="6.21083">
        <ele>1036.438721</ele>
        <time>2011-09-02T08:45:43Z</time>
      </trkpt>
      <trkpt lat="44.35766" lon="6.211">
        <ele>1037.399902</ele>
        <time>2011-09-02T08:45:55Z</time>
      </trkpt>
      <trkpt lat="44.35768" lon="6.211">
        <ele>1037.399902</ele>
        <time>2011-09-02T08:45:56Z</time>
      </trkpt>
      <trkpt lat="44.35791" lon="6.21116">
        <ele>1038.361328</ele>
        <time>2011-09-02T08:46:11Z</time>
      </trkpt>
      <trkpt lat="44.35802" lon="6.21123">
        <ele>1039.32251</ele>
        <time>2011-09-02T08:46:18Z</time>
      </trkpt>
      <trkpt lat="44.35808" lon="6.21136">
        <ele>1039.803223</ele>
        <time>2011-09-02T08:46:25Z</time>
      </trkpt>
      <trkpt lat="44.35794" lon="6.2117">
        <ele>1040.283936</ele>
        <time>2011-09-02T08:46:34Z</time>
      </trkpt>
      <trkpt lat="44.35798" lon="6.21178">
        <ele>1040.764404</ele>
        <time>2011-09-02T08:46:38Z</time>
      </trkpt>
      <trkpt lat="44.35799" lon="6.21182">
        <ele>1040.764404</ele>
        <time>2011-09-02T08:46:40Z</time>
      </trkpt>
      <trkpt lat="44.35801" lon="6.21186">
        <ele>1041.245117</ele>
        <time>2011-09-02T08:46:42Z</time>
      </trkpt>
      <trkpt lat="44.35816" lon="6.212">
        <ele>1042.206543</ele>
        <time>2011-09-02T08:46:53Z</time>
      </trkpt>
      <trkpt lat="44.35844" lon="6.21215">
        <ele>1044.12915</ele>
        <time>2011-09-02T08:47:11Z</time>
      </trkpt>
      <trkpt lat="44.35876" lon="6.21232">
        <ele>1046.051758</ele>
        <time>2011-09-02T08:47:31Z</time>
      </trkpt>
      <trkpt lat="44.35905" lon="6.21244">
        <ele>1047.974365</ele>
        <time>2011-09-02T08:47:50Z</time>
      </trkpt>
      <trkpt lat="44.35934" lon="6.21273">
        <ele>1050.377686</ele>
        <time>2011-09-02T08:48:10Z</time>
      </trkpt>
      <trkpt lat="44.35939" lon="6.21278">
        <ele>1050.858154</ele>
        <time>2011-09-02T08:48:14Z</time>
      </trkpt>
      <trkpt lat="44.35943" lon="6.21283">
        <ele>1051.338867</ele>
        <time>2011-09-02T08:48:18Z</time>
      </trkpt>
      <trkpt lat="44.35978" lon="6.21291">
        <ele>1052.781006</ele>
        <time>2011-09-02T08:48:37Z</time>
      </trkpt>
      <trkpt lat="44.36006" lon="6.21294">
        <ele>1053.742432</ele>
        <time>2011-09-02T08:48:52Z</time>
      </trkpt>
      <trkpt lat="44.36031" lon="6.21294">
        <ele>1055.184326</ele>
        <time>2011-09-02T08:49:06Z</time>
      </trkpt>
      <trkpt lat="44.36065" lon="6.21294">
        <ele>1057.106934</ele>
        <time>2011-09-02T08:49:26Z</time>
      </trkpt>
      <trkpt lat="44.36075" lon="6.21291">
        <ele>1057.587646</ele>
        <time>2011-09-02T08:49:32Z</time>
      </trkpt>
      <trkpt lat="44.36086" lon="6.21291">
        <ele>1058.068359</ele>
        <time>2011-09-02T08:49:38Z</time>
      </trkpt>
      <trkpt lat="44.36091" lon="6.21293">
        <ele>1058.548828</ele>
        <time>2011-09-02T08:49:42Z</time>
      </trkpt>
      <trkpt lat="44.36096" lon="6.21298">
        <ele>1059.029541</ele>
        <time>2011-09-02T08:49:46Z</time>
      </trkpt>
      <trkpt lat="44.361" lon="6.21307">
        <ele>1059.510254</ele>
        <time>2011-09-02T08:49:51Z</time>
      </trkpt>
      <trkpt lat="44.36115" lon="6.2132">
        <ele>1060.952148</ele>
        <time>2011-09-02T08:50:03Z</time>
      </trkpt>
      <trkpt lat="44.36121" lon="6.21323">
        <ele>1061.432861</ele>
        <time>2011-09-02T08:50:08Z</time>
      </trkpt>
      <trkpt lat="44.36141" lon="6.21335">
        <ele>1062.874756</ele>
        <time>2011-09-02T08:50:20Z</time>
      </trkpt>
      <trkpt lat="44.36163" lon="6.21356">
        <ele>1065.278076</ele>
        <time>2011-09-02T08:50:37Z</time>
      </trkpt>
      <trkpt lat="44.36183" lon="6.2138">
        <ele>1066.719971</ele>
        <time>2011-09-02T08:50:54Z</time>
      </trkpt>
      <trkpt lat="44.3621" lon="6.21418">
        <ele>1067.681152</ele>
        <time>2011-09-02T08:51:15Z</time>
      </trkpt>
      <trkpt lat="44.36233" lon="6.21464">
        <ele>1067.681152</ele>
        <time>2011-09-02T08:51:34Z</time>
      </trkpt>
      <trkpt lat="44.36234" lon="6.21469">
        <ele>1068.162109</ele>
        <time>2011-09-02T08:51:36Z</time>
      </trkpt>
      <trkpt lat="44.36249" lon="6.21503">
        <ele>1071.046143</ele>
        <time>2011-09-02T08:51:57Z</time>
      </trkpt>
      <trkpt lat="44.36249" lon="6.21507">
        <ele>1071.526611</ele>
        <time>2011-09-02T08:51:59Z</time>
      </trkpt>
      <trkpt lat="44.3625" lon="6.21548">
        <ele>1074.410645</ele>
        <time>2011-09-02T08:52:22Z</time>
      </trkpt>
      <trkpt lat="44.3625" lon="6.21559">
        <ele>1074.891357</ele>
        <time>2011-09-02T08:52:27Z</time>
      </trkpt>
      <trkpt lat="44.36253" lon="6.21573">
        <ele>1074.891357</ele>
        <time>2011-09-02T08:52:34Z</time>
      </trkpt>
      <trkpt lat="44.36261" lon="6.2161">
        <ele>1075.852539</ele>
        <time>2011-09-02T08:52:50Z</time>
      </trkpt>
      <trkpt lat="44.36267" lon="6.21637">
        <ele>1076.333252</ele>
        <time>2011-09-02T08:53:02Z</time>
      </trkpt>
      <trkpt lat="44.36281" lon="6.21655">
        <ele>1077.775146</ele>
        <time>2011-09-02T08:53:12Z</time>
      </trkpt>
      <trkpt lat="44.36286" lon="6.21658">
        <ele>1078.255859</ele>
        <time>2011-09-02T08:53:15Z</time>
      </trkpt>
      <trkpt lat="44.36294" lon="6.21669">
        <ele>1079.697754</ele>
        <time>2011-09-02T08:53:24Z</time>
      </trkpt>
      <trkpt lat="44.36313" lon="6.21669">
        <ele>1079.697754</ele>
        <time>2011-09-02T08:53:37Z</time>
      </trkpt>
      <trkpt lat="44.36334" lon="6.21664">
        <ele>1082.101074</ele>
        <time>2011-09-02T08:53:50Z</time>
      </trkpt>
      <trkpt lat="44.36359" lon="6.21671">
        <ele>1084.023926</ele>
        <time>2011-09-02T08:54:05Z</time>
      </trkpt>
      <trkpt lat="44.36372" lon="6.21689">
        <ele>1086.427246</ele>
        <time>2011-09-02T08:54:18Z</time>
      </trkpt>
      <trkpt lat="44.36404" lon="6.21698">
        <ele>1087.869141</ele>
        <time>2011-09-02T08:54:38Z</time>
      </trkpt>
      <trkpt lat="44.36421" lon="6.21694">
        <ele>1089.311035</ele>
        <time>2011-09-02T08:54:49Z</time>
      </trkpt>
      <trkpt lat="44.36426" lon="6.21692">
        <ele>1089.791748</ele>
        <time>2011-09-02T08:54:52Z</time>
      </trkpt>
      <trkpt lat="44.36448" lon="6.21702">
        <ele>1090.75293</ele>
        <time>2011-09-02T08:55:07Z</time>
      </trkpt>
      <trkpt lat="44.36456" lon="6.21704">
        <ele>1091.233643</ele>
        <time>2011-09-02T08:55:13Z</time>
      </trkpt>
      <trkpt lat="44.36462" lon="6.21708">
        <ele>1092.675781</ele>
        <time>2011-09-02T08:55:20Z</time>
      </trkpt>
      <trkpt lat="44.36468" lon="6.21713">
        <ele>1093.15625</ele>
        <time>2011-09-02T08:55:26Z</time>
      </trkpt>
      <trkpt lat="44.36494" lon="6.21727">
        <ele>1096.040283</ele>
        <time>2011-09-02T08:55:44Z</time>
      </trkpt>
      <trkpt lat="44.36501" lon="6.21738">
        <ele>1097.001465</ele>
        <time>2011-09-02T08:55:52Z</time>
      </trkpt>
      <trkpt lat="44.36515" lon="6.21751">
        <ele>1098.924072</ele>
        <time>2011-09-02T08:56:06Z</time>
      </trkpt>
      <trkpt lat="44.3652" lon="6.2175">
        <ele>1098.924072</ele>
        <time>2011-09-02T08:56:08Z</time>
      </trkpt>
      <trkpt lat="44.36522" lon="6.21752">
        <ele>1098.924072</ele>
        <time>2011-09-02T08:56:10Z</time>
      </trkpt>
      <trkpt lat="44.36542" lon="6.21751">
        <ele>1101.327637</ele>
        <time>2011-09-02T08:56:26Z</time>
      </trkpt>
      <trkpt lat="44.36565" lon="6.21772">
        <ele>1103.730957</ele>
        <time>2011-09-02T08:56:46Z</time>
      </trkpt>
      <trkpt lat="44.36574" lon="6.21792">
        <ele>1104.692139</ele>
        <time>2011-09-02T08:56:58Z</time>
      </trkpt>
      <trkpt lat="44.36586" lon="6.21804">
        <ele>1104.692139</ele>
        <time>2011-09-02T08:57:06Z</time>
      </trkpt>
      <trkpt lat="44.36589" lon="6.21807">
        <ele>1104.692139</ele>
        <time>2011-09-02T08:57:08Z</time>
      </trkpt>
      <trkpt lat="44.36589" lon="6.21814">
        <ele>1105.653564</ele>
        <time>2011-09-02T08:57:12Z</time>
      </trkpt>
      <trkpt lat="44.3659" lon="6.21818">
        <ele>1105.172852</ele>
        <time>2011-09-02T08:57:14Z</time>
      </trkpt>
      <trkpt lat="44.3659" lon="6.21825">
        <ele>1105.653564</ele>
        <time>2011-09-02T08:57:18Z</time>
      </trkpt>
      <trkpt lat="44.36597" lon="6.21831">
        <ele>1105.653564</ele>
        <time>2011-09-02T08:57:24Z</time>
      </trkpt>
      <trkpt lat="44.36599" lon="6.21833">
        <ele>1106.614746</ele>
        <time>2011-09-02T08:57:26Z</time>
      </trkpt>
      <trkpt lat="44.36606" lon="6.21834">
        <ele>1106.614746</ele>
        <time>2011-09-02T08:57:31Z</time>
      </trkpt>
      <trkpt lat="44.36621" lon="6.21832">
        <ele>1107.576172</ele>
        <time>2011-09-02T08:57:37Z</time>
      </trkpt>
      <trkpt lat="44.36636" lon="6.21831">
        <ele>1108.056885</ele>
        <time>2011-09-02T08:57:46Z</time>
      </trkpt>
      <trkpt lat="44.36671" lon="6.21837">
        <ele>1110.940674</ele>
        <time>2011-09-02T08:58:09Z</time>
      </trkpt>
      <trkpt lat="44.36691" lon="6.21828">
        <ele>1113.824463</ele>
        <time>2011-09-02T08:58:25Z</time>
      </trkpt>
      <trkpt lat="44.36692" lon="6.21828">
        <ele>1113.824463</ele>
        <time>2011-09-02T08:58:26Z</time>
      </trkpt>
      <trkpt lat="44.36705" lon="6.21826">
        <ele>1115.266602</ele>
        <time>2011-09-02T08:58:36Z</time>
      </trkpt>
      <trkpt lat="44.36707" lon="6.21825">
        <ele>1115.266602</ele>
        <time>2011-09-02T08:58:38Z</time>
      </trkpt>
      <trkpt lat="44.36709" lon="6.21825">
        <ele>1115.747314</ele>
        <time>2011-09-02T08:58:40Z</time>
      </trkpt>
      <trkpt lat="44.36721" lon="6.21829">
        <ele>1117.189453</ele>
        <time>2011-09-02T08:58:54Z</time>
      </trkpt>
      <trkpt lat="44.36724" lon="6.21831">
        <ele>1117.669922</ele>
        <time>2011-09-02T08:58:57Z</time>
      </trkpt>
      <trkpt lat="44.36729" lon="6.21832">
        <ele>1117.669922</ele>
        <time>2011-09-02T08:59:00Z</time>
      </trkpt>
      <trkpt lat="44.36752" lon="6.2183">
        <ele>1120.073242</ele>
        <time>2011-09-02T08:59:19Z</time>
      </trkpt>
      <trkpt lat="44.3676" lon="6.21835">
        <ele>1120.553955</ele>
        <time>2011-09-02T08:59:26Z</time>
      </trkpt>
      <trkpt lat="44.36767" lon="6.21839">
        <ele>1121.515137</ele>
        <time>2011-09-02T08:59:33Z</time>
      </trkpt>
      <trkpt lat="44.36789" lon="6.21861">
        <ele>1124.39917</ele>
        <time>2011-09-02T08:59:56Z</time>
      </trkpt>
      <trkpt lat="44.36807" lon="6.21885">
        <ele>1127.283203</ele>
        <time>2011-09-02T09:00:17Z</time>
      </trkpt>
      <trkpt lat="44.36817" lon="6.21904">
        <ele>1129.205566</ele>
        <time>2011-09-02T09:00:32Z</time>
      </trkpt>
      <trkpt lat="44.36817" lon="6.21907">
        <ele>1129.686279</ele>
        <time>2011-09-02T09:00:34Z</time>
      </trkpt>
      <trkpt lat="44.36817" lon="6.21915">
        <ele>1130.166992</ele>
        <time>2011-09-02T09:00:38Z</time>
      </trkpt>
      <trkpt lat="44.36818" lon="6.21919">
        <ele>1130.647705</ele>
        <time>2011-09-02T09:00:41Z</time>
      </trkpt>
      <trkpt lat="44.36821" lon="6.21922">
        <ele>1131.128418</ele>
        <time>2011-09-02T09:00:44Z</time>
      </trkpt>
      <trkpt lat="44.36829" lon="6.21938">
        <ele>1132.089844</ele>
        <time>2011-09-02T09:00:55Z</time>
      </trkpt>
      <trkpt lat="44.36832" lon="6.21946">
        <ele>1133.051025</ele>
        <time>2011-09-02T09:01:00Z</time>
      </trkpt>
      <trkpt lat="44.36834" lon="6.2195">
        <ele>1133.531738</ele>
        <time>2011-09-02T09:01:03Z</time>
      </trkpt>
      <trkpt lat="44.36844" lon="6.21971">
        <ele>1134.973877</ele>
        <time>2011-09-02T09:01:18Z</time>
      </trkpt>
      <trkpt lat="44.36853" lon="6.2198">
        <ele>1135.935059</ele>
        <time>2011-09-02T09:01:26Z</time>
      </trkpt>
      <trkpt lat="44.36856" lon="6.21996">
        <ele>1137.857666</ele>
        <time>2011-09-02T09:01:35Z</time>
      </trkpt>
      <trkpt lat="44.36858" lon="6.22004">
        <ele>1137.857666</ele>
        <time>2011-09-02T09:01:39Z</time>
      </trkpt>
      <trkpt lat="44.36858" lon="6.22008">
        <ele>1137.857666</ele>
        <time>2011-09-02T09:01:41Z</time>
      </trkpt>
      <trkpt lat="44.36864" lon="6.22018">
        <ele>1138.819092</ele>
        <time>2011-09-02T09:01:48Z</time>
      </trkpt>
      <trkpt lat="44.36864" lon="6.22025">
        <ele>1139.780273</ele>
        <time>2011-09-02T09:01:52Z</time>
      </trkpt>
      <trkpt lat="44.36878" lon="6.22048">
        <ele>1141.702881</ele>
        <time>2011-09-02T09:02:08Z</time>
      </trkpt>
      <trkpt lat="44.36881" lon="6.22054">
        <ele>1142.183594</ele>
        <time>2011-09-02T09:02:12Z</time>
      </trkpt>
      <trkpt lat="44.36881" lon="6.22059">
        <ele>1142.664307</ele>
        <time>2011-09-02T09:02:15Z</time>
      </trkpt>
      <trkpt lat="44.36882" lon="6.22067">
        <ele>1143.144775</ele>
        <time>2011-09-02T09:02:20Z</time>
      </trkpt>
      <trkpt lat="44.36885" lon="6.22075">
        <ele>1143.144775</ele>
        <time>2011-09-02T09:02:24Z</time>
      </trkpt>
      <trkpt lat="44.36887" lon="6.22085">
        <ele>1143.625488</ele>
        <time>2011-09-02T09:02:30Z</time>
      </trkpt>
      <trkpt lat="44.36894" lon="6.22089">
        <ele>1144.58667</ele>
        <time>2011-09-02T09:02:34Z</time>
      </trkpt>
      <trkpt lat="44.36899" lon="6.22093">
        <ele>1144.58667</ele>
        <time>2011-09-02T09:02:38Z</time>
      </trkpt>
      <trkpt lat="44.36895" lon="6.2211">
        <ele>1145.067383</ele>
        <time>2011-09-02T09:02:46Z</time>
      </trkpt>
      <trkpt lat="44.36898" lon="6.22117">
        <ele>1145.067383</ele>
        <time>2011-09-02T09:02:50Z</time>
      </trkpt>
      <trkpt lat="44.36899" lon="6.22126">
        <ele>1145.548096</ele>
        <time>2011-09-02T09:02:55Z</time>
      </trkpt>
      <trkpt lat="44.36892" lon="6.22154">
        <ele>1146.509521</ele>
        <time>2011-09-02T09:03:10Z</time>
      </trkpt>
      <trkpt lat="44.3689" lon="6.22164">
        <ele>1147.470703</ele>
        <time>2011-09-02T09:03:16Z</time>
      </trkpt>
      <trkpt lat="44.36888" lon="6.22176">
        <ele>1147.951416</ele>
        <time>2011-09-02T09:03:22Z</time>
      </trkpt>
      <trkpt lat="44.36882" lon="6.22188">
        <ele>1148.912842</ele>
        <time>2011-09-02T09:03:28Z</time>
      </trkpt>
      <trkpt lat="44.36881" lon="6.22192">
        <ele>1149.393555</ele>
        <time>2011-09-02T09:03:31Z</time>
      </trkpt>
      <trkpt lat="44.36881" lon="6.22195">
        <ele>1150.35498</ele>
        <time>2011-09-02T09:03:37Z</time>
      </trkpt>
      <trkpt lat="44.36881" lon="6.22195">
        <ele>1150.35498</ele>
        <time>2011-09-02T09:03:42Z</time>
      </trkpt>
      <trkpt lat="44.36879" lon="6.22216">
        <ele>1151.796875</ele>
        <time>2011-09-02T09:03:51Z</time>
      </trkpt>
      <trkpt lat="44.36878" lon="6.22225">
        <ele>1152.277344</ele>
        <time>2011-09-02T09:03:55Z</time>
      </trkpt>
      <trkpt lat="44.36878" lon="6.22229">
        <ele>1153.23877</ele>
        <time>2011-09-02T09:04:00Z</time>
      </trkpt>
      <trkpt lat="44.36878" lon="6.22245">
        <ele>1154.200195</ele>
        <time>2011-09-02T09:04:14Z</time>
      </trkpt>
      <trkpt lat="44.36878" lon="6.22261">
        <ele>1156.122559</ele>
        <time>2011-09-02T09:04:25Z</time>
      </trkpt>
      <trkpt lat="44.36878" lon="6.2227">
        <ele>1156.603271</ele>
        <time>2011-09-02T09:04:30Z</time>
      </trkpt>
      <trkpt lat="44.36878" lon="6.22275">
        <ele>1156.603271</ele>
        <time>2011-09-02T09:04:33Z</time>
      </trkpt>
      <trkpt lat="44.36905" lon="6.22334">
        <ele>1158.525879</ele>
        <time>2011-09-02T09:04:54Z</time>
      </trkpt>
      <trkpt lat="44.36909" lon="6.22337">
        <ele>1161.409912</ele>
        <time>2011-09-02T09:05:17Z</time>
      </trkpt>
      <trkpt lat="44.36916" lon="6.22342">
        <ele>1161.409912</ele>
        <time>2011-09-02T09:05:20Z</time>
      </trkpt>
      <trkpt lat="44.36933" lon="6.22355">
        <ele>1162.851807</ele>
        <time>2011-09-02T09:05:34Z</time>
      </trkpt>
      <trkpt lat="44.3695" lon="6.22386">
        <ele>1165.255371</ele>
        <time>2011-09-02T09:05:53Z</time>
      </trkpt>
      <trkpt lat="44.36952" lon="6.22391">
        <ele>1165.736084</ele>
        <time>2011-09-02T09:05:57Z</time>
      </trkpt>
      <trkpt lat="44.36968" lon="6.22421">
        <ele>1168.13916</ele>
        <time>2011-09-02T09:06:19Z</time>
      </trkpt>
      <trkpt lat="44.36972" lon="6.22426">
        <ele>1168.619873</ele>
        <time>2011-09-02T09:06:23Z</time>
      </trkpt>
      <trkpt lat="44.36983" lon="6.22443">
        <ele>1170.061768</ele>
        <time>2011-09-02T09:06:39Z</time>
      </trkpt>
      <trkpt lat="44.3699" lon="6.22475">
        <ele>1172.465088</ele>
        <time>2011-09-02T09:06:55Z</time>
      </trkpt>
      <trkpt lat="44.3699" lon="6.22485">
        <ele>1172.945801</ele>
        <time>2011-09-02T09:07:00Z</time>
      </trkpt>
      <trkpt lat="44.36991" lon="6.22491">
        <ele>1172.945801</ele>
        <time>2011-09-02T09:07:03Z</time>
      </trkpt>
      <trkpt lat="44.36991" lon="6.22503">
        <ele>1173.906982</ele>
        <time>2011-09-02T09:07:10Z</time>
      </trkpt>
      <trkpt lat="44.36994" lon="6.22521">
        <ele>1175.348877</ele>
        <time>2011-09-02T09:07:25Z</time>
      </trkpt>
      <trkpt lat="44.37002" lon="6.22513">
        <ele>1176.310303</ele>
        <time>2011-09-02T09:07:36Z</time>
      </trkpt>
      <trkpt lat="44.37002" lon="6.22509">
        <ele>1175.82959</ele>
        <time>2011-09-02T09:07:38Z</time>
      </trkpt>
      <trkpt lat="44.37001" lon="6.22488">
        <ele>1177.752197</ele>
        <time>2011-09-02T09:07:49Z</time>
      </trkpt>
      <trkpt lat="44.37" lon="6.22483">
        <ele>1178.23291</ele>
        <time>2011-09-02T09:08:03Z</time>
      </trkpt>
      <trkpt lat="44.37001" lon="6.2248">
        <ele>1178.713623</ele>
        <time>2011-09-02T09:08:23Z</time>
      </trkpt>
      <trkpt lat="44.37001" lon="6.2248">
        <ele>1178.23291</ele>
        <time>2011-09-02T09:08:40Z</time>
      </trkpt>
      <trkpt lat="44.37001" lon="6.2248">
        <ele>1178.23291</ele>
        <time>2011-09-02T09:09:00Z</time>
      </trkpt>
      <trkpt lat="44.37001" lon="6.2248">
        <ele>1178.713623</ele>
        <time>2011-09-02T09:09:32Z</time>
      </trkpt>
      <trkpt lat="44.37001" lon="6.2248">
        <ele>1179.674805</ele>
        <time>2011-09-02T09:10:16Z</time>
      </trkpt>
      <trkpt lat="44.37001" lon="6.2248">
        <ele>1180.155762</ele>
        <time>2011-09-02T09:10:44Z</time>
      </trkpt>
      <trkpt lat="44.37001" lon="6.2248">
        <ele>1180.636475</ele>
        <time>2011-09-02T09:10:46Z</time>
      </trkpt>
      <trkpt lat="44.36982" lon="6.22443">
        <ele>1183.520264</ele>
        <time>2011-09-02T09:11:07Z</time>
      </trkpt>
      <trkpt lat="44.36987" lon="6.22402">
        <ele>1187.365479</ele>
        <time>2011-09-02T09:11:26Z</time>
      </trkpt>
      <trkpt lat="44.36987" lon="6.22397">
        <ele>1187.846191</ele>
        <time>2011-09-02T09:11:30Z</time>
      </trkpt>
      <trkpt lat="44.36987" lon="6.22396">
        <ele>1187.846191</ele>
        <time>2011-09-02T09:11:44Z</time>
      </trkpt>
      <trkpt lat="44.36987" lon="6.22396">
        <ele>1188.807617</ele>
        <time>2011-09-02T09:12:34Z</time>
      </trkpt>
      <trkpt lat="44.36987" lon="6.22396">
        <ele>1190.249512</ele>
        <time>2011-09-02T09:12:58Z</time>
      </trkpt>
      <trkpt lat="44.36987" lon="6.22396">
        <ele>1191.210693</ele>
        <time>2011-09-02T09:18:31Z</time>
      </trkpt>
      <trkpt lat="44.37004" lon="6.22396">
        <ele>1193.614014</ele>
        <time>2011-09-02T09:18:48Z</time>
      </trkpt>
      <trkpt lat="44.37009" lon="6.22399">
        <ele>1195.055908</ele>
        <time>2011-09-02T09:18:59Z</time>
      </trkpt>
      <trkpt lat="44.37022" lon="6.22421">
        <ele>1197.940186</ele>
        <time>2011-09-02T09:19:18Z</time>
      </trkpt>
      <trkpt lat="44.37022" lon="6.22421">
        <ele>1199.38208</ele>
        <time>2011-09-02T09:19:36Z</time>
      </trkpt>
      <trkpt lat="44.37022" lon="6.22421">
        <ele>1201.7854</ele>
        <time>2011-09-02T09:19:50Z</time>
      </trkpt>
      <trkpt lat="44.37022" lon="6.22421">
        <ele>1203.708008</ele>
        <time>2011-09-02T09:20:06Z</time>
      </trkpt>
      <trkpt lat="44.37068" lon="6.22452">
        <ele>1206.111084</ele>
        <time>2011-09-02T09:20:21Z</time>
      </trkpt>
      <trkpt lat="44.37068" lon="6.22452">
        <ele>1208.033936</ele>
        <time>2011-09-02T09:20:34Z</time>
      </trkpt>
      <trkpt lat="44.37068" lon="6.22452">
        <ele>1209.956299</ele>
        <time>2011-09-02T09:20:47Z</time>
      </trkpt>
      <trkpt lat="44.37135" lon="6.22433">
        <ele>1211.87915</ele>
        <time>2011-09-02T09:21:05Z</time>
      </trkpt>
      <trkpt lat="44.37157" lon="6.22407">
        <ele>1214.763184</ele>
        <time>2011-09-02T09:21:28Z</time>
      </trkpt>
      <trkpt lat="44.37172" lon="6.22389">
        <ele>1216.205078</ele>
        <time>2011-09-02T09:21:45Z</time>
      </trkpt>
      <trkpt lat="44.37191" lon="6.22367">
        <ele>1219.089111</ele>
        <time>2011-09-02T09:22:08Z</time>
      </trkpt>
      <trkpt lat="44.37204" lon="6.22354">
        <ele>1221.9729</ele>
        <time>2011-09-02T09:22:25Z</time>
      </trkpt>
      <trkpt lat="44.37236" lon="6.22337">
        <ele>1224.856934</ele>
        <time>2011-09-02T09:22:49Z</time>
      </trkpt>
      <trkpt lat="44.37237" lon="6.22336">
        <ele>1226.298828</ele>
        <time>2011-09-02T09:22:56Z</time>
      </trkpt>
      <trkpt lat="44.37255" lon="6.22315">
        <ele>1229.182861</ele>
        <time>2011-09-02T09:23:15Z</time>
      </trkpt>
      <trkpt lat="44.37279" lon="6.22298">
        <ele>1231.105713</ele>
        <time>2011-09-02T09:23:34Z</time>
      </trkpt>
      <trkpt lat="44.37285" lon="6.22296">
        <ele>1232.547607</ele>
        <time>2011-09-02T09:23:38Z</time>
      </trkpt>
      <trkpt lat="44.37288" lon="6.22295">
        <ele>1232.066895</ele>
        <time>2011-09-02T09:23:41Z</time>
      </trkpt>
      <trkpt lat="44.37292" lon="6.22294">
        <ele>1233.989502</ele>
        <time>2011-09-02T09:23:49Z</time>
      </trkpt>
      <trkpt lat="44.37294" lon="6.22285">
        <ele>1234.470215</ele>
        <time>2011-09-02T09:23:53Z</time>
      </trkpt>
      <trkpt lat="44.37291" lon="6.22275">
        <ele>1235.431396</ele>
        <time>2011-09-02T09:24:00Z</time>
      </trkpt>
      <trkpt lat="44.37288" lon="6.22271">
        <ele>1235.912109</ele>
        <time>2011-09-02T09:24:04Z</time>
      </trkpt>
      <trkpt lat="44.37288" lon="6.22271">
        <ele>1237.834717</ele>
        <time>2011-09-02T09:24:14Z</time>
      </trkpt>
      <trkpt lat="44.37288" lon="6.22271">
        <ele>1238.31543</ele>
        <time>2011-09-02T09:24:21Z</time>
      </trkpt>
      <trkpt lat="44.37288" lon="6.22271">
        <ele>1239.757324</ele>
        <time>2011-09-02T09:24:30Z</time>
      </trkpt>
      <trkpt lat="44.37288" lon="6.22271">
        <ele>1240.238037</ele>
        <time>2011-09-02T09:24:36Z</time>
      </trkpt>
      <trkpt lat="44.37263" lon="6.22259">
        <ele>1242.641357</ele>
        <time>2011-09-02T09:24:53Z</time>
      </trkpt>
      <trkpt lat="44.37235" lon="6.22281">
        <ele>1245.525391</ele>
        <time>2011-09-02T09:25:09Z</time>
      </trkpt>
      <trkpt lat="44.37235" lon="6.22281">
        <ele>1246.486816</ele>
        <time>2011-09-02T09:25:19Z</time>
      </trkpt>
      <trkpt lat="44.37235" lon="6.22281">
        <ele>1246.967285</ele>
        <time>2011-09-02T09:25:26Z</time>
      </trkpt>
      <trkpt lat="44.37205" lon="6.22289">
        <ele>1248.40918</ele>
        <time>2011-09-02T09:25:41Z</time>
      </trkpt>
      <trkpt lat="44.37185" lon="6.22294">
        <ele>1250.8125</ele>
        <time>2011-09-02T09:25:55Z</time>
      </trkpt>
      <trkpt lat="44.37172" lon="6.22302">
        <ele>1253.21582</ele>
        <time>2011-09-02T09:26:08Z</time>
      </trkpt>
      <trkpt lat="44.37172" lon="6.22302">
        <ele>1253.21582</ele>
        <time>2011-09-02T09:26:10Z</time>
      </trkpt>
      <trkpt lat="44.37157" lon="6.22313">
        <ele>1254.177246</ele>
        <time>2011-09-02T09:26:20Z</time>
      </trkpt>
      <trkpt lat="44.37154" lon="6.22315">
        <ele>1256.099609</ele>
        <time>2011-09-02T09:26:37Z</time>
      </trkpt>
      <trkpt lat="44.37154" lon="6.22315">
        <ele>1256.099609</ele>
        <time>2011-09-02T09:27:16Z</time>
      </trkpt>
      <trkpt lat="44.37135" lon="6.2232">
        <ele>1257.541748</ele>
        <time>2011-09-02T09:27:31Z</time>
      </trkpt>
      <trkpt lat="44.37118" lon="6.22329">
        <ele>1259.944824</ele>
        <time>2011-09-02T09:27:48Z</time>
      </trkpt>
      <trkpt lat="44.37118" lon="6.22329">
        <ele>1260.425781</ele>
        <time>2011-09-02T09:27:53Z</time>
      </trkpt>
      <trkpt lat="44.37118" lon="6.22329">
        <ele>1263.309814</ele>
        <time>2011-09-02T09:28:09Z</time>
      </trkpt>
      <trkpt lat="44.37118" lon="6.22329">
        <ele>1266.193604</ele>
        <time>2011-09-02T09:28:33Z</time>
      </trkpt>
      <trkpt lat="44.37118" lon="6.22329">
        <ele>1268.596924</ele>
        <time>2011-09-02T09:28:51Z</time>
      </trkpt>
      <trkpt lat="44.37118" lon="6.22329">
        <ele>1271.000244</ele>
        <time>2011-09-02T09:29:10Z</time>
      </trkpt>
      <trkpt lat="44.37029" lon="6.22245">
        <ele>1273.884033</ele>
        <time>2011-09-02T09:29:30Z</time>
      </trkpt>
      <trkpt lat="44.37029" lon="6.22244">
        <ele>1273.884033</ele>
        <time>2011-09-02T09:29:31Z</time>
      </trkpt>
      <trkpt lat="44.37041" lon="6.22223">
        <ele>1275.325928</ele>
        <time>2011-09-02T09:29:48Z</time>
      </trkpt>
      <trkpt lat="44.3707" lon="6.22216">
        <ele>1277.729492</ele>
        <time>2011-09-02T09:30:11Z</time>
      </trkpt>
      <trkpt lat="44.37097" lon="6.22209">
        <ele>1278.690918</ele>
        <time>2011-09-02T09:30:31Z</time>
      </trkpt>
      <trkpt lat="44.37108" lon="6.22208">
        <ele>1279.6521</ele>
        <time>2011-09-02T09:30:38Z</time>
      </trkpt>
      <trkpt lat="44.37135" lon="6.2219">
        <ele>1281.094238</ele>
        <time>2011-09-02T09:30:57Z</time>
      </trkpt>
      <trkpt lat="44.37161" lon="6.22159">
        <ele>1283.497314</ele>
        <time>2011-09-02T09:31:20Z</time>
      </trkpt>
      <trkpt lat="44.37169" lon="6.2214">
        <ele>1284.45874</ele>
        <time>2011-09-02T09:31:30Z</time>
      </trkpt>
      <trkpt lat="44.37159" lon="6.22111">
        <ele>1285.900635</ele>
        <time>2011-09-02T09:31:44Z</time>
      </trkpt>
      <trkpt lat="44.37176" lon="6.22078">
        <ele>1287.823242</ele>
        <time>2011-09-02T09:32:04Z</time>
      </trkpt>
      <trkpt lat="44.37206" lon="6.22044">
        <ele>1289.74585</ele>
        <time>2011-09-02T09:32:28Z</time>
      </trkpt>
      <trkpt lat="44.37212" lon="6.22032">
        <ele>1290.226563</ele>
        <time>2011-09-02T09:32:35Z</time>
      </trkpt>
      <trkpt lat="44.37215" lon="6.22019">
        <ele>1289.74585</ele>
        <time>2011-09-02T09:32:42Z</time>
      </trkpt>
      <trkpt lat="44.37221" lon="6.21973">
        <ele>1290.226563</ele>
        <time>2011-09-02T09:33:03Z</time>
      </trkpt>
      <trkpt lat="44.37248" lon="6.21977">
        <ele>1288.303955</ele>
        <time>2011-09-02T09:33:14Z</time>
      </trkpt>
      <trkpt lat="44.37261" lon="6.21982">
        <ele>1286.861816</ele>
        <time>2011-09-02T09:33:18Z</time>
      </trkpt>
      <trkpt lat="44.37282" lon="6.21989">
        <ele>1284.939453</ele>
        <time>2011-09-02T09:33:24Z</time>
      </trkpt>
      <trkpt lat="44.37297" lon="6.21999">
        <ele>1283.497314</ele>
        <time>2011-09-02T09:33:28Z</time>
      </trkpt>
      <trkpt lat="44.37318" lon="6.22004">
        <ele>1281.094238</ele>
        <time>2011-09-02T09:33:34Z</time>
      </trkpt>
      <trkpt lat="44.37325" lon="6.22004">
        <ele>1279.171387</ele>
        <time>2011-09-02T09:33:36Z</time>
      </trkpt>
      <trkpt lat="44.37341" lon="6.21994">
        <ele>1277.729492</ele>
        <time>2011-09-02T09:33:41Z</time>
      </trkpt>
      <trkpt lat="44.37361" lon="6.21954">
        <ele>1275.806641</ele>
        <time>2011-09-02T09:33:52Z</time>
      </trkpt>
      <trkpt lat="44.37381" lon="6.21914">
        <ele>1272.922852</ele>
        <time>2011-09-02T09:34:04Z</time>
      </trkpt>
      <trkpt lat="44.37394" lon="6.21914">
        <ele>1273.884033</ele>
        <time>2011-09-02T09:34:08Z</time>
      </trkpt>
      <trkpt lat="44.37416" lon="6.21915">
        <ele>1270.519531</ele>
        <time>2011-09-02T09:34:14Z</time>
      </trkpt>
      <trkpt lat="44.37431" lon="6.21914">
        <ele>1269.077637</ele>
        <time>2011-09-02T09:34:18Z</time>
      </trkpt>
      <trkpt lat="44.37438" lon="6.21916">
        <ele>1269.55835</ele>
        <time>2011-09-02T09:34:20Z</time>
      </trkpt>
      <trkpt lat="44.37458" lon="6.21926">
        <ele>1266.674316</ele>
        <time>2011-09-02T09:34:25Z</time>
      </trkpt>
      <trkpt lat="44.37465" lon="6.21929">
        <ele>1266.193604</ele>
        <time>2011-09-02T09:34:27Z</time>
      </trkpt>
      <trkpt lat="44.3748" lon="6.21913">
        <ele>1264.270996</ele>
        <time>2011-09-02T09:34:35Z</time>
      </trkpt>
      <trkpt lat="44.37477" lon="6.21908">
        <ele>1264.270996</ele>
        <time>2011-09-02T09:34:37Z</time>
      </trkpt>
      <trkpt lat="44.3747" lon="6.21866">
        <ele>1263.309814</ele>
        <time>2011-09-02T09:34:48Z</time>
      </trkpt>
      <trkpt lat="44.3745" lon="6.21822">
        <ele>1262.829102</ele>
        <time>2011-09-02T09:35:00Z</time>
      </trkpt>
      <trkpt lat="44.37417" lon="6.21811">
        <ele>1262.829102</ele>
        <time>2011-09-02T09:35:09Z</time>
      </trkpt>
      <trkpt lat="44.37382" lon="6.21798">
        <ele>1262.829102</ele>
        <time>2011-09-02T09:35:22Z</time>
      </trkpt>
      <trkpt lat="44.37359" lon="6.21768">
        <ele>1262.829102</ele>
        <time>2011-09-02T09:35:34Z</time>
      </trkpt>
      <trkpt lat="44.3738" lon="6.21725">
        <ele>1264.751709</ele>
        <time>2011-09-02T09:35:51Z</time>
      </trkpt>
      <trkpt lat="44.37396" lon="6.21723">
        <ele>1265.713135</ele>
        <time>2011-09-02T09:35:59Z</time>
      </trkpt>
      <trkpt lat="44.37439" lon="6.21695">
        <ele>1266.674316</ele>
        <time>2011-09-02T09:36:24Z</time>
      </trkpt>
      <trkpt lat="44.37451" lon="6.21676">
        <ele>1267.155029</ele>
        <time>2011-09-02T09:36:33Z</time>
      </trkpt>
      <trkpt lat="44.37448" lon="6.21666">
        <ele>1267.635498</ele>
        <time>2011-09-02T09:36:38Z</time>
      </trkpt>
      <trkpt lat="44.37426" lon="6.21655">
        <ele>1269.55835</ele>
        <time>2011-09-02T09:36:53Z</time>
      </trkpt>
      <trkpt lat="44.37416" lon="6.2164">
        <ele>1270.038818</ele>
        <time>2011-09-02T09:37:02Z</time>
      </trkpt>
      <trkpt lat="44.37398" lon="6.2164">
        <ele>1270.519531</ele>
        <time>2011-09-02T09:37:12Z</time>
      </trkpt>
      <trkpt lat="44.3737" lon="6.21646">
        <ele>1273.884033</ele>
        <time>2011-09-02T09:37:34Z</time>
      </trkpt>
      <trkpt lat="44.37362" lon="6.21639">
        <ele>1274.845459</ele>
        <time>2011-09-02T09:37:43Z</time>
      </trkpt>
      <trkpt lat="44.37364" lon="6.21628">
        <ele>1276.768311</ele>
        <time>2011-09-02T09:37:53Z</time>
      </trkpt>
      <trkpt lat="44.37372" lon="6.21612">
        <ele>1278.690918</ele>
        <time>2011-09-02T09:38:04Z</time>
      </trkpt>
      <trkpt lat="44.37387" lon="6.21579">
        <ele>1281.574707</ele>
        <time>2011-09-02T09:38:28Z</time>
      </trkpt>
      <trkpt lat="44.37383" lon="6.21566">
        <ele>1284.45874</ele>
        <time>2011-09-02T09:38:45Z</time>
      </trkpt>
      <trkpt lat="44.37383" lon="6.21566">
        <ele>1285.900635</ele>
        <time>2011-09-02T09:38:57Z</time>
      </trkpt>
      <trkpt lat="44.37387" lon="6.21508">
        <ele>1288.303955</ele>
        <time>2011-09-02T09:39:19Z</time>
      </trkpt>
      <trkpt lat="44.37385" lon="6.215">
        <ele>1290.226563</ele>
        <time>2011-09-02T09:39:31Z</time>
      </trkpt>
      <trkpt lat="44.37379" lon="6.21488">
        <ele>1291.668457</ele>
        <time>2011-09-02T09:39:41Z</time>
      </trkpt>
      <trkpt lat="44.37379" lon="6.21488">
        <ele>1292.630127</ele>
        <time>2011-09-02T09:39:44Z</time>
      </trkpt>
      <trkpt lat="44.37379" lon="6.21488">
        <ele>1293.591309</ele>
        <time>2011-09-02T09:39:58Z</time>
      </trkpt>
      <trkpt lat="44.37382" lon="6.2144">
        <ele>1295.033203</ele>
        <time>2011-09-02T09:40:06Z</time>
      </trkpt>
      <trkpt lat="44.37382" lon="6.21434">
        <ele>1295.513916</ele>
        <time>2011-09-02T09:40:10Z</time>
      </trkpt>
      <trkpt lat="44.37368" lon="6.21425">
        <ele>1297.917236</ele>
        <time>2011-09-02T09:40:23Z</time>
      </trkpt>
      <trkpt lat="44.37364" lon="6.21426">
        <ele>1301.281738</ele>
        <time>2011-09-02T09:40:43Z</time>
      </trkpt>
      <trkpt lat="44.37342" lon="6.21436">
        <ele>1302.24292</ele>
        <time>2011-09-02T09:40:54Z</time>
      </trkpt>
      <trkpt lat="44.37342" lon="6.21436">
        <ele>1303.685059</ele>
        <time>2011-09-02T09:40:57Z</time>
      </trkpt>
      <trkpt lat="44.37342" lon="6.21436">
        <ele>1303.685059</ele>
        <time>2011-09-02T09:41:02Z</time>
      </trkpt>
      <trkpt lat="44.37325" lon="6.21425">
        <ele>1304.165771</ele>
        <time>2011-09-02T09:41:05Z</time>
      </trkpt>
      <trkpt lat="44.37329" lon="6.21419">
        <ele>1305.126953</ele>
        <time>2011-09-02T09:41:09Z</time>
      </trkpt>
      <trkpt lat="44.37331" lon="6.21407">
        <ele>1306.568848</ele>
        <time>2011-09-02T09:41:17Z</time>
      </trkpt>
      <trkpt lat="44.37334" lon="6.21374">
        <ele>1309.453125</ele>
        <time>2011-09-02T09:41:39Z</time>
      </trkpt>
      <trkpt lat="44.37339" lon="6.21357">
        <ele>1310.89502</ele>
        <time>2011-09-02T09:41:51Z</time>
      </trkpt>
      <trkpt lat="44.37338" lon="6.21335">
        <ele>1312.336914</ele>
        <time>2011-09-02T09:42:05Z</time>
      </trkpt>
      <trkpt lat="44.37324" lon="6.21322">
        <ele>1314.740234</ele>
        <time>2011-09-02T09:42:20Z</time>
      </trkpt>
      <trkpt lat="44.37318" lon="6.2132">
        <ele>1315.220947</ele>
        <time>2011-09-02T09:42:24Z</time>
      </trkpt>
      <trkpt lat="44.37307" lon="6.21306">
        <ele>1316.182129</ele>
        <time>2011-09-02T09:42:38Z</time>
      </trkpt>
      <trkpt lat="44.37302" lon="6.21304">
        <ele>1317.143555</ele>
        <time>2011-09-02T09:42:42Z</time>
      </trkpt>
      <trkpt lat="44.373" lon="6.21301">
        <ele>1317.624023</ele>
        <time>2011-09-02T09:42:45Z</time>
      </trkpt>
      <trkpt lat="44.37297" lon="6.21295">
        <ele>1318.104736</ele>
        <time>2011-09-02T09:42:50Z</time>
      </trkpt>
      <trkpt lat="44.37281" lon="6.2128">
        <ele>1319.546875</ele>
        <time>2011-09-02T09:43:05Z</time>
      </trkpt>
      <trkpt lat="44.37275" lon="6.21277">
        <ele>1320.027344</ele>
        <time>2011-09-02T09:43:11Z</time>
      </trkpt>
      <trkpt lat="44.37273" lon="6.21267">
        <ele>1320.98877</ele>
        <time>2011-09-02T09:43:18Z</time>
      </trkpt>
      <trkpt lat="44.37284" lon="6.21241">
        <ele>1323.872559</ele>
        <time>2011-09-02T09:43:37Z</time>
      </trkpt>
      <trkpt lat="44.37285" lon="6.2124">
        <ele>1323.872559</ele>
        <time>2011-09-02T09:43:38Z</time>
      </trkpt>
      <trkpt lat="44.37295" lon="6.21229">
        <ele>1324.834229</ele>
        <time>2011-09-02T09:43:49Z</time>
      </trkpt>
      <trkpt lat="44.37304" lon="6.21219">
        <ele>1325.79541</ele>
        <time>2011-09-02T09:43:58Z</time>
      </trkpt>
      <trkpt lat="44.37305" lon="6.21204">
        <ele>1326.756836</ele>
        <time>2011-09-02T09:44:07Z</time>
      </trkpt>
      <trkpt lat="44.37304" lon="6.21202">
        <ele>1327.237549</ele>
        <time>2011-09-02T09:44:09Z</time>
      </trkpt>
      <trkpt lat="44.37301" lon="6.21198">
        <ele>1327.237549</ele>
        <time>2011-09-02T09:44:12Z</time>
      </trkpt>
      <trkpt lat="44.37291" lon="6.21196">
        <ele>1328.679443</ele>
        <time>2011-09-02T09:44:22Z</time>
      </trkpt>
      <trkpt lat="44.3728" lon="6.21196">
        <ele>1330.602051</ele>
        <time>2011-09-02T09:44:31Z</time>
      </trkpt>
      <trkpt lat="44.37277" lon="6.21192">
        <ele>1331.082764</ele>
        <time>2011-09-02T09:44:35Z</time>
      </trkpt>
      <trkpt lat="44.37273" lon="6.21173">
        <ele>1332.043945</ele>
        <time>2011-09-02T09:44:48Z</time>
      </trkpt>
      <trkpt lat="44.37273" lon="6.21171">
        <ele>1333.005127</ele>
        <time>2011-09-02T09:44:50Z</time>
      </trkpt>
      <trkpt lat="44.37275" lon="6.21165">
        <ele>1333.005127</ele>
        <time>2011-09-02T09:44:54Z</time>
      </trkpt>
      <trkpt lat="44.37271" lon="6.21122">
        <ele>1335.88916</ele>
        <time>2011-09-02T09:45:20Z</time>
      </trkpt>
      <trkpt lat="44.37271" lon="6.21121">
        <ele>1335.88916</ele>
        <time>2011-09-02T09:45:21Z</time>
      </trkpt>
      <trkpt lat="44.3726" lon="6.21107">
        <ele>1338.29248</ele>
        <time>2011-09-02T09:45:36Z</time>
      </trkpt>
      <trkpt lat="44.37252" lon="6.21105">
        <ele>1339.253662</ele>
        <time>2011-09-02T09:45:45Z</time>
      </trkpt>
      <trkpt lat="44.37239" lon="6.21105">
        <ele>1340.215332</ele>
        <time>2011-09-02T09:45:54Z</time>
      </trkpt>
      <trkpt lat="44.37235" lon="6.21108">
        <ele>1340.215332</ele>
        <time>2011-09-02T09:45:57Z</time>
      </trkpt>
      <trkpt lat="44.37229" lon="6.21111">
        <ele>1341.176514</ele>
        <time>2011-09-02T09:46:01Z</time>
      </trkpt>
      <trkpt lat="44.37223" lon="6.21128">
        <ele>1342.137939</ele>
        <time>2011-09-02T09:46:11Z</time>
      </trkpt>
      <trkpt lat="44.37219" lon="6.21134">
        <ele>1343.099121</ele>
        <time>2011-09-02T09:46:16Z</time>
      </trkpt>
      <trkpt lat="44.37217" lon="6.21137">
        <ele>1343.579834</ele>
        <time>2011-09-02T09:46:19Z</time>
      </trkpt>
      <trkpt lat="44.37205" lon="6.21144">
        <ele>1344.541016</ele>
        <time>2011-09-02T09:46:31Z</time>
      </trkpt>
      <trkpt lat="44.37204" lon="6.21145">
        <ele>1344.541016</ele>
        <time>2011-09-02T09:46:32Z</time>
      </trkpt>
      <trkpt lat="44.37192" lon="6.21154">
        <ele>1345.983154</ele>
        <time>2011-09-02T09:46:47Z</time>
      </trkpt>
      <trkpt lat="44.3719" lon="6.21155">
        <ele>1345.983154</ele>
        <time>2011-09-02T09:46:48Z</time>
      </trkpt>
      <trkpt lat="44.37178" lon="6.21159">
        <ele>1347.425049</ele>
        <time>2011-09-02T09:47:00Z</time>
      </trkpt>
      <trkpt lat="44.37175" lon="6.2116">
        <ele>1346.944336</ele>
        <time>2011-09-02T09:47:02Z</time>
      </trkpt>
      <trkpt lat="44.3717" lon="6.21159">
        <ele>1347.905762</ele>
        <time>2011-09-02T09:47:07Z</time>
      </trkpt>
      <trkpt lat="44.3716" lon="6.21161">
        <ele>1348.866943</ele>
        <time>2011-09-02T09:47:19Z</time>
      </trkpt>
      <trkpt lat="44.3715" lon="6.2117">
        <ele>1349.347656</ele>
        <time>2011-09-02T09:47:29Z</time>
      </trkpt>
      <trkpt lat="44.37146" lon="6.21175">
        <ele>1349.828369</ele>
        <time>2011-09-02T09:47:33Z</time>
      </trkpt>
      <trkpt lat="44.3714" lon="6.21179">
        <ele>1349.828369</ele>
        <time>2011-09-02T09:47:38Z</time>
      </trkpt>
      <trkpt lat="44.37134" lon="6.21189">
        <ele>1350.309082</ele>
        <time>2011-09-02T09:47:45Z</time>
      </trkpt>
      <trkpt lat="44.37126" lon="6.21193">
        <ele>1350.789551</ele>
        <time>2011-09-02T09:47:52Z</time>
      </trkpt>
      <trkpt lat="44.37118" lon="6.21203">
        <ele>1351.270264</ele>
        <time>2011-09-02T09:48:01Z</time>
      </trkpt>
      <trkpt lat="44.37105" lon="6.21227">
        <ele>1352.712158</ele>
        <time>2011-09-02T09:48:17Z</time>
      </trkpt>
      <trkpt lat="44.37101" lon="6.21236">
        <ele>1353.673584</ele>
        <time>2011-09-02T09:48:23Z</time>
      </trkpt>
      <trkpt lat="44.371" lon="6.21241">
        <ele>1353.673584</ele>
        <time>2011-09-02T09:48:25Z</time>
      </trkpt>
      <trkpt lat="44.37098" lon="6.21246">
        <ele>1353.673584</ele>
        <time>2011-09-02T09:48:28Z</time>
      </trkpt>
      <trkpt lat="44.37098" lon="6.2125">
        <ele>1354.154297</ele>
        <time>2011-09-02T09:48:30Z</time>
      </trkpt>
      <trkpt lat="44.37096" lon="6.21266">
        <ele>1354.634766</ele>
        <time>2011-09-02T09:48:39Z</time>
      </trkpt>
      <trkpt lat="44.37083" lon="6.21287">
        <ele>1355.596191</ele>
        <time>2011-09-02T09:48:53Z</time>
      </trkpt>
      <trkpt lat="44.37076" lon="6.21297">
        <ele>1356.557617</ele>
        <time>2011-09-02T09:49:00Z</time>
      </trkpt>
      <trkpt lat="44.37061" lon="6.21315">
        <ele>1357.519043</ele>
        <time>2011-09-02T09:49:13Z</time>
      </trkpt>
      <trkpt lat="44.37059" lon="6.21318">
        <ele>1357.519043</ele>
        <time>2011-09-02T09:49:15Z</time>
      </trkpt>
      <trkpt lat="44.37026" lon="6.21339">
        <ele>1358.480225</ele>
        <time>2011-09-02T09:49:37Z</time>
      </trkpt>
      <trkpt lat="44.37004" lon="6.21362">
        <ele>1360.883545</ele>
        <time>2011-09-02T09:49:56Z</time>
      </trkpt>
      <trkpt lat="44.36991" lon="6.21353">
        <ele>1362.325439</ele>
        <time>2011-09-02T09:50:07Z</time>
      </trkpt>
      <trkpt lat="44.37005" lon="6.21324">
        <ele>1364.248047</ele>
        <time>2011-09-02T09:50:30Z</time>
      </trkpt>
      <trkpt lat="44.37026" lon="6.21302">
        <ele>1366.651367</ele>
        <time>2011-09-02T09:50:51Z</time>
      </trkpt>
      <trkpt lat="44.37027" lon="6.21302">
        <ele>1366.651367</ele>
        <time>2011-09-02T09:50:52Z</time>
      </trkpt>
      <trkpt lat="44.3704" lon="6.21284">
        <ele>1368.573975</ele>
        <time>2011-09-02T09:51:06Z</time>
      </trkpt>
      <trkpt lat="44.37045" lon="6.21267">
        <ele>1369.5354</ele>
        <time>2011-09-02T09:51:16Z</time>
      </trkpt>
      <trkpt lat="44.37049" lon="6.21262">
        <ele>1370.496582</ele>
        <time>2011-09-02T09:51:20Z</time>
      </trkpt>
      <trkpt lat="44.37052" lon="6.21257">
        <ele>1370.496582</ele>
        <time>2011-09-02T09:51:23Z</time>
      </trkpt>
      <trkpt lat="44.37054" lon="6.21233">
        <ele>1371.938477</ele>
        <time>2011-09-02T09:51:38Z</time>
      </trkpt>
      <trkpt lat="44.37053" lon="6.21229">
        <ele>1371.938477</ele>
        <time>2011-09-02T09:51:40Z</time>
      </trkpt>
      <trkpt lat="44.37053" lon="6.2122">
        <ele>1372.419434</ele>
        <time>2011-09-02T09:51:45Z</time>
      </trkpt>
      <trkpt lat="44.37057" lon="6.21195">
        <ele>1374.342041</ele>
        <time>2011-09-02T09:52:01Z</time>
      </trkpt>
      <trkpt lat="44.37058" lon="6.21191">
        <ele>1374.822754</ele>
        <time>2011-09-02T09:52:04Z</time>
      </trkpt>
      <trkpt lat="44.37073" lon="6.21153">
        <ele>1377.706543</ele>
        <time>2011-09-02T09:52:27Z</time>
      </trkpt>
      <trkpt lat="44.37079" lon="6.21143">
        <ele>1378.667969</ele>
        <time>2011-09-02T09:52:35Z</time>
      </trkpt>
      <trkpt lat="44.37089" lon="6.21126">
        <ele>1379.62915</ele>
        <time>2011-09-02T09:52:47Z</time>
      </trkpt>
      <trkpt lat="44.37094" lon="6.2112">
        <ele>1380.109863</ele>
        <time>2011-09-02T09:52:52Z</time>
      </trkpt>
      <trkpt lat="44.37107" lon="6.21103">
        <ele>1381.551758</ele>
        <time>2011-09-02T09:53:07Z</time>
      </trkpt>
      <trkpt lat="44.37114" lon="6.21093">
        <ele>1382.513184</ele>
        <time>2011-09-02T09:53:14Z</time>
      </trkpt>
      <trkpt lat="44.37126" lon="6.21071">
        <ele>1383.955078</ele>
        <time>2011-09-02T09:53:31Z</time>
      </trkpt>
      <trkpt lat="44.3713" lon="6.21065">
        <ele>1384.916504</ele>
        <time>2011-09-02T09:53:36Z</time>
      </trkpt>
      <trkpt lat="44.37142" lon="6.21041">
        <ele>1386.358398</ele>
        <time>2011-09-02T09:53:53Z</time>
      </trkpt>
      <trkpt lat="44.37164" lon="6.21032">
        <ele>1389.242432</ele>
        <time>2011-09-02T09:54:12Z</time>
      </trkpt>
      <trkpt lat="44.37171" lon="6.21027">
        <ele>1389.723145</ele>
        <time>2011-09-02T09:54:18Z</time>
      </trkpt>
      <trkpt lat="44.37175" lon="6.21021">
        <ele>1390.203857</ele>
        <time>2011-09-02T09:54:22Z</time>
      </trkpt>
      <trkpt lat="44.37185" lon="6.20995">
        <ele>1391.165039</ele>
        <time>2011-09-02T09:54:36Z</time>
      </trkpt>
      <trkpt lat="44.37187" lon="6.20993">
        <ele>1391.645752</ele>
        <time>2011-09-02T09:54:38Z</time>
      </trkpt>
      <trkpt lat="44.3719" lon="6.20989">
        <ele>1392.607178</ele>
        <time>2011-09-02T09:54:57Z</time>
      </trkpt>
      <trkpt lat="44.37185" lon="6.2099">
        <ele>1392.607178</ele>
        <time>2011-09-02T09:55:04Z</time>
      </trkpt>
      <trkpt lat="44.37172" lon="6.20988">
        <ele>1392.607178</ele>
        <time>2011-09-02T09:55:18Z</time>
      </trkpt>
      <trkpt lat="44.37171" lon="6.20988">
        <ele>1392.126465</ele>
        <time>2011-09-02T09:57:07Z</time>
      </trkpt>
      <trkpt lat="44.37172" lon="6.20987">
        <ele>1394.529541</ele>
        <time>2011-09-02T09:57:29Z</time>
      </trkpt>
      <trkpt lat="44.37172" lon="6.20987">
        <ele>1394.529541</ele>
        <time>2011-09-02T09:57:36Z</time>
      </trkpt>
      <trkpt lat="44.37172" lon="6.20987">
        <ele>1392.607178</ele>
        <time>2011-09-02T09:57:55Z</time>
      </trkpt>
      <trkpt lat="44.37172" lon="6.20987">
        <ele>1393.087646</ele>
        <time>2011-09-02T09:58:48Z</time>
      </trkpt>
      <trkpt lat="44.37172" lon="6.20987">
        <ele>1391.645752</ele>
        <time>2011-09-02T09:58:50Z</time>
      </trkpt>
      <trkpt lat="44.37171" lon="6.20991">
        <ele>1393.087646</ele>
        <time>2011-09-02T09:59:48Z</time>
      </trkpt>
      <trkpt lat="44.37188" lon="6.20988">
        <ele>1394.529541</ele>
        <time>2011-09-02T10:00:08Z</time>
      </trkpt>
      <trkpt lat="44.37187" lon="6.20985">
        <ele>1395.010254</ele>
        <time>2011-09-02T10:00:31Z</time>
      </trkpt>
      <trkpt lat="44.37187" lon="6.20986">
        <ele>1395.010254</ele>
        <time>2011-09-02T10:00:34Z</time>
      </trkpt>
      <trkpt lat="44.37196" lon="6.2096">
        <ele>1395.97168</ele>
        <time>2011-09-02T10:00:51Z</time>
      </trkpt>
      <trkpt lat="44.37199" lon="6.20924">
        <ele>1399.336182</ele>
        <time>2011-09-02T10:01:15Z</time>
      </trkpt>
      <trkpt lat="44.37199" lon="6.20922">
        <ele>1399.336182</ele>
        <time>2011-09-02T10:01:16Z</time>
      </trkpt>
      <trkpt lat="44.37195" lon="6.20901">
        <ele>1400.297607</ele>
        <time>2011-09-02T10:01:29Z</time>
      </trkpt>
      <trkpt lat="44.37197" lon="6.20895">
        <ele>1400.778076</ele>
        <time>2011-09-02T10:01:33Z</time>
      </trkpt>
      <trkpt lat="44.37199" lon="6.20883">
        <ele>1402.219971</ele>
        <time>2011-09-02T10:01:41Z</time>
      </trkpt>
      <trkpt lat="44.37202" lon="6.20878">
        <ele>1402.219971</ele>
        <time>2011-09-02T10:01:45Z</time>
      </trkpt>
      <trkpt lat="44.3721" lon="6.20857">
        <ele>1403.662109</ele>
        <time>2011-09-02T10:02:01Z</time>
      </trkpt>
      <trkpt lat="44.37219" lon="6.20828">
        <ele>1405.584961</ele>
        <time>2011-09-02T10:02:20Z</time>
      </trkpt>
      <trkpt lat="44.37217" lon="6.20794">
        <ele>1408.46875</ele>
        <time>2011-09-02T10:02:41Z</time>
      </trkpt>
      <trkpt lat="44.37226" lon="6.20761">
        <ele>1410.391357</ele>
        <time>2011-09-02T10:03:02Z</time>
      </trkpt>
      <trkpt lat="44.37231" lon="6.20753">
        <ele>1411.352783</ele>
        <time>2011-09-02T10:03:09Z</time>
      </trkpt>
      <trkpt lat="44.37238" lon="6.20743">
        <ele>1412.794678</ele>
        <time>2011-09-02T10:03:18Z</time>
      </trkpt>
      <trkpt lat="44.37242" lon="6.20735">
        <ele>1413.275391</ele>
        <time>2011-09-02T10:03:23Z</time>
      </trkpt>
      <trkpt lat="44.37252" lon="6.20702">
        <ele>1415.197998</ele>
        <time>2011-09-02T10:03:45Z</time>
      </trkpt>
      <trkpt lat="44.37258" lon="6.20694">
        <ele>1415.678711</ele>
        <time>2011-09-02T10:03:52Z</time>
      </trkpt>
      <trkpt lat="44.3726" lon="6.20678">
        <ele>1416.639893</ele>
        <time>2011-09-02T10:04:02Z</time>
      </trkpt>
      <trkpt lat="44.37245" lon="6.20663">
        <ele>1418.081787</ele>
        <time>2011-09-02T10:04:14Z</time>
      </trkpt>
      <trkpt lat="44.37231" lon="6.20643">
        <ele>1420.004639</ele>
        <time>2011-09-02T10:04:31Z</time>
      </trkpt>
      <trkpt lat="44.37236" lon="6.20605">
        <ele>1422.407959</ele>
        <time>2011-09-02T10:04:56Z</time>
      </trkpt>
      <trkpt lat="44.37249" lon="6.20566">
        <ele>1423.849854</ele>
        <time>2011-09-02T10:05:17Z</time>
      </trkpt>
      <trkpt lat="44.37249" lon="6.20507">
        <ele>1423.369385</ele>
        <time>2011-09-02T10:05:34Z</time>
      </trkpt>
      <trkpt lat="44.37226" lon="6.20464">
        <ele>1423.849854</ele>
        <time>2011-09-02T10:05:49Z</time>
      </trkpt>
      <trkpt lat="44.37218" lon="6.20433">
        <ele>1424.811279</ele>
        <time>2011-09-02T10:06:02Z</time>
      </trkpt>
      <trkpt lat="44.37222" lon="6.20422">
        <ele>1424.811279</ele>
        <time>2011-09-02T10:06:07Z</time>
      </trkpt>
      <trkpt lat="44.37236" lon="6.20406">
        <ele>1425.291748</ele>
        <time>2011-09-02T10:06:16Z</time>
      </trkpt>
      <trkpt lat="44.37243" lon="6.2036">
        <ele>1427.2146</ele>
        <time>2011-09-02T10:06:35Z</time>
      </trkpt>
      <trkpt lat="44.37247" lon="6.2035">
        <ele>1427.2146</ele>
        <time>2011-09-02T10:06:40Z</time>
      </trkpt>
      <trkpt lat="44.37266" lon="6.20344">
        <ele>1429.136963</ele>
        <time>2011-09-02T10:06:52Z</time>
      </trkpt>
      <trkpt lat="44.3727" lon="6.20344">
        <ele>1429.136963</ele>
        <time>2011-09-02T10:06:54Z</time>
      </trkpt>
      <trkpt lat="44.37287" lon="6.20318">
        <ele>1431.059814</ele>
        <time>2011-09-02T10:07:09Z</time>
      </trkpt>
      <trkpt lat="44.37301" lon="6.2031">
        <ele>1431.059814</ele>
        <time>2011-09-02T10:07:17Z</time>
      </trkpt>
      <trkpt lat="44.37306" lon="6.20294">
        <ele>1431.540283</ele>
        <time>2011-09-02T10:07:23Z</time>
      </trkpt>
      <trkpt lat="44.37304" lon="6.20231">
        <ele>1432.982178</ele>
        <time>2011-09-02T10:07:44Z</time>
      </trkpt>
      <trkpt lat="44.37301" lon="6.20204">
        <ele>1433.462891</ele>
        <time>2011-09-02T10:07:53Z</time>
      </trkpt>
      <trkpt lat="44.37297" lon="6.20151">
        <ele>1434.424316</ele>
        <time>2011-09-02T10:08:11Z</time>
      </trkpt>
      <trkpt lat="44.37284" lon="6.20111">
        <ele>1435.866211</ele>
        <time>2011-09-02T10:08:30Z</time>
      </trkpt>
      <trkpt lat="44.37292" lon="6.20112">
        <ele>1435.866211</ele>
        <time>2011-09-02T10:08:39Z</time>
      </trkpt>
      <trkpt lat="44.37295" lon="6.20127">
        <ele>1437.30835</ele>
        <time>2011-09-02T10:08:47Z</time>
      </trkpt>
      <trkpt lat="44.37312" lon="6.20153">
        <ele>1439.71167</ele>
        <time>2011-09-02T10:09:06Z</time>
      </trkpt>
      <trkpt lat="44.37323" lon="6.20195">
        <ele>1442.595703</ele>
        <time>2011-09-02T10:09:31Z</time>
      </trkpt>
      <trkpt lat="44.37334" lon="6.20236">
        <ele>1444.998779</ele>
        <time>2011-09-02T10:09:55Z</time>
      </trkpt>
      <trkpt lat="44.37343" lon="6.20267">
        <ele>1447.4021</ele>
        <time>2011-09-02T10:10:16Z</time>
      </trkpt>
      <trkpt lat="44.37343" lon="6.20286">
        <ele>1449.324707</ele>
        <time>2011-09-02T10:10:29Z</time>
      </trkpt>
      <trkpt lat="44.37347" lon="6.20315">
        <ele>1451.247314</ele>
        <time>2011-09-02T10:10:49Z</time>
      </trkpt>
      <trkpt lat="44.37347" lon="6.20327">
        <ele>1452.20874</ele>
        <time>2011-09-02T10:10:57Z</time>
      </trkpt>
      <trkpt lat="44.37339" lon="6.20352">
        <ele>1454.612061</ele>
        <time>2011-09-02T10:11:16Z</time>
      </trkpt>
      <trkpt lat="44.37323" lon="6.2039">
        <ele>1457.015381</ele>
        <time>2011-09-02T10:11:43Z</time>
      </trkpt>
      <trkpt lat="44.37313" lon="6.20413">
        <ele>1458.937988</ele>
        <time>2011-09-02T10:12:00Z</time>
      </trkpt>
      <trkpt lat="44.37316" lon="6.20443">
        <ele>1460.860596</ele>
        <time>2011-09-02T10:12:18Z</time>
      </trkpt>
      <trkpt lat="44.37323" lon="6.20474">
        <ele>1462.783203</ele>
        <time>2011-09-02T10:12:39Z</time>
      </trkpt>
      <trkpt lat="44.37329" lon="6.20509">
        <ele>1465.667236</ele>
        <time>2011-09-02T10:13:01Z</time>
      </trkpt>
      <trkpt lat="44.37331" lon="6.20518">
        <ele>1466.147705</ele>
        <time>2011-09-02T10:13:06Z</time>
      </trkpt>
      <trkpt lat="44.37336" lon="6.20555">
        <ele>1468.55127</ele>
        <time>2011-09-02T10:13:29Z</time>
      </trkpt>
      <trkpt lat="44.37336" lon="6.20583">
        <ele>1469.993164</ele>
        <time>2011-09-02T10:13:45Z</time>
      </trkpt>
      <trkpt lat="44.3734" lon="6.20616">
        <ele>1471.435059</ele>
        <time>2011-09-02T10:14:04Z</time>
      </trkpt>
      <trkpt lat="44.37344" lon="6.20654">
        <ele>1473.35791</ele>
        <time>2011-09-02T10:14:25Z</time>
      </trkpt>
      <trkpt lat="44.37351" lon="6.20697">
        <ele>1475.760986</ele>
        <time>2011-09-02T10:14:50Z</time>
      </trkpt>
      <trkpt lat="44.37353" lon="6.20734">
        <ele>1478.164307</ele>
        <time>2011-09-02T10:15:09Z</time>
      </trkpt>
      <trkpt lat="44.37348" lon="6.20756">
        <ele>1479.606201</ele>
        <time>2011-09-02T10:15:22Z</time>
      </trkpt>
      <trkpt lat="44.37348" lon="6.20784">
        <ele>1481.04834</ele>
        <time>2011-09-02T10:15:39Z</time>
      </trkpt>
      <trkpt lat="44.37347" lon="6.20789">
        <ele>1481.528809</ele>
        <time>2011-09-02T10:15:42Z</time>
      </trkpt>
      <trkpt lat="44.37354" lon="6.20823">
        <ele>1483.932129</ele>
        <time>2011-09-02T10:16:03Z</time>
      </trkpt>
      <trkpt lat="44.37357" lon="6.20836">
        <ele>1483.932129</ele>
        <time>2011-09-02T10:16:11Z</time>
      </trkpt>
      <trkpt lat="44.37362" lon="6.20849">
        <ele>1484.413086</ele>
        <time>2011-09-02T10:16:18Z</time>
      </trkpt>
      <trkpt lat="44.37368" lon="6.2085">
        <ele>1484.893799</ele>
        <time>2011-09-02T10:16:23Z</time>
      </trkpt>
      <trkpt lat="44.37371" lon="6.20828">
        <ele>1485.85498</ele>
        <time>2011-09-02T10:16:37Z</time>
      </trkpt>
      <trkpt lat="44.37363" lon="6.20806">
        <ele>1487.777588</ele>
        <time>2011-09-02T10:16:52Z</time>
      </trkpt>
      <trkpt lat="44.37363" lon="6.20783">
        <ele>1490.180908</ele>
        <time>2011-09-02T10:17:06Z</time>
      </trkpt>
      <trkpt lat="44.37367" lon="6.20744">
        <ele>1492.584229</ele>
        <time>2011-09-02T10:17:30Z</time>
      </trkpt>
      <trkpt lat="44.37371" lon="6.20709">
        <ele>1495.468018</ele>
        <time>2011-09-02T10:17:51Z</time>
      </trkpt>
      <trkpt lat="44.37372" lon="6.20696">
        <ele>1496.429443</ele>
        <time>2011-09-02T10:18:00Z</time>
      </trkpt>
      <trkpt lat="44.37375" lon="6.20678">
        <ele>1497.871338</ele>
        <time>2011-09-02T10:18:11Z</time>
      </trkpt>
      <trkpt lat="44.37374" lon="6.20643">
        <ele>1499.313232</ele>
        <time>2011-09-02T10:18:31Z</time>
      </trkpt>
      <trkpt lat="44.37379" lon="6.20593">
        <ele>1501.236084</ele>
        <time>2011-09-02T10:18:59Z</time>
      </trkpt>
      <trkpt lat="44.37378" lon="6.20553">
        <ele>1503.639404</ele>
        <time>2011-09-02T10:19:22Z</time>
      </trkpt>
      <trkpt lat="44.37379" lon="6.20542">
        <ele>1505.081299</ele>
        <time>2011-09-02T10:19:29Z</time>
      </trkpt>
      <trkpt lat="44.37378" lon="6.20529">
        <ele>1505.081299</ele>
        <time>2011-09-02T10:19:36Z</time>
      </trkpt>
      <trkpt lat="44.37378" lon="6.20507">
        <ele>1506.04248</ele>
        <time>2011-09-02T10:19:48Z</time>
      </trkpt>
      <trkpt lat="44.37389" lon="6.20458">
        <ele>1506.04248</ele>
        <time>2011-09-02T10:20:12Z</time>
      </trkpt>
      <trkpt lat="44.374" lon="6.20414">
        <ele>1504.600586</ele>
        <time>2011-09-02T10:20:23Z</time>
      </trkpt>
      <trkpt lat="44.37405" lon="6.20397">
        <ele>1503.639404</ele>
        <time>2011-09-02T10:20:26Z</time>
      </trkpt>
      <trkpt lat="44.37411" lon="6.20375">
        <ele>1503.158691</ele>
        <time>2011-09-02T10:20:30Z</time>
      </trkpt>
      <trkpt lat="44.37422" lon="6.20269">
        <ele>1500.755371</ele>
        <time>2011-09-02T10:20:47Z</time>
      </trkpt>
      <trkpt lat="44.37425" lon="6.20214">
        <ele>1502.197266</ele>
        <time>2011-09-02T10:21:02Z</time>
      </trkpt>
      <trkpt lat="44.37428" lon="6.20151">
        <ele>1503.158691</ele>
        <time>2011-09-02T10:21:23Z</time>
      </trkpt>
      <trkpt lat="44.37429" lon="6.20131">
        <ele>1502.677979</ele>
        <time>2011-09-02T10:21:40Z</time>
      </trkpt>
      <trkpt lat="44.37429" lon="6.20131">
        <ele>1503.158691</ele>
        <time>2011-09-02T10:22:20Z</time>
      </trkpt>
      <trkpt lat="44.37429" lon="6.20131">
        <ele>1501.236084</ele>
        <time>2011-09-02T10:23:30Z</time>
      </trkpt>
      <trkpt lat="44.37429" lon="6.20131">
        <ele>1504.120117</ele>
        <time>2011-09-02T10:23:32Z</time>
      </trkpt>
      <trkpt lat="44.37429" lon="6.20131">
        <ele>1502.677979</ele>
        <time>2011-09-02T10:23:35Z</time>
      </trkpt>
      <trkpt lat="44.37429" lon="6.20131">
        <ele>1503.158691</ele>
        <time>2011-09-02T10:23:54Z</time>
      </trkpt>
      <trkpt lat="44.37429" lon="6.20131">
        <ele>1503.158691</ele>
        <time>2011-09-02T10:23:57Z</time>
      </trkpt>
      <trkpt lat="44.37431" lon="6.20124">
        <ele>1504.120117</ele>
        <time>2011-09-02T10:24:02Z</time>
      </trkpt>
      <trkpt lat="44.37428" lon="6.20152">
        <ele>1507.003906</ele>
        <time>2011-09-02T10:24:17Z</time>
      </trkpt>
      <trkpt lat="44.37427" lon="6.20162">
        <ele>1509.407227</ele>
        <time>2011-09-02T10:24:33Z</time>
      </trkpt>
      <trkpt lat="44.37427" lon="6.20162">
        <ele>1510.368408</ele>
        <time>2011-09-02T10:24:57Z</time>
      </trkpt>
      <trkpt lat="44.37427" lon="6.20162">
        <ele>1514.213623</ele>
        <time>2011-09-02T10:25:20Z</time>
      </trkpt>
      <trkpt lat="44.37427" lon="6.20162">
        <ele>1517.578369</ele>
        <time>2011-09-02T10:25:52Z</time>
      </trkpt>
      <trkpt lat="44.37427" lon="6.20162">
        <ele>1520.462402</ele>
        <time>2011-09-02T10:26:20Z</time>
      </trkpt>
      <trkpt lat="44.37466" lon="6.20285">
        <ele>1523.826904</ele>
        <time>2011-09-02T10:26:43Z</time>
      </trkpt>
      <trkpt lat="44.37466" lon="6.20285">
        <ele>1527.19165</ele>
        <time>2011-09-02T10:27:09Z</time>
      </trkpt>
      <trkpt lat="44.37466" lon="6.20285">
        <ele>1530.075439</ele>
        <time>2011-09-02T10:27:36Z</time>
      </trkpt>
      <trkpt lat="44.37466" lon="6.20285">
        <ele>1533.440186</ele>
        <time>2011-09-02T10:28:00Z</time>
      </trkpt>
      <trkpt lat="44.3747" lon="6.20411">
        <ele>1536.324219</ele>
        <time>2011-09-02T10:28:27Z</time>
      </trkpt>
      <trkpt lat="44.3747" lon="6.20411">
        <ele>1539.208008</ele>
        <time>2011-09-02T10:28:53Z</time>
      </trkpt>
      <trkpt lat="44.3747" lon="6.20411">
        <ele>1542.092041</ele>
        <time>2011-09-02T10:29:22Z</time>
      </trkpt>
      <trkpt lat="44.3747" lon="6.20411">
        <ele>1545.456543</ele>
        <time>2011-09-02T10:29:49Z</time>
      </trkpt>
      <trkpt lat="44.3747" lon="6.20411">
        <ele>1546.898438</ele>
        <time>2011-09-02T10:30:06Z</time>
      </trkpt>
      <trkpt lat="44.37451" lon="6.20536">
        <ele>1547.859863</ele>
        <time>2011-09-02T10:30:22Z</time>
      </trkpt>
      <trkpt lat="44.37451" lon="6.20536">
        <ele>1547.859863</ele>
        <time>2011-09-02T10:30:34Z</time>
      </trkpt>
      <trkpt lat="44.37451" lon="6.20536">
        <ele>1548.821289</ele>
        <time>2011-09-02T10:30:38Z</time>
      </trkpt>
      <trkpt lat="44.37451" lon="6.20536">
        <ele>1546.898438</ele>
        <time>2011-09-02T10:30:41Z</time>
      </trkpt>
      <trkpt lat="44.37451" lon="6.20536">
        <ele>1548.821289</ele>
        <time>2011-09-02T10:30:55Z</time>
      </trkpt>
      <trkpt lat="44.37463" lon="6.2062">
        <ele>1549.302002</ele>
        <time>2011-09-02T10:31:15Z</time>
      </trkpt>
      <trkpt lat="44.37466" lon="6.2066">
        <ele>1552.185791</ele>
        <time>2011-09-02T10:31:35Z</time>
      </trkpt>
      <trkpt lat="44.37474" lon="6.20711">
        <ele>1553.147217</ele>
        <time>2011-09-02T10:31:59Z</time>
      </trkpt>
      <trkpt lat="44.37475" lon="6.20752">
        <ele>1554.108643</ele>
        <time>2011-09-02T10:32:18Z</time>
      </trkpt>
      <trkpt lat="44.3748" lon="6.20792">
        <ele>1556.511719</ele>
        <time>2011-09-02T10:32:38Z</time>
      </trkpt>
      <trkpt lat="44.37503" lon="6.20837">
        <ele>1556.992432</ele>
        <time>2011-09-02T10:32:59Z</time>
      </trkpt>
      <trkpt lat="44.37525" lon="6.20874">
        <ele>1555.550537</ele>
        <time>2011-09-02T10:33:14Z</time>
      </trkpt>
      <trkpt lat="44.37535" lon="6.20876">
        <ele>1555.069824</ele>
        <time>2011-09-02T10:33:18Z</time>
      </trkpt>
      <trkpt lat="44.37556" lon="6.20887">
        <ele>1552.185791</ele>
        <time>2011-09-02T10:33:27Z</time>
      </trkpt>
      <trkpt lat="44.37555" lon="6.2093">
        <ele>1549.782715</ele>
        <time>2011-09-02T10:33:37Z</time>
      </trkpt>
      <trkpt lat="44.37585" lon="6.20967">
        <ele>1547.37915</ele>
        <time>2011-09-02T10:33:51Z</time>
      </trkpt>
      <trkpt lat="44.37621" lon="6.20984">
        <ele>1544.97583</ele>
        <time>2011-09-02T10:34:03Z</time>
      </trkpt>
      <trkpt lat="44.37654" lon="6.21021">
        <ele>1544.014648</ele>
        <time>2011-09-02T10:34:18Z</time>
      </trkpt>
      <trkpt lat="44.37655" lon="6.21025">
        <ele>1540.649902</ele>
        <time>2011-09-02T10:34:19Z</time>
      </trkpt>
      <trkpt lat="44.37656" lon="6.2103">
        <ele>1541.130615</ele>
        <time>2011-09-02T10:34:20Z</time>
      </trkpt>
      <trkpt lat="44.37666" lon="6.21064">
        <ele>1540.169434</ele>
        <time>2011-09-02T10:34:31Z</time>
      </trkpt>
      <trkpt lat="44.37666" lon="6.21064">
        <ele>1538.727539</ele>
        <time>2011-09-02T10:34:44Z</time>
      </trkpt>
      <trkpt lat="44.37666" lon="6.21064">
        <ele>1537.2854</ele>
        <time>2011-09-02T10:34:59Z</time>
      </trkpt>
      <trkpt lat="44.37666" lon="6.21064">
        <ele>1537.766113</ele>
        <time>2011-09-02T10:35:13Z</time>
      </trkpt>
      <trkpt lat="44.37666" lon="6.21064">
        <ele>1537.766113</ele>
        <time>2011-09-02T10:35:14Z</time>
      </trkpt>
      <trkpt lat="44.3767" lon="6.21075">
        <ele>1537.2854</ele>
        <time>2011-09-02T10:35:25Z</time>
      </trkpt>
      <trkpt lat="44.3767" lon="6.21075">
        <ele>1539.208008</ele>
        <time>2011-09-02T10:35:34Z</time>
      </trkpt>
      <trkpt lat="44.3767" lon="6.21075">
        <ele>1537.2854</ele>
        <time>2011-09-02T10:35:56Z</time>
      </trkpt>
      <trkpt lat="44.3767" lon="6.21075">
        <ele>1538.727539</ele>
        <time>2011-09-02T10:36:27Z</time>
      </trkpt>
      <trkpt lat="44.3767" lon="6.21075">
        <ele>1539.208008</ele>
        <time>2011-09-02T10:36:37Z</time>
      </trkpt>
      <trkpt lat="44.3767" lon="6.21075">
        <ele>1540.649902</ele>
        <time>2011-09-02T10:36:41Z</time>
      </trkpt>
      <trkpt lat="44.3767" lon="6.21075">
        <ele>1539.208008</ele>
        <time>2011-09-02T10:36:46Z</time>
      </trkpt>
      <trkpt lat="44.3767" lon="6.21075">
        <ele>1538.246826</ele>
        <time>2011-09-02T10:36:53Z</time>
      </trkpt>
      <trkpt lat="44.3767" lon="6.21075">
        <ele>1541.130615</ele>
        <time>2011-09-02T10:36:55Z</time>
      </trkpt>
      <trkpt lat="44.3767" lon="6.21075">
        <ele>1539.208008</ele>
        <time>2011-09-02T10:37:02Z</time>
      </trkpt>
      <trkpt lat="44.3767" lon="6.21075">
        <ele>1538.246826</ele>
        <time>2011-09-02T10:37:21Z</time>
      </trkpt>
      <trkpt lat="44.3767" lon="6.21075">
        <ele>1538.727539</ele>
        <time>2011-09-02T10:37:45Z</time>
      </trkpt>
      <trkpt lat="44.3767" lon="6.21075">
        <ele>1539.208008</ele>
        <time>2011-09-02T10:37:59Z</time>
      </trkpt>
      <trkpt lat="44.3767" lon="6.21075">
        <ele>1539.688721</ele>
        <time>2011-09-02T10:38:15Z</time>
      </trkpt>
      <trkpt lat="44.3767" lon="6.21075">
        <ele>1540.649902</ele>
        <time>2011-09-02T10:38:23Z</time>
      </trkpt>
      <trkpt lat="44.3767" lon="6.21075">
        <ele>1538.246826</ele>
        <time>2011-09-02T10:38:35Z</time>
      </trkpt>
      <trkpt lat="44.3767" lon="6.21075">
        <ele>1538.727539</ele>
        <time>2011-09-02T10:39:29Z</time>
      </trkpt>
      <trkpt lat="44.37669" lon="6.21073">
        <ele>1540.169434</ele>
        <time>2011-09-02T10:39:33Z</time>
      </trkpt>
      <trkpt lat="44.37669" lon="6.21073">
        <ele>1539.208008</ele>
        <time>2011-09-02T10:39:46Z</time>
      </trkpt>
      <trkpt lat="44.37669" lon="6.21073">
        <ele>1538.727539</ele>
        <time>2011-09-02T10:39:58Z</time>
      </trkpt>
      <trkpt lat="44.37667" lon="6.2108">
        <ele>1539.688721</ele>
        <time>2011-09-02T10:40:01Z</time>
      </trkpt>
      <trkpt lat="44.37667" lon="6.2108">
        <ele>1540.649902</ele>
        <time>2011-09-02T10:40:19Z</time>
      </trkpt>
      <trkpt lat="44.37668" lon="6.21082">
        <ele>1540.649902</ele>
        <time>2011-09-02T10:40:40Z</time>
      </trkpt>
      <trkpt lat="44.37667" lon="6.21081">
        <ele>1541.130615</ele>
        <time>2011-09-02T10:41:03Z</time>
      </trkpt>
      <trkpt lat="44.37669" lon="6.21076">
        <ele>1541.611328</ele>
        <time>2011-09-02T10:42:01Z</time>
      </trkpt>
      <trkpt lat="44.37669" lon="6.21076">
        <ele>1541.611328</ele>
        <time>2011-09-02T10:42:08Z</time>
      </trkpt>
      <trkpt lat="44.37673" lon="6.21077">
        <ele>1541.130615</ele>
        <time>2011-09-02T10:42:11Z</time>
      </trkpt>
      <trkpt lat="44.37676" lon="6.2105">
        <ele>1540.169434</ele>
        <time>2011-09-02T10:42:20Z</time>
      </trkpt>
      <trkpt lat="44.3768" lon="6.21019">
        <ele>1538.727539</ele>
        <time>2011-09-02T10:42:28Z</time>
      </trkpt>
      <trkpt lat="44.37678" lon="6.21012">
        <ele>1539.208008</ele>
        <time>2011-09-02T10:42:30Z</time>
      </trkpt>
      <trkpt lat="44.37676" lon="6.20986">
        <ele>1537.2854</ele>
        <time>2011-09-02T10:42:34Z</time>
      </trkpt>
      <trkpt lat="44.37681" lon="6.20961">
        <ele>1535.843506</ele>
        <time>2011-09-02T10:42:38Z</time>
      </trkpt>
      <trkpt lat="44.37683" lon="6.20951">
        <ele>1534.401611</ele>
        <time>2011-09-02T10:42:40Z</time>
      </trkpt>
      <trkpt lat="44.37691" lon="6.20909">
        <ele>1531.517334</ele>
        <time>2011-09-02T10:42:46Z</time>
      </trkpt>
      <trkpt lat="44.37693" lon="6.20901">
        <ele>1530.556152</ele>
        <time>2011-09-02T10:42:47Z</time>
      </trkpt>
      <trkpt lat="44.37698" lon="6.20871">
        <ele>1528.633545</ele>
        <time>2011-09-02T10:42:52Z</time>
      </trkpt>
      <trkpt lat="44.37701" lon="6.20852">
        <ele>1526.230225</ele>
        <time>2011-09-02T10:42:55Z</time>
      </trkpt>
      <trkpt lat="44.37706" lon="6.20816">
        <ele>1522.865723</ele>
        <time>2011-09-02T10:43:02Z</time>
      </trkpt>
      <trkpt lat="44.37709" lon="6.20781">
        <ele>1519.501221</ele>
        <time>2011-09-02T10:43:08Z</time>
      </trkpt>
      <trkpt lat="44.3771" lon="6.20767">
        <ele>1518.059082</ele>
        <time>2011-09-02T10:43:11Z</time>
      </trkpt>
      <trkpt lat="44.37711" lon="6.20749">
        <ele>1515.655762</ele>
        <time>2011-09-02T10:43:15Z</time>
      </trkpt>
      <trkpt lat="44.37712" lon="6.20737">
        <ele>1514.213623</ele>
        <time>2011-09-02T10:43:18Z</time>
      </trkpt>
      <trkpt lat="44.37713" lon="6.20709">
        <ele>1511.329834</ele>
        <time>2011-09-02T10:43:24Z</time>
      </trkpt>
      <trkpt lat="44.37713" lon="6.20696">
        <ele>1509.887695</ele>
        <time>2011-09-02T10:43:27Z</time>
      </trkpt>
      <trkpt lat="44.37714" lon="6.20682">
        <ele>1507.965332</ele>
        <time>2011-09-02T10:43:32Z</time>
      </trkpt>
      <trkpt lat="44.37717" lon="6.20689">
        <ele>1507.003906</ele>
        <time>2011-09-02T10:43:37Z</time>
      </trkpt>
      <trkpt lat="44.37726" lon="6.20709">
        <ele>1506.04248</ele>
        <time>2011-09-02T10:43:43Z</time>
      </trkpt>
      <trkpt lat="44.37733" lon="6.20722">
        <ele>1504.600586</ele>
        <time>2011-09-02T10:43:46Z</time>
      </trkpt>
      <trkpt lat="44.37751" lon="6.20758">
        <ele>1500.755371</ele>
        <time>2011-09-02T10:43:54Z</time>
      </trkpt>
      <trkpt lat="44.37753" lon="6.20761">
        <ele>1500.755371</ele>
        <time>2011-09-02T10:43:55Z</time>
      </trkpt>
      <trkpt lat="44.37764" lon="6.20783">
        <ele>1497.871338</ele>
        <time>2011-09-02T10:44:01Z</time>
      </trkpt>
      <trkpt lat="44.37766" lon="6.20785">
        <ele>1497.871338</ele>
        <time>2011-09-02T10:44:02Z</time>
      </trkpt>
      <trkpt lat="44.37772" lon="6.20798">
        <ele>1495.94873</ele>
        <time>2011-09-02T10:44:05Z</time>
      </trkpt>
      <trkpt lat="44.37782" lon="6.20817">
        <ele>1494.506592</ele>
        <time>2011-09-02T10:44:09Z</time>
      </trkpt>
      <trkpt lat="44.3779" lon="6.20832">
        <ele>1492.584229</ele>
        <time>2011-09-02T10:44:13Z</time>
      </trkpt>
      <trkpt lat="44.37812" lon="6.20873">
        <ele>1489.700195</ele>
        <time>2011-09-02T10:44:24Z</time>
      </trkpt>
      <trkpt lat="44.37823" lon="6.20895">
        <ele>1487.777588</ele>
        <time>2011-09-02T10:44:29Z</time>
      </trkpt>
      <trkpt lat="44.37837" lon="6.20922">
        <ele>1485.374268</ele>
        <time>2011-09-02T10:44:36Z</time>
      </trkpt>
      <trkpt lat="44.37851" lon="6.20947">
        <ele>1482.970703</ele>
        <time>2011-09-02T10:44:42Z</time>
      </trkpt>
      <trkpt lat="44.37863" lon="6.20964">
        <ele>1481.04834</ele>
        <time>2011-09-02T10:44:46Z</time>
      </trkpt>
      <trkpt lat="44.37879" lon="6.20988">
        <ele>1478.64502</ele>
        <time>2011-09-02T10:44:53Z</time>
      </trkpt>
      <trkpt lat="44.37896" lon="6.21022">
        <ele>1475.280273</ele>
        <time>2011-09-02T10:45:03Z</time>
      </trkpt>
      <trkpt lat="44.37914" lon="6.2104">
        <ele>1472.396484</ele>
        <time>2011-09-02T10:45:10Z</time>
      </trkpt>
      <trkpt lat="44.37924" lon="6.21047">
        <ele>1470.95459</ele>
        <time>2011-09-02T10:45:13Z</time>
      </trkpt>
      <trkpt lat="44.37953" lon="6.21079">
        <ele>1467.109131</ele>
        <time>2011-09-02T10:45:24Z</time>
      </trkpt>
      <trkpt lat="44.37963" lon="6.21094">
        <ele>1465.667236</ele>
        <time>2011-09-02T10:45:28Z</time>
      </trkpt>
      <trkpt lat="44.37968" lon="6.21102">
        <ele>1464.705811</ele>
        <time>2011-09-02T10:45:30Z</time>
      </trkpt>
      <trkpt lat="44.37972" lon="6.21109">
        <ele>1462.783203</ele>
        <time>2011-09-02T10:45:32Z</time>
      </trkpt>
      <trkpt lat="44.37982" lon="6.21128">
        <ele>1460.860596</ele>
        <time>2011-09-02T10:45:37Z</time>
      </trkpt>
      <trkpt lat="44.38002" lon="6.21147">
        <ele>1457.496094</ele>
        <time>2011-09-02T10:45:43Z</time>
      </trkpt>
      <trkpt lat="44.38022" lon="6.21165">
        <ele>1454.612061</ele>
        <time>2011-09-02T10:45:52Z</time>
      </trkpt>
      <trkpt lat="44.38042" lon="6.21179">
        <ele>1451.728027</ele>
        <time>2011-09-02T10:45:58Z</time>
      </trkpt>
      <trkpt lat="44.38061" lon="6.2119">
        <ele>1448.363281</ele>
        <time>2011-09-02T10:46:03Z</time>
      </trkpt>
      <trkpt lat="44.38064" lon="6.21192">
        <ele>1448.363281</ele>
        <time>2011-09-02T10:46:04Z</time>
      </trkpt>
      <trkpt lat="44.38074" lon="6.21205">
        <ele>1445.960205</ele>
        <time>2011-09-02T10:46:09Z</time>
      </trkpt>
      <trkpt lat="44.38088" lon="6.21228">
        <ele>1444.037598</ele>
        <time>2011-09-02T10:46:16Z</time>
      </trkpt>
      <trkpt lat="44.38107" lon="6.21221">
        <ele>1442.11499</ele>
        <time>2011-09-02T10:46:25Z</time>
      </trkpt>
      <trkpt lat="44.38107" lon="6.21221">
        <ele>1441.634277</ele>
        <time>2011-09-02T10:46:34Z</time>
      </trkpt>
      <trkpt lat="44.38112" lon="6.21223">
        <ele>1441.153564</ele>
        <time>2011-09-02T10:46:49Z</time>
      </trkpt>
      <trkpt lat="44.38125" lon="6.21222">
        <ele>1442.11499</ele>
        <time>2011-09-02T10:47:00Z</time>
      </trkpt>
      <trkpt lat="44.38117" lon="6.21225">
        <ele>1442.595703</ele>
        <time>2011-09-02T10:47:11Z</time>
      </trkpt>
      <trkpt lat="44.38114" lon="6.21222">
        <ele>1442.595703</ele>
        <time>2011-09-02T10:47:14Z</time>
      </trkpt>
      <trkpt lat="44.38108" lon="6.21217">
        <ele>1444.037598</ele>
        <time>2011-09-02T10:47:18Z</time>
      </trkpt>
      <trkpt lat="44.38091" lon="6.21198">
        <ele>1443.556885</ele>
        <time>2011-09-02T10:47:26Z</time>
      </trkpt>
      <trkpt lat="44.38086" lon="6.21181">
        <ele>1443.556885</ele>
        <time>2011-09-02T10:47:30Z</time>
      </trkpt>
      <trkpt lat="44.38074" lon="6.21166">
        <ele>1442.11499</ele>
        <time>2011-09-02T10:47:34Z</time>
      </trkpt>
      <trkpt lat="44.38068" lon="6.21156">
        <ele>1441.634277</ele>
        <time>2011-09-02T10:47:36Z</time>
      </trkpt>
      <trkpt lat="44.38051" lon="6.21119">
        <ele>1440.192383</ele>
        <time>2011-09-02T10:47:42Z</time>
      </trkpt>
      <trkpt lat="44.38042" lon="6.21102">
        <ele>1440.672852</ele>
        <time>2011-09-02T10:47:45Z</time>
      </trkpt>
      <trkpt lat="44.38033" lon="6.21088">
        <ele>1439.230957</ele>
        <time>2011-09-02T10:47:48Z</time>
      </trkpt>
      <trkpt lat="44.38028" lon="6.21057">
        <ele>1439.230957</ele>
        <time>2011-09-02T10:47:53Z</time>
      </trkpt>
      <trkpt lat="44.38025" lon="6.21029">
        <ele>1438.269775</ele>
        <time>2011-09-02T10:47:58Z</time>
      </trkpt>
      <trkpt lat="44.3802" lon="6.21003">
        <ele>1437.789063</ele>
        <time>2011-09-02T10:48:02Z</time>
      </trkpt>
      <trkpt lat="44.38014" lon="6.20979">
        <ele>1436.827637</ele>
        <time>2011-09-02T10:48:06Z</time>
      </trkpt>
      <trkpt lat="44.37997" lon="6.20948">
        <ele>1435.866211</ele>
        <time>2011-09-02T10:48:12Z</time>
      </trkpt>
      <trkpt lat="44.37978" lon="6.20916">
        <ele>1434.905029</ele>
        <time>2011-09-02T10:48:19Z</time>
      </trkpt>
      <trkpt lat="44.37968" lon="6.20849">
        <ele>1433.462891</ele>
        <time>2011-09-02T10:48:32Z</time>
      </trkpt>
      <trkpt lat="44.37961" lon="6.20798">
        <ele>1431.059814</ele>
        <time>2011-09-02T10:48:43Z</time>
      </trkpt>
      <trkpt lat="44.37951" lon="6.20752">
        <ele>1429.136963</ele>
        <time>2011-09-02T10:48:51Z</time>
      </trkpt>
      <trkpt lat="44.37926" lon="6.20714">
        <ele>1426.253174</ele>
        <time>2011-09-02T10:49:00Z</time>
      </trkpt>
      <trkpt lat="44.37927" lon="6.20695">
        <ele>1424.811279</ele>
        <time>2011-09-02T10:49:03Z</time>
      </trkpt>
      <trkpt lat="44.37926" lon="6.20674">
        <ele>1423.369385</ele>
        <time>2011-09-02T10:49:06Z</time>
      </trkpt>
      <trkpt lat="44.37915" lon="6.2065">
        <ele>1421.446533</ele>
        <time>2011-09-02T10:49:10Z</time>
      </trkpt>
      <trkpt lat="44.37904" lon="6.20624">
        <ele>1419.043213</ele>
        <time>2011-09-02T10:49:15Z</time>
      </trkpt>
      <trkpt lat="44.37906" lon="6.20615">
        <ele>1418.5625</ele>
        <time>2011-09-02T10:49:17Z</time>
      </trkpt>
      <trkpt lat="44.37913" lon="6.20584">
        <ele>1415.678711</ele>
        <time>2011-09-02T10:49:24Z</time>
      </trkpt>
      <trkpt lat="44.37917" lon="6.20544">
        <ele>1411.833496</ele>
        <time>2011-09-02T10:49:30Z</time>
      </trkpt>
      <trkpt lat="44.37916" lon="6.20538">
        <ele>1411.833496</ele>
        <time>2011-09-02T10:49:31Z</time>
      </trkpt>
      <trkpt lat="44.37912" lon="6.20505">
        <ele>1408.949463</ele>
        <time>2011-09-02T10:49:39Z</time>
      </trkpt>
      <trkpt lat="44.3791" lon="6.20465">
        <ele>1406.06543</ele>
        <time>2011-09-02T10:49:48Z</time>
      </trkpt>
      <trkpt lat="44.37901" lon="6.20444">
        <ele>1402.700684</ele>
        <time>2011-09-02T10:49:55Z</time>
      </trkpt>
      <trkpt lat="44.37899" lon="6.2044">
        <ele>1402.700684</ele>
        <time>2011-09-02T10:49:57Z</time>
      </trkpt>
      <trkpt lat="44.37898" lon="6.20438">
        <ele>1400.778076</ele>
        <time>2011-09-02T10:50:01Z</time>
      </trkpt>
      <trkpt lat="44.37882" lon="6.20383">
        <ele>1398.374756</ele>
        <time>2011-09-02T10:50:10Z</time>
      </trkpt>
      <trkpt lat="44.37884" lon="6.20359">
        <ele>1396.452393</ele>
        <time>2011-09-02T10:50:14Z</time>
      </trkpt>
      <trkpt lat="44.37884" lon="6.20341">
        <ele>1395.010254</ele>
        <time>2011-09-02T10:50:17Z</time>
      </trkpt>
      <trkpt lat="44.37879" lon="6.20298">
        <ele>1391.645752</ele>
        <time>2011-09-02T10:50:23Z</time>
      </trkpt>
      <trkpt lat="44.37879" lon="6.20292">
        <ele>1391.645752</ele>
        <time>2011-09-02T10:50:24Z</time>
      </trkpt>
      <trkpt lat="44.37877" lon="6.2025">
        <ele>1387.800293</ele>
        <time>2011-09-02T10:50:32Z</time>
      </trkpt>
      <trkpt lat="44.37882" lon="6.20209">
        <ele>1384.916504</ele>
        <time>2011-09-02T10:50:39Z</time>
      </trkpt>
      <trkpt lat="44.3789" lon="6.20191">
        <ele>1383.955078</ele>
        <time>2011-09-02T10:50:42Z</time>
      </trkpt>
      <trkpt lat="44.37898" lon="6.2018">
        <ele>1382.513184</ele>
        <time>2011-09-02T10:50:45Z</time>
      </trkpt>
      <trkpt lat="44.37913" lon="6.20153">
        <ele>1379.148438</ele>
        <time>2011-09-02T10:50:51Z</time>
      </trkpt>
      <trkpt lat="44.37924" lon="6.20121">
        <ele>1377.226074</ele>
        <time>2011-09-02T10:50:57Z</time>
      </trkpt>
      <trkpt lat="44.37926" lon="6.20109">
        <ele>1376.264648</ele>
        <time>2011-09-02T10:50:59Z</time>
      </trkpt>
      <trkpt lat="44.37934" lon="6.20067">
        <ele>1371.938477</ele>
        <time>2011-09-02T10:51:06Z</time>
      </trkpt>
      <trkpt lat="44.37934" lon="6.20058">
        <ele>1370.977295</ele>
        <time>2011-09-02T10:51:08Z</time>
      </trkpt>
      <trkpt lat="44.37933" lon="6.20026">
        <ele>1368.093262</ele>
        <time>2011-09-02T10:51:14Z</time>
      </trkpt>
      <trkpt lat="44.37932" lon="6.2002">
        <ele>1368.093262</ele>
        <time>2011-09-02T10:51:15Z</time>
      </trkpt>
      <trkpt lat="44.37931" lon="6.20008">
        <ele>1367.13208</ele>
        <time>2011-09-02T10:51:17Z</time>
      </trkpt>
      <trkpt lat="44.37924" lon="6.19949">
        <ele>1362.325439</ele>
        <time>2011-09-02T10:51:27Z</time>
      </trkpt>
      <trkpt lat="44.37922" lon="6.19941">
        <ele>1361.364258</ele>
        <time>2011-09-02T10:51:29Z</time>
      </trkpt>
      <trkpt lat="44.3792" lon="6.19932">
        <ele>1360.883545</ele>
        <time>2011-09-02T10:51:31Z</time>
      </trkpt>
      <trkpt lat="44.37906" lon="6.19909">
        <ele>1358.480225</ele>
        <time>2011-09-02T10:51:42Z</time>
      </trkpt>
      <trkpt lat="44.37906" lon="6.19909">
        <ele>1357.999756</ele>
        <time>2011-09-02T10:51:44Z</time>
      </trkpt>
      <trkpt lat="44.37895" lon="6.19897">
        <ele>1357.999756</ele>
        <time>2011-09-02T10:51:46Z</time>
      </trkpt>
      <trkpt lat="44.37913" lon="6.19914">
        <ele>1356.076904</ele>
        <time>2011-09-02T10:51:58Z</time>
      </trkpt>
      <trkpt lat="44.37928" lon="6.19934">
        <ele>1355.115479</ele>
        <time>2011-09-02T10:52:11Z</time>
      </trkpt>
      <trkpt lat="44.37926" lon="6.19937">
        <ele>1355.115479</ele>
        <time>2011-09-02T10:52:26Z</time>
      </trkpt>
      <trkpt lat="44.3794" lon="6.1998">
        <ele>1354.634766</ele>
        <time>2011-09-02T10:52:41Z</time>
      </trkpt>
      <trkpt lat="44.37966" lon="6.20026">
        <ele>1353.673584</ele>
        <time>2011-09-02T10:52:54Z</time>
      </trkpt>
      <trkpt lat="44.3797" lon="6.20046">
        <ele>1353.192871</ele>
        <time>2011-09-02T10:53:05Z</time>
      </trkpt>
      <trkpt lat="44.37971" lon="6.20044">
        <ele>1353.192871</ele>
        <time>2011-09-02T10:53:13Z</time>
      </trkpt>
      <trkpt lat="44.37976" lon="6.20048">
        <ele>1351.750977</ele>
        <time>2011-09-02T10:53:26Z</time>
      </trkpt>
      <trkpt lat="44.37985" lon="6.2005">
        <ele>1349.347656</ele>
        <time>2011-09-02T10:53:40Z</time>
      </trkpt>
      <trkpt lat="44.37987" lon="6.20051">
        <ele>1349.347656</ele>
        <time>2011-09-02T10:53:41Z</time>
      </trkpt>
      <trkpt lat="44.37992" lon="6.20052">
        <ele>1348.38623</ele>
        <time>2011-09-02T10:53:45Z</time>
      </trkpt>
      <trkpt lat="44.38004" lon="6.20054">
        <ele>1345.502441</ele>
        <time>2011-09-02T10:53:52Z</time>
      </trkpt>
      <trkpt lat="44.38009" lon="6.20056">
        <ele>1344.541016</ele>
        <time>2011-09-02T10:53:55Z</time>
      </trkpt>
      <trkpt lat="44.38013" lon="6.20059">
        <ele>1344.060547</ele>
        <time>2011-09-02T10:53:57Z</time>
      </trkpt>
      <trkpt lat="44.38025" lon="6.20067">
        <ele>1342.137939</ele>
        <time>2011-09-02T10:54:02Z</time>
      </trkpt>
      <trkpt lat="44.38045" lon="6.20074">
        <ele>1338.773193</ele>
        <time>2011-09-02T10:54:17Z</time>
      </trkpt>
      <trkpt lat="44.38046" lon="6.20071">
        <ele>1337.811768</ele>
        <time>2011-09-02T10:54:29Z</time>
      </trkpt>
      <trkpt lat="44.38047" lon="6.20069">
        <ele>1336.850342</ele>
        <time>2011-09-02T10:54:34Z</time>
      </trkpt>
      <trkpt lat="44.38043" lon="6.20048">
        <ele>1334.927979</ele>
        <time>2011-09-02T10:54:40Z</time>
      </trkpt>
      <trkpt lat="44.38043" lon="6.20026">
        <ele>1333.005127</ele>
        <time>2011-09-02T10:54:48Z</time>
      </trkpt>
      <trkpt lat="44.38042" lon="6.20012">
        <ele>1332.524658</ele>
        <time>2011-09-02T10:54:52Z</time>
      </trkpt>
      <trkpt lat="44.38049" lon="6.20009">
        <ele>1331.082764</ele>
        <time>2011-09-02T10:54:55Z</time>
      </trkpt>
      <trkpt lat="44.38052" lon="6.20011">
        <ele>1330.121338</ele>
        <time>2011-09-02T10:55:09Z</time>
      </trkpt>
      <trkpt lat="44.38058" lon="6.20019">
        <ele>1329.159912</ele>
        <time>2011-09-02T10:55:28Z</time>
      </trkpt>
      <trkpt lat="44.38064" lon="6.20019">
        <ele>1327.718018</ele>
        <time>2011-09-02T10:55:47Z</time>
      </trkpt>
      <trkpt lat="44.38066" lon="6.2002">
        <ele>1326.756836</ele>
        <time>2011-09-02T10:56:06Z</time>
      </trkpt>
      <trkpt lat="44.38066" lon="6.2002">
        <ele>1327.237549</ele>
        <time>2011-09-02T10:56:07Z</time>
      </trkpt>
      <trkpt lat="44.38075" lon="6.20038">
        <ele>1324.353516</ele>
        <time>2011-09-02T10:56:16Z</time>
      </trkpt>
      <trkpt lat="44.38077" lon="6.20039">
        <ele>1323.872559</ele>
        <time>2011-09-02T10:56:17Z</time>
      </trkpt>
      <trkpt lat="44.38095" lon="6.2006">
        <ele>1320.508057</ele>
        <time>2011-09-02T10:56:28Z</time>
      </trkpt>
      <trkpt lat="44.38098" lon="6.20063">
        <ele>1320.027344</ele>
        <time>2011-09-02T10:56:30Z</time>
      </trkpt>
      <trkpt lat="44.38115" lon="6.20076">
        <ele>1316.662842</ele>
        <time>2011-09-02T10:56:45Z</time>
      </trkpt>
      <trkpt lat="44.3812" lon="6.20078">
        <ele>1315.220947</ele>
        <time>2011-09-02T10:56:50Z</time>
      </trkpt>
      <trkpt lat="44.38124" lon="6.20076">
        <ele>1313.778809</ele>
        <time>2011-09-02T10:56:53Z</time>
      </trkpt>
      <trkpt lat="44.38132" lon="6.20071">
        <ele>1311.375732</ele>
        <time>2011-09-02T10:57:00Z</time>
      </trkpt>
      <trkpt lat="44.38139" lon="6.20057">
        <ele>1307.049561</ele>
        <time>2011-09-02T10:57:12Z</time>
      </trkpt>
      <trkpt lat="44.38141" lon="6.20054">
        <ele>1306.568848</ele>
        <time>2011-09-02T10:57:14Z</time>
      </trkpt>
      <trkpt lat="44.38147" lon="6.20044">
        <ele>1303.204346</ele>
        <time>2011-09-02T10:57:24Z</time>
      </trkpt>
      <trkpt lat="44.38149" lon="6.20039">
        <ele>1301.762451</ele>
        <time>2011-09-02T10:57:28Z</time>
      </trkpt>
      <trkpt lat="44.38154" lon="6.20027">
        <ele>1298.397705</ele>
        <time>2011-09-02T10:57:36Z</time>
      </trkpt>
      <trkpt lat="44.38159" lon="6.20019">
        <ele>1295.033203</ele>
        <time>2011-09-02T10:57:47Z</time>
      </trkpt>
      <trkpt lat="44.38168" lon="6.20003">
        <ele>1293.110596</ele>
        <time>2011-09-02T10:57:58Z</time>
      </trkpt>
      <trkpt lat="44.3817" lon="6.19998">
        <ele>1292.630127</ele>
        <time>2011-09-02T10:58:01Z</time>
      </trkpt>
      <trkpt lat="44.38169" lon="6.19994">
        <ele>1290.707031</ele>
        <time>2011-09-02T10:58:05Z</time>
      </trkpt>
      <trkpt lat="44.38169" lon="6.19982">
        <ele>1289.74585</ele>
        <time>2011-09-02T10:58:13Z</time>
      </trkpt>
      <trkpt lat="44.38189" lon="6.19964">
        <ele>1285.900635</ele>
        <time>2011-09-02T10:58:22Z</time>
      </trkpt>
      <trkpt lat="44.38207" lon="6.19941">
        <ele>1283.497314</ele>
        <time>2011-09-02T10:58:33Z</time>
      </trkpt>
      <trkpt lat="44.38209" lon="6.19939">
        <ele>1283.497314</ele>
        <time>2011-09-02T10:58:34Z</time>
      </trkpt>
      <trkpt lat="44.38227" lon="6.19916">
        <ele>1283.497314</ele>
        <time>2011-09-02T10:58:46Z</time>
      </trkpt>
      <trkpt lat="44.38236" lon="6.19909">
        <ele>1280.613525</ele>
        <time>2011-09-02T10:58:54Z</time>
      </trkpt>
      <trkpt lat="44.38241" lon="6.19906">
        <ele>1279.6521</ele>
        <time>2011-09-02T10:58:56Z</time>
      </trkpt>
      <trkpt lat="44.38244" lon="6.19903">
        <ele>1279.171387</ele>
        <time>2011-09-02T10:58:58Z</time>
      </trkpt>
      <trkpt lat="44.3825" lon="6.19896">
        <ele>1276.768311</ele>
        <time>2011-09-02T10:59:03Z</time>
      </trkpt>
      <trkpt lat="44.38253" lon="6.19893">
        <ele>1276.287598</ele>
        <time>2011-09-02T10:59:05Z</time>
      </trkpt>
      <trkpt lat="44.38257" lon="6.1989">
        <ele>1274.845459</ele>
        <time>2011-09-02T10:59:07Z</time>
      </trkpt>
      <trkpt lat="44.38279" lon="6.19877">
        <ele>1271.480713</ele>
        <time>2011-09-02T10:59:17Z</time>
      </trkpt>
      <trkpt lat="44.38281" lon="6.19876">
        <ele>1270.519531</ele>
        <time>2011-09-02T10:59:18Z</time>
      </trkpt>
      <trkpt lat="44.38308" lon="6.19878">
        <ele>1268.596924</ele>
        <time>2011-09-02T10:59:29Z</time>
      </trkpt>
      <trkpt lat="44.38318" lon="6.19887">
        <ele>1268.596924</ele>
        <time>2011-09-02T10:59:33Z</time>
      </trkpt>
      <trkpt lat="44.38352" lon="6.19894">
        <ele>1268.596924</ele>
        <time>2011-09-02T10:59:44Z</time>
      </trkpt>
      <trkpt lat="44.38369" lon="6.19905">
        <ele>1270.038818</ele>
        <time>2011-09-02T10:59:53Z</time>
      </trkpt>
      <trkpt lat="44.38379" lon="6.19913">
        <ele>1271.961426</ele>
        <time>2011-09-02T11:00:06Z</time>
      </trkpt>
      <trkpt lat="44.38382" lon="6.19916">
        <ele>1271.480713</ele>
        <time>2011-09-02T11:00:11Z</time>
      </trkpt>
      <trkpt lat="44.38384" lon="6.19915">
        <ele>1270.519531</ele>
        <time>2011-09-02T11:00:33Z</time>
      </trkpt>
      <trkpt lat="44.38389" lon="6.19918">
        <ele>1271.961426</ele>
        <time>2011-09-02T11:01:21Z</time>
      </trkpt>
      <trkpt lat="44.38426" lon="6.19936">
        <ele>1268.596924</ele>
        <time>2011-09-02T11:01:36Z</time>
      </trkpt>
      <trkpt lat="44.38435" lon="6.19937">
        <ele>1266.674316</ele>
        <time>2011-09-02T11:01:40Z</time>
      </trkpt>
      <trkpt lat="44.38459" lon="6.19937">
        <ele>1268.116211</ele>
        <time>2011-09-02T11:01:52Z</time>
      </trkpt>
      <trkpt lat="44.38462" lon="6.19937">
        <ele>1267.635498</ele>
        <time>2011-09-02T11:02:07Z</time>
      </trkpt>
      <trkpt lat="44.38472" lon="6.19936">
        <ele>1268.116211</ele>
        <time>2011-09-02T11:02:20Z</time>
      </trkpt>
      <trkpt lat="44.38482" lon="6.19935">
        <ele>1267.155029</ele>
        <time>2011-09-02T11:02:33Z</time>
      </trkpt>
      <trkpt lat="44.38505" lon="6.19942">
        <ele>1263.790283</ele>
        <time>2011-09-02T11:02:44Z</time>
      </trkpt>
      <trkpt lat="44.3852" lon="6.19948">
        <ele>1262.829102</ele>
        <time>2011-09-02T11:02:50Z</time>
      </trkpt>
      <trkpt lat="44.38525" lon="6.19954">
        <ele>1263.790283</ele>
        <time>2011-09-02T11:03:03Z</time>
      </trkpt>
      <trkpt lat="44.38526" lon="6.19954">
        <ele>1260.906494</ele>
        <time>2011-09-02T11:03:22Z</time>
      </trkpt>
      <trkpt lat="44.3853" lon="6.19953">
        <ele>1261.387207</ele>
        <time>2011-09-02T11:03:27Z</time>
      </trkpt>
      <trkpt lat="44.3855" lon="6.19949">
        <ele>1263.309814</ele>
        <time>2011-09-02T11:03:38Z</time>
      </trkpt>
      <trkpt lat="44.38557" lon="6.19937">
        <ele>1262.348389</ele>
        <time>2011-09-02T11:03:43Z</time>
      </trkpt>
      <trkpt lat="44.38565" lon="6.19927">
        <ele>1261.86792</ele>
        <time>2011-09-02T11:03:47Z</time>
      </trkpt>
      <trkpt lat="44.38565" lon="6.19919">
        <ele>1263.790283</ele>
        <time>2011-09-02T11:03:52Z</time>
      </trkpt>
      <trkpt lat="44.38565" lon="6.19917">
        <ele>1262.348389</ele>
        <time>2011-09-02T11:03:54Z</time>
      </trkpt>
      <trkpt lat="44.38562" lon="6.19912">
        <ele>1264.270996</ele>
        <time>2011-09-02T11:04:06Z</time>
      </trkpt>
      <trkpt lat="44.38562" lon="6.19912">
        <ele>1261.86792</ele>
        <time>2011-09-02T11:04:08Z</time>
      </trkpt>
      <trkpt lat="44.38565" lon="6.19906">
        <ele>1263.309814</ele>
        <time>2011-09-02T11:04:11Z</time>
      </trkpt>
      <trkpt lat="44.38571" lon="6.19905">
        <ele>1260.906494</ele>
        <time>2011-09-02T11:04:13Z</time>
      </trkpt>
      <trkpt lat="44.38601" lon="6.19929">
        <ele>1258.022461</ele>
        <time>2011-09-02T11:04:26Z</time>
      </trkpt>
      <trkpt lat="44.38626" lon="6.19953">
        <ele>1257.541748</ele>
        <time>2011-09-02T11:04:40Z</time>
      </trkpt>
      <trkpt lat="44.38635" lon="6.19961">
        <ele>1253.696533</ele>
        <time>2011-09-02T11:04:44Z</time>
      </trkpt>
      <trkpt lat="44.38637" lon="6.19963">
        <ele>1253.696533</ele>
        <time>2011-09-02T11:04:45Z</time>
      </trkpt>
      <trkpt lat="44.38666" lon="6.19985">
        <ele>1251.293213</ele>
        <time>2011-09-02T11:04:58Z</time>
      </trkpt>
      <trkpt lat="44.38668" lon="6.19988">
        <ele>1251.293213</ele>
        <time>2011-09-02T11:04:59Z</time>
      </trkpt>
      <trkpt lat="44.38674" lon="6.19999">
        <ele>1248.40918</ele>
        <time>2011-09-02T11:05:04Z</time>
      </trkpt>
      <trkpt lat="44.3868" lon="6.20013">
        <ele>1246.967285</ele>
        <time>2011-09-02T11:05:11Z</time>
      </trkpt>
      <trkpt lat="44.38685" lon="6.2002">
        <ele>1246.006104</ele>
        <time>2011-09-02T11:05:23Z</time>
      </trkpt>
      <trkpt lat="44.38687" lon="6.20022">
        <ele>1245.525391</ele>
        <time>2011-09-02T11:05:25Z</time>
      </trkpt>
      <trkpt lat="44.3869" lon="6.20027">
        <ele>1244.083496</ele>
        <time>2011-09-02T11:05:30Z</time>
      </trkpt>
      <trkpt lat="44.38699" lon="6.20034">
        <ele>1242.160645</ele>
        <time>2011-09-02T11:05:44Z</time>
      </trkpt>
      <trkpt lat="44.38707" lon="6.20045">
        <ele>1240.718506</ele>
        <time>2011-09-02T11:05:52Z</time>
      </trkpt>
      <trkpt lat="44.38714" lon="6.20049">
        <ele>1238.31543</ele>
        <time>2011-09-02T11:05:57Z</time>
      </trkpt>
      <trkpt lat="44.38724" lon="6.20056">
        <ele>1234.950928</ele>
        <time>2011-09-02T11:06:07Z</time>
      </trkpt>
      <trkpt lat="44.3873" lon="6.20061">
        <ele>1233.989502</ele>
        <time>2011-09-02T11:06:11Z</time>
      </trkpt>
      <trkpt lat="44.38742" lon="6.20074">
        <ele>1230.625</ele>
        <time>2011-09-02T11:06:23Z</time>
      </trkpt>
      <trkpt lat="44.38752" lon="6.20086">
        <ele>1228.22168</ele>
        <time>2011-09-02T11:06:36Z</time>
      </trkpt>
      <trkpt lat="44.38763" lon="6.20102">
        <ele>1225.337402</ele>
        <time>2011-09-02T11:06:44Z</time>
      </trkpt>
      <trkpt lat="44.38767" lon="6.20109">
        <ele>1223.895508</ele>
        <time>2011-09-02T11:06:48Z</time>
      </trkpt>
      <trkpt lat="44.38772" lon="6.20114">
        <ele>1222.453613</ele>
        <time>2011-09-02T11:06:52Z</time>
      </trkpt>
      <trkpt lat="44.38775" lon="6.20118">
        <ele>1220.531006</ele>
        <time>2011-09-02T11:06:55Z</time>
      </trkpt>
      <trkpt lat="44.38779" lon="6.20125">
        <ele>1217.166504</ele>
        <time>2011-09-02T11:07:00Z</time>
      </trkpt>
      <trkpt lat="44.38779" lon="6.20126">
        <ele>1216.685791</ele>
        <time>2011-09-02T11:07:01Z</time>
      </trkpt>
      <trkpt lat="44.38788" lon="6.20135">
        <ele>1213.801758</ele>
        <time>2011-09-02T11:07:09Z</time>
      </trkpt>
      <trkpt lat="44.38798" lon="6.20147">
        <ele>1210.917725</ele>
        <time>2011-09-02T11:07:16Z</time>
      </trkpt>
      <trkpt lat="44.3881" lon="6.20158">
        <ele>1208.033936</ele>
        <time>2011-09-02T11:07:23Z</time>
      </trkpt>
      <trkpt lat="44.38814" lon="6.20162">
        <ele>1207.07251</ele>
        <time>2011-09-02T11:07:25Z</time>
      </trkpt>
      <trkpt lat="44.38816" lon="6.20165">
        <ele>1206.591797</ele>
        <time>2011-09-02T11:07:26Z</time>
      </trkpt>
      <trkpt lat="44.38833" lon="6.20188">
        <ele>1203.227295</ele>
        <time>2011-09-02T11:07:37Z</time>
      </trkpt>
      <trkpt lat="44.38847" lon="6.20201">
        <ele>1200.823975</ele>
        <time>2011-09-02T11:07:46Z</time>
      </trkpt>
      <trkpt lat="44.38856" lon="6.20213">
        <ele>1197.459473</ele>
        <time>2011-09-02T11:07:56Z</time>
      </trkpt>
      <trkpt lat="44.38866" lon="6.20234">
        <ele>1194.575195</ele>
        <time>2011-09-02T11:08:10Z</time>
      </trkpt>
      <trkpt lat="44.38871" lon="6.20248">
        <ele>1192.652832</ele>
        <time>2011-09-02T11:08:19Z</time>
      </trkpt>
      <trkpt lat="44.38872" lon="6.20251">
        <ele>1192.652832</ele>
        <time>2011-09-02T11:08:21Z</time>
      </trkpt>
      <trkpt lat="44.38874" lon="6.20256">
        <ele>1191.210693</ele>
        <time>2011-09-02T11:08:23Z</time>
      </trkpt>
      <trkpt lat="44.38892" lon="6.20283">
        <ele>1188.326904</ele>
        <time>2011-09-02T11:08:35Z</time>
      </trkpt>
      <trkpt lat="44.389" lon="6.20291">
        <ele>1186.884766</ele>
        <time>2011-09-02T11:08:46Z</time>
      </trkpt>
      <trkpt lat="44.38909" lon="6.20306">
        <ele>1184.481689</ele>
        <time>2011-09-02T11:08:53Z</time>
      </trkpt>
      <trkpt lat="44.3892" lon="6.20327">
        <ele>1182.078369</ele>
        <time>2011-09-02T11:09:00Z</time>
      </trkpt>
      <trkpt lat="44.38935" lon="6.20356">
        <ele>1178.23291</ele>
        <time>2011-09-02T11:09:10Z</time>
      </trkpt>
      <trkpt lat="44.38948" lon="6.20375">
        <ele>1174.868408</ele>
        <time>2011-09-02T11:09:19Z</time>
      </trkpt>
      <trkpt lat="44.38958" lon="6.20387">
        <ele>1171.503662</ele>
        <time>2011-09-02T11:09:26Z</time>
      </trkpt>
      <trkpt lat="44.38964" lon="6.20393">
        <ele>1169.581299</ele>
        <time>2011-09-02T11:09:30Z</time>
      </trkpt>
      <trkpt lat="44.38976" lon="6.20401">
        <ele>1166.697266</ele>
        <time>2011-09-02T11:09:36Z</time>
      </trkpt>
      <trkpt lat="44.38978" lon="6.20401">
        <ele>1166.697266</ele>
        <time>2011-09-02T11:09:37Z</time>
      </trkpt>
      <trkpt lat="44.38996" lon="6.20404">
        <ele>1163.33252</ele>
        <time>2011-09-02T11:09:45Z</time>
      </trkpt>
      <trkpt lat="44.39025" lon="6.20419">
        <ele>1159.967773</ele>
        <time>2011-09-02T11:09:57Z</time>
      </trkpt>
      <trkpt lat="44.39027" lon="6.20421">
        <ele>1159.967773</ele>
        <time>2011-09-02T11:09:58Z</time>
      </trkpt>
      <trkpt lat="44.39059" lon="6.2045">
        <ele>1157.083984</ele>
        <time>2011-09-02T11:10:13Z</time>
      </trkpt>
      <trkpt lat="44.39084" lon="6.20477">
        <ele>1153.719482</ele>
        <time>2011-09-02T11:10:27Z</time>
      </trkpt>
      <trkpt lat="44.39085" lon="6.20478">
        <ele>1153.719482</ele>
        <time>2011-09-02T11:10:28Z</time>
      </trkpt>
      <trkpt lat="44.39088" lon="6.20481">
        <ele>1153.23877</ele>
        <time>2011-09-02T11:10:41Z</time>
      </trkpt>
      <trkpt lat="44.39092" lon="6.20484">
        <ele>1151.316162</ele>
        <time>2011-09-02T11:10:49Z</time>
      </trkpt>
      <trkpt lat="44.391" lon="6.20486">
        <ele>1149.874268</ele>
        <time>2011-09-02T11:10:53Z</time>
      </trkpt>
      <trkpt lat="44.39105" lon="6.20489">
        <ele>1148.432129</ele>
        <time>2011-09-02T11:10:56Z</time>
      </trkpt>
      <trkpt lat="44.39115" lon="6.20506">
        <ele>1145.067383</ele>
        <time>2011-09-02T11:11:03Z</time>
      </trkpt>
      <trkpt lat="44.39117" lon="6.20512">
        <ele>1144.106201</ele>
        <time>2011-09-02T11:11:05Z</time>
      </trkpt>
      <trkpt lat="44.39126" lon="6.2053">
        <ele>1141.702881</ele>
        <time>2011-09-02T11:11:12Z</time>
      </trkpt>
      <trkpt lat="44.39129" lon="6.20536">
        <ele>1140.260986</ele>
        <time>2011-09-02T11:11:15Z</time>
      </trkpt>
      <trkpt lat="44.3915" lon="6.20543">
        <ele>1137.376953</ele>
        <time>2011-09-02T11:11:28Z</time>
      </trkpt>
      <trkpt lat="44.39165" lon="6.2054">
        <ele>1134.493164</ele>
        <time>2011-09-02T11:11:49Z</time>
      </trkpt>
      <trkpt lat="44.39168" lon="6.20541">
        <ele>1133.531738</ele>
        <time>2011-09-02T11:12:09Z</time>
      </trkpt>
      <trkpt lat="44.39168" lon="6.20541">
        <ele>1133.531738</ele>
        <time>2011-09-02T11:12:10Z</time>
      </trkpt>
      <trkpt lat="44.3917" lon="6.20543">
        <ele>1132.570557</ele>
        <time>2011-09-02T11:12:14Z</time>
      </trkpt>
      <trkpt lat="44.39175" lon="6.20545">
        <ele>1131.608887</ele>
        <time>2011-09-02T11:12:17Z</time>
      </trkpt>
      <trkpt lat="44.39184" lon="6.20554">
        <ele>1129.686279</ele>
        <time>2011-09-02T11:12:29Z</time>
      </trkpt>
      <trkpt lat="44.39191" lon="6.2056">
        <ele>1127.763672</ele>
        <time>2011-09-02T11:12:43Z</time>
      </trkpt>
      <trkpt lat="44.39194" lon="6.2056">
        <ele>1126.80249</ele>
        <time>2011-09-02T11:12:50Z</time>
      </trkpt>
      <trkpt lat="44.39207" lon="6.20561">
        <ele>1125.360352</ele>
        <time>2011-09-02T11:13:01Z</time>
      </trkpt>
      <trkpt lat="44.39212" lon="6.20561">
        <ele>1124.39917</ele>
        <time>2011-09-02T11:13:08Z</time>
      </trkpt>
      <trkpt lat="44.39221" lon="6.20564">
        <ele>1123.918457</ele>
        <time>2011-09-02T11:13:19Z</time>
      </trkpt>
      <trkpt lat="44.39223" lon="6.20565">
        <ele>1122.476563</ele>
        <time>2011-09-02T11:13:21Z</time>
      </trkpt>
      <trkpt lat="44.39232" lon="6.20574">
        <ele>1121.034668</ele>
        <time>2011-09-02T11:13:36Z</time>
      </trkpt>
      <trkpt lat="44.39232" lon="6.20576">
        <ele>1119.592773</ele>
        <time>2011-09-02T11:13:38Z</time>
      </trkpt>
      <trkpt lat="44.39233" lon="6.20577">
        <ele>1121.034668</ele>
        <time>2011-09-02T11:13:40Z</time>
      </trkpt>
      <trkpt lat="44.39235" lon="6.20581">
        <ele>1119.592773</ele>
        <time>2011-09-02T11:13:52Z</time>
      </trkpt>
      <trkpt lat="44.3924" lon="6.20588">
        <ele>1118.631348</ele>
        <time>2011-09-02T11:13:56Z</time>
      </trkpt>
      <trkpt lat="44.39248" lon="6.20602">
        <ele>1115.747314</ele>
        <time>2011-09-02T11:14:01Z</time>
      </trkpt>
      <trkpt lat="44.39257" lon="6.20636">
        <ele>1112.863281</ele>
        <time>2011-09-02T11:14:11Z</time>
      </trkpt>
      <trkpt lat="44.39259" lon="6.20656">
        <ele>1111.421387</ele>
        <time>2011-09-02T11:14:23Z</time>
      </trkpt>
      <trkpt lat="44.3926" lon="6.20656">
        <ele>1111.9021</ele>
        <time>2011-09-02T11:14:25Z</time>
      </trkpt>
      <trkpt lat="44.39264" lon="6.20659">
        <ele>1109.979248</ele>
        <time>2011-09-02T11:14:29Z</time>
      </trkpt>
      <trkpt lat="44.39271" lon="6.20665">
        <ele>1109.018066</ele>
        <time>2011-09-02T11:14:45Z</time>
      </trkpt>
      <trkpt lat="44.39289" lon="6.20675">
        <ele>1105.653564</ele>
        <time>2011-09-02T11:14:51Z</time>
      </trkpt>
      <trkpt lat="44.39292" lon="6.20676">
        <ele>1105.653564</ele>
        <time>2011-09-02T11:14:52Z</time>
      </trkpt>
      <trkpt lat="44.39311" lon="6.20685">
        <ele>1102.288818</ele>
        <time>2011-09-02T11:14:58Z</time>
      </trkpt>
      <trkpt lat="44.39325" lon="6.20691">
        <ele>1100.846924</ele>
        <time>2011-09-02T11:15:01Z</time>
      </trkpt>
      <trkpt lat="44.39347" lon="6.20701">
        <ele>1098.443359</ele>
        <time>2011-09-02T11:15:06Z</time>
      </trkpt>
      <trkpt lat="44.39352" lon="6.20703">
        <ele>1097.001465</ele>
        <time>2011-09-02T11:15:08Z</time>
      </trkpt>
      <trkpt lat="44.3937" lon="6.20707">
        <ele>1094.117676</ele>
        <time>2011-09-02T11:15:16Z</time>
      </trkpt>
      <trkpt lat="44.39372" lon="6.20707">
        <ele>1094.117676</ele>
        <time>2011-09-02T11:15:17Z</time>
      </trkpt>
      <trkpt lat="44.39381" lon="6.2071">
        <ele>1092.195068</ele>
        <time>2011-09-02T11:15:22Z</time>
      </trkpt>
      <trkpt lat="44.39387" lon="6.20717">
        <ele>1088.830566</ele>
        <time>2011-09-02T11:15:28Z</time>
      </trkpt>
      <trkpt lat="44.39389" lon="6.20724">
        <ele>1087.388428</ele>
        <time>2011-09-02T11:15:42Z</time>
      </trkpt>
      <trkpt lat="44.39389" lon="6.20724">
        <ele>1085.46582</ele>
        <time>2011-09-02T11:15:53Z</time>
      </trkpt>
      <trkpt lat="44.39389" lon="6.20743">
        <ele>1083.542969</ele>
        <time>2011-09-02T11:16:04Z</time>
      </trkpt>
      <trkpt lat="44.39389" lon="6.20743">
        <ele>1081.620361</ele>
        <time>2011-09-02T11:16:20Z</time>
      </trkpt>
      <trkpt lat="44.39389" lon="6.20743">
        <ele>1079.697754</ele>
        <time>2011-09-02T11:16:34Z</time>
      </trkpt>
      <trkpt lat="44.39389" lon="6.20743">
        <ele>1078.736572</ele>
        <time>2011-09-02T11:16:37Z</time>
      </trkpt>
      <trkpt lat="44.39389" lon="6.20747">
        <ele>1077.294678</ele>
        <time>2011-09-02T11:16:41Z</time>
      </trkpt>
      <trkpt lat="44.39389" lon="6.20747">
        <ele>1076.333252</ele>
        <time>2011-09-02T11:16:45Z</time>
      </trkpt>
      <trkpt lat="44.39443" lon="6.2079">
        <ele>1074.891357</ele>
        <time>2011-09-02T11:16:50Z</time>
      </trkpt>
      <trkpt lat="44.3943" lon="6.20818">
        <ele>1073.929932</ele>
        <time>2011-09-02T11:16:57Z</time>
      </trkpt>
      <trkpt lat="44.3943" lon="6.20818">
        <ele>1073.929932</ele>
        <time>2011-09-02T11:17:15Z</time>
      </trkpt>
      <trkpt lat="44.39453" lon="6.20747">
        <ele>1072.488037</ele>
        <time>2011-09-02T11:17:26Z</time>
      </trkpt>
      <trkpt lat="44.39456" lon="6.20735">
        <ele>1071.046143</ele>
        <time>2011-09-02T11:17:28Z</time>
      </trkpt>
      <trkpt lat="44.39486" lon="6.20647">
        <ele>1073.449463</ele>
        <time>2011-09-02T11:17:44Z</time>
      </trkpt>
      <trkpt lat="44.39528" lon="6.2057">
        <ele>1072.96875</ele>
        <time>2011-09-02T11:18:01Z</time>
      </trkpt>
      <trkpt lat="44.39574" lon="6.2054">
        <ele>1070.084717</ele>
        <time>2011-09-02T11:18:14Z</time>
      </trkpt>
      <trkpt lat="44.39578" lon="6.20538">
        <ele>1070.084717</ele>
        <time>2011-09-02T11:18:15Z</time>
      </trkpt>
      <trkpt lat="44.39597" lon="6.2053">
        <ele>1072.96875</ele>
        <time>2011-09-02T11:18:20Z</time>
      </trkpt>
      <trkpt lat="44.39647" lon="6.205">
        <ele>1072.96875</ele>
        <time>2011-09-02T11:18:36Z</time>
      </trkpt>
      <trkpt lat="44.39656" lon="6.20448">
        <ele>1075.371826</ele>
        <time>2011-09-02T11:18:48Z</time>
      </trkpt>
      <trkpt lat="44.39648" lon="6.20385">
        <ele>1073.929932</ele>
        <time>2011-09-02T11:19:00Z</time>
      </trkpt>
      <trkpt lat="44.39666" lon="6.20325">
        <ele>1074.891357</ele>
        <time>2011-09-02T11:19:12Z</time>
      </trkpt>
      <trkpt lat="44.39687" lon="6.20278">
        <ele>1072.96875</ele>
        <time>2011-09-02T11:19:22Z</time>
      </trkpt>
      <trkpt lat="44.39703" lon="6.20258">
        <ele>1074.410645</ele>
        <time>2011-09-02T11:19:27Z</time>
      </trkpt>
      <trkpt lat="44.39724" lon="6.20234">
        <ele>1073.929932</ele>
        <time>2011-09-02T11:19:34Z</time>
      </trkpt>
      <trkpt lat="44.39764" lon="6.2019">
        <ele>1074.410645</ele>
        <time>2011-09-02T11:19:46Z</time>
      </trkpt>
      <trkpt lat="44.39767" lon="6.20185">
        <ele>1073.929932</ele>
        <time>2011-09-02T11:19:47Z</time>
      </trkpt>
      <trkpt lat="44.39776" lon="6.20172">
        <ele>1073.929932</ele>
        <time>2011-09-02T11:19:50Z</time>
      </trkpt>
      <trkpt lat="44.39787" lon="6.20141">
        <ele>1073.449463</ele>
        <time>2011-09-02T11:19:56Z</time>
      </trkpt>
      <trkpt lat="44.39792" lon="6.20111">
        <ele>1073.929932</ele>
        <time>2011-09-02T11:20:01Z</time>
      </trkpt>
      <trkpt lat="44.39799" lon="6.20067">
        <ele>1073.449463</ele>
        <time>2011-09-02T11:20:09Z</time>
      </trkpt>
      <trkpt lat="44.39805" lon="6.19979">
        <ele>1074.410645</ele>
        <time>2011-09-02T11:20:25Z</time>
      </trkpt>
      <trkpt lat="44.39805" lon="6.19979">
        <ele>1074.410645</ele>
        <time>2011-09-02T11:20:37Z</time>
      </trkpt>
      <trkpt lat="44.39805" lon="6.19979">
        <ele>1073.929932</ele>
        <time>2011-09-02T11:20:51Z</time>
      </trkpt>
      <trkpt lat="44.39805" lon="6.19979">
        <ele>1072.488037</ele>
        <time>2011-09-02T11:21:18Z</time>
      </trkpt>
      <trkpt lat="44.39805" lon="6.19979">
        <ele>1072.96875</ele>
        <time>2011-09-02T11:21:20Z</time>
      </trkpt>
      <trkpt lat="44.39822" lon="6.19941">
        <ele>1073.449463</ele>
        <time>2011-09-02T11:21:31Z</time>
      </trkpt>
      <trkpt lat="44.39829" lon="6.1991">
        <ele>1072.96875</ele>
        <time>2011-09-02T11:21:37Z</time>
      </trkpt>
      <trkpt lat="44.39831" lon="6.19872">
        <ele>1073.929932</ele>
        <time>2011-09-02T11:21:44Z</time>
      </trkpt>
      <trkpt lat="44.39828" lon="6.19775">
        <ele>1074.410645</ele>
        <time>2011-09-02T11:22:01Z</time>
      </trkpt>
      <trkpt lat="44.39827" lon="6.1969">
        <ele>1073.929932</ele>
        <time>2011-09-02T11:22:16Z</time>
      </trkpt>
      <trkpt lat="44.39834" lon="6.1961">
        <ele>1074.410645</ele>
        <time>2011-09-02T11:22:31Z</time>
      </trkpt>
      <trkpt lat="44.39843" lon="6.19536">
        <ele>1075.852539</ele>
        <time>2011-09-02T11:22:45Z</time>
      </trkpt>
      <trkpt lat="44.39843" lon="6.19514">
        <ele>1075.371826</ele>
        <time>2011-09-02T11:22:49Z</time>
      </trkpt>
      <trkpt lat="44.39837" lon="6.19486">
        <ele>1075.852539</ele>
        <time>2011-09-02T11:22:54Z</time>
      </trkpt>
      <trkpt lat="44.39836" lon="6.19462">
        <ele>1074.891357</ele>
        <time>2011-09-02T11:22:58Z</time>
      </trkpt>
      <trkpt lat="44.39838" lon="6.1937">
        <ele>1076.333252</ele>
        <time>2011-09-02T11:23:14Z</time>
      </trkpt>
      <trkpt lat="44.39843" lon="6.193">
        <ele>1076.333252</ele>
        <time>2011-09-02T11:23:28Z</time>
      </trkpt>
      <trkpt lat="44.3985" lon="6.19236">
        <ele>1077.294678</ele>
        <time>2011-09-02T11:23:42Z</time>
      </trkpt>
      <trkpt lat="44.39825" lon="6.19187">
        <ele>1077.294678</ele>
        <time>2011-09-02T11:23:53Z</time>
      </trkpt>
      <trkpt lat="44.39784" lon="6.19126">
        <ele>1076.813965</ele>
        <time>2011-09-02T11:24:08Z</time>
      </trkpt>
      <trkpt lat="44.3975" lon="6.1907">
        <ele>1077.294678</ele>
        <time>2011-09-02T11:24:22Z</time>
      </trkpt>
      <trkpt lat="44.39737" lon="6.19059">
        <ele>1077.775146</ele>
        <time>2011-09-02T11:24:26Z</time>
      </trkpt>
      <trkpt lat="44.39723" lon="6.1905">
        <ele>1076.813965</ele>
        <time>2011-09-02T11:24:30Z</time>
      </trkpt>
      <trkpt lat="44.39709" lon="6.19048">
        <ele>1076.813965</ele>
        <time>2011-09-02T11:24:33Z</time>
      </trkpt>
      <trkpt lat="44.39683" lon="6.19032">
        <ele>1074.410645</ele>
        <time>2011-09-02T11:24:38Z</time>
      </trkpt>
      <trkpt lat="44.39672" lon="6.19018">
        <ele>1073.449463</ele>
        <time>2011-09-02T11:24:40Z</time>
      </trkpt>
      <trkpt lat="44.39653" lon="6.18987">
        <ele>1072.007324</ele>
        <time>2011-09-02T11:24:44Z</time>
      </trkpt>
      <trkpt lat="44.39642" lon="6.18956">
        <ele>1070.084717</ele>
        <time>2011-09-02T11:24:47Z</time>
      </trkpt>
      <trkpt lat="44.39644" lon="6.18933">
        <ele>1068.642822</ele>
        <time>2011-09-02T11:24:49Z</time>
      </trkpt>
      <trkpt lat="44.39647" lon="6.18922">
        <ele>1068.642822</ele>
        <time>2011-09-02T11:24:50Z</time>
      </trkpt>
      <trkpt lat="44.39659" lon="6.18875">
        <ele>1066.719971</ele>
        <time>2011-09-02T11:24:54Z</time>
      </trkpt>
      <trkpt lat="44.39676" lon="6.18817">
        <ele>1065.278076</ele>
        <time>2011-09-02T11:24:59Z</time>
      </trkpt>
      <trkpt lat="44.39683" lon="6.18794">
        <ele>1064.31665</ele>
        <time>2011-09-02T11:25:01Z</time>
      </trkpt>
      <trkpt lat="44.39703" lon="6.18749">
        <ele>1061.432861</ele>
        <time>2011-09-02T11:25:05Z</time>
      </trkpt>
      <trkpt lat="44.39712" lon="6.18729">
        <ele>1060.952148</ele>
        <time>2011-09-02T11:25:07Z</time>
      </trkpt>
      <trkpt lat="44.39711" lon="6.18663">
        <ele>1057.587646</ele>
        <time>2011-09-02T11:25:13Z</time>
      </trkpt>
      <trkpt lat="44.39708" lon="6.18652">
        <ele>1056.626221</ele>
        <time>2011-09-02T11:25:14Z</time>
      </trkpt>
      <trkpt lat="44.39698" lon="6.18629">
        <ele>1054.223145</ele>
        <time>2011-09-02T11:25:16Z</time>
      </trkpt>
      <trkpt lat="44.39687" lon="6.18566">
        <ele>1051.81958</ele>
        <time>2011-09-02T11:25:21Z</time>
      </trkpt>
      <trkpt lat="44.39685" lon="6.18521">
        <ele>1050.377686</ele>
        <time>2011-09-02T11:25:25Z</time>
      </trkpt>
      <trkpt lat="44.39676" lon="6.18496">
        <ele>1048.935547</ele>
        <time>2011-09-02T11:25:28Z</time>
      </trkpt>
      <trkpt lat="44.39653" lon="6.18482">
        <ele>1046.051758</ele>
        <time>2011-09-02T11:25:31Z</time>
      </trkpt>
      <trkpt lat="44.39636" lon="6.18473">
        <ele>1044.609619</ele>
        <time>2011-09-02T11:25:33Z</time>
      </trkpt>
      <trkpt lat="44.39565" lon="6.18437">
        <ele>1043.648438</ele>
        <time>2011-09-02T11:25:42Z</time>
      </trkpt>
      <trkpt lat="44.39533" lon="6.18393">
        <ele>1042.206543</ele>
        <time>2011-09-02T11:25:48Z</time>
      </trkpt>
      <trkpt lat="44.39519" lon="6.18352">
        <ele>1042.687256</ele>
        <time>2011-09-02T11:25:53Z</time>
      </trkpt>
      <trkpt lat="44.3952" lon="6.18295">
        <ele>1043.167725</ele>
        <time>2011-09-02T11:26:01Z</time>
      </trkpt>
      <trkpt lat="44.3954" lon="6.1827">
        <ele>1043.167725</ele>
        <time>2011-09-02T11:26:06Z</time>
      </trkpt>
      <trkpt lat="44.39561" lon="6.18248">
        <ele>1042.687256</ele>
        <time>2011-09-02T11:26:11Z</time>
      </trkpt>
      <trkpt lat="44.39574" lon="6.18234">
        <ele>1042.206543</ele>
        <time>2011-09-02T11:26:14Z</time>
      </trkpt>
      <trkpt lat="44.39584" lon="6.18199">
        <ele>1042.206543</ele>
        <time>2011-09-02T11:26:19Z</time>
      </trkpt>
      <trkpt lat="44.39586" lon="6.18168">
        <ele>1040.764404</ele>
        <time>2011-09-02T11:26:23Z</time>
      </trkpt>
      <trkpt lat="44.3959" lon="6.18141">
        <ele>1040.764404</ele>
        <time>2011-09-02T11:26:26Z</time>
      </trkpt>
      <trkpt lat="44.39592" lon="6.18126">
        <ele>1040.283936</ele>
        <time>2011-09-02T11:26:28Z</time>
      </trkpt>
      <trkpt lat="44.39591" lon="6.18102">
        <ele>1040.764404</ele>
        <time>2011-09-02T11:26:31Z</time>
      </trkpt>
      <trkpt lat="44.39548" lon="6.17984">
        <ele>1038.842041</ele>
        <time>2011-09-02T11:26:47Z</time>
      </trkpt>
      <trkpt lat="44.39505" lon="6.17871">
        <ele>1036.919189</ele>
        <time>2011-09-02T11:27:03Z</time>
      </trkpt>
      <trkpt lat="44.39495" lon="6.17836">
        <ele>1035.957764</ele>
        <time>2011-09-02T11:27:08Z</time>
      </trkpt>
      <trkpt lat="44.39477" lon="6.1771">
        <ele>1034.035156</ele>
        <time>2011-09-02T11:27:23Z</time>
      </trkpt>
      <trkpt lat="44.39443" lon="6.17601">
        <ele>1033.07373</ele>
        <time>2011-09-02T11:27:39Z</time>
      </trkpt>
      <trkpt lat="44.39441" lon="6.17594">
        <ele>1033.07373</ele>
        <time>2011-09-02T11:27:40Z</time>
      </trkpt>
      <trkpt lat="44.39425" lon="6.17576">
        <ele>1032.593262</ele>
        <time>2011-09-02T11:27:44Z</time>
      </trkpt>
      <trkpt lat="44.39399" lon="6.17562">
        <ele>1033.07373</ele>
        <time>2011-09-02T11:27:49Z</time>
      </trkpt>
      <trkpt lat="44.39385" lon="6.17551">
        <ele>1031.631836</ele>
        <time>2011-09-02T11:27:52Z</time>
      </trkpt>
      <trkpt lat="44.39381" lon="6.17546">
        <ele>1032.593262</ele>
        <time>2011-09-02T11:27:53Z</time>
      </trkpt>
      <trkpt lat="44.39373" lon="6.17498">
        <ele>1031.631836</ele>
        <time>2011-09-02T11:27:59Z</time>
      </trkpt>
      <trkpt lat="44.39377" lon="6.17492">
        <ele>1031.151367</ele>
        <time>2011-09-02T11:28:00Z</time>
      </trkpt>
      <trkpt lat="44.39395" lon="6.17467">
        <ele>1029.709229</ele>
        <time>2011-09-02T11:28:04Z</time>
      </trkpt>
      <trkpt lat="44.39403" lon="6.17454">
        <ele>1029.228516</ele>
        <time>2011-09-02T11:28:06Z</time>
      </trkpt>
      <trkpt lat="44.39413" lon="6.17444">
        <ele>1027.786621</ele>
        <time>2011-09-02T11:28:08Z</time>
      </trkpt>
      <trkpt lat="44.39433" lon="6.17437">
        <ele>1028.267334</ele>
        <time>2011-09-02T11:28:11Z</time>
      </trkpt>
      <trkpt lat="44.39514" lon="6.17373">
        <ele>1025.383301</ele>
        <time>2011-09-02T11:28:25Z</time>
      </trkpt>
      <trkpt lat="44.39554" lon="6.17346">
        <ele>1023.460938</ele>
        <time>2011-09-02T11:28:32Z</time>
      </trkpt>
      <trkpt lat="44.39583" lon="6.17323">
        <ele>1020.576904</ele>
        <time>2011-09-02T11:28:37Z</time>
      </trkpt>
      <trkpt lat="44.396" lon="6.17321">
        <ele>1016.250732</ele>
        <time>2011-09-02T11:28:40Z</time>
      </trkpt>
      <trkpt lat="44.39604" lon="6.17323">
        <ele>1016.250732</ele>
        <time>2011-09-02T11:28:41Z</time>
      </trkpt>
      <trkpt lat="44.39615" lon="6.17338">
        <ele>1013.847412</ele>
        <time>2011-09-02T11:28:44Z</time>
      </trkpt>
      <trkpt lat="44.39623" lon="6.1735">
        <ele>1013.847412</ele>
        <time>2011-09-02T11:28:46Z</time>
      </trkpt>
      <trkpt lat="44.39643" lon="6.17362">
        <ele>1012.405518</ele>
        <time>2011-09-02T11:28:50Z</time>
      </trkpt>
      <trkpt lat="44.39662" lon="6.1735">
        <ele>1011.925049</ele>
        <time>2011-09-02T11:28:55Z</time>
      </trkpt>
      <trkpt lat="44.39665" lon="6.1734">
        <ele>1013.366943</ele>
        <time>2011-09-02T11:28:57Z</time>
      </trkpt>
      <trkpt lat="44.39673" lon="6.17321">
        <ele>1014.808838</ele>
        <time>2011-09-02T11:29:01Z</time>
      </trkpt>
      <trkpt lat="44.3968" lon="6.17314">
        <ele>1013.366943</ele>
        <time>2011-09-02T11:29:04Z</time>
      </trkpt>
      <trkpt lat="44.39715" lon="6.17285">
        <ele>1015.770264</ele>
        <time>2011-09-02T11:29:20Z</time>
      </trkpt>
      <trkpt lat="44.39718" lon="6.17282">
        <ele>1017.692627</ele>
        <time>2011-09-02T11:29:22Z</time>
      </trkpt>
      <trkpt lat="44.39722" lon="6.17275">
        <ele>1015.770264</ele>
        <time>2011-09-02T11:29:25Z</time>
      </trkpt>
      <trkpt lat="44.39725" lon="6.17271">
        <ele>1017.692627</ele>
        <time>2011-09-02T11:29:27Z</time>
      </trkpt>
      <trkpt lat="44.39747" lon="6.17225">
        <ele>1019.615479</ele>
        <time>2011-09-02T11:29:45Z</time>
      </trkpt>
      <trkpt lat="44.39762" lon="6.17185">
        <ele>1022.018799</ele>
        <time>2011-09-02T11:30:01Z</time>
      </trkpt>
      <trkpt lat="44.39767" lon="6.17171">
        <ele>1022.499512</ele>
        <time>2011-09-02T11:30:07Z</time>
      </trkpt>
      <trkpt lat="44.39782" lon="6.17136">
        <ele>1024.902832</ele>
        <time>2011-09-02T11:30:22Z</time>
      </trkpt>
      <trkpt lat="44.39784" lon="6.17131">
        <ele>1025.383301</ele>
        <time>2011-09-02T11:30:24Z</time>
      </trkpt>
      <trkpt lat="44.39786" lon="6.17126">
        <ele>1024.902832</ele>
        <time>2011-09-02T11:30:27Z</time>
      </trkpt>
      <trkpt lat="44.39787" lon="6.17124">
        <ele>1026.344727</ele>
        <time>2011-09-02T11:30:41Z</time>
      </trkpt>
      <trkpt lat="44.39787" lon="6.17124">
        <ele>1025.864014</ele>
        <time>2011-09-02T11:30:43Z</time>
      </trkpt>
    </trkseg>
  </trk>
</gpx>